Provisional Data: Moose Creek near Plymptonville, PA


Please select a monitoring station.
Please select start date.
Please select start date.

Toggle Unit: C/F Toggle Unit: C/F
Sample Time Temperature (C) Temperature (F) Specific Conductivity (mS/cm) pH   Turbidity (NTU+) DO (mg/L)
12/23/2022 12:00:00 AM 2.73 36.914 0.2 6.8 9.69 12.52
12/23/2022 12:15:00 AM 2.74 36.932 0.205 6.81 9.95 12.51
12/23/2022 12:30:00 AM 2.75 36.95 0.21 6.83 9.32 12.5
12/23/2022 12:45:00 AM 2.77 36.986 0.211 6.84 9.41 12.49
12/23/2022 1:00:00 AM 2.79 37.022 0.211 6.85 9.09 12.47
12/23/2022 1:15:00 AM 2.82 37.076 0.211 6.86 9.32 12.45
12/23/2022 1:30:00 AM 2.85 37.13 0.214 6.87 9.57 12.43
12/23/2022 1:45:00 AM 2.87 37.166 0.218 6.87 9.8 12.42
12/23/2022 2:00:00 AM 2.9 37.22 0.223 6.88 10.15 12.4
12/23/2022 2:15:00 AM 2.94 37.292 0.227 6.89 9.82 12.38
12/23/2022 2:30:00 AM 2.97 37.346 0.228 6.89 9.6 12.36
12/23/2022 2:45:00 AM 3.02 37.436 0.226 6.89 9.45 12.34
12/23/2022 3:00:00 AM 3.06 37.508 0.224 6.89 9.29 12.31
12/23/2022 3:15:00 AM 3.11 37.598 0.221 6.89 8.52 12.29
12/23/2022 3:30:00 AM 3.15 37.67 0.218 6.89 8.55 12.27
12/23/2022 3:45:00 AM 3.18 37.724 0.214 6.9 8.3 12.25
12/23/2022 4:00:00 AM 3.21 37.778 0.211 6.9 8.12 12.24
12/23/2022 4:15:00 AM 3.24 37.832 0.208 6.89 8.24 12.23
12/23/2022 4:30:00 AM 3.26 37.868 0.205 6.89 8.32 12.21
12/23/2022 4:45:00 AM 3.28 37.904 0.202 6.89 7.63 12.21
12/23/2022 5:00:00 AM 3.3 37.94 0.199 6.89 7.67 12.19
12/23/2022 5:15:00 AM 3.3 37.94 0.196 6.88 7.8 12.19
12/23/2022 5:30:00 AM 3.31 37.958 0.195 6.88 7.91 12.18
12/23/2022 5:45:00 AM 3.32 37.976 0.193 6.88 7.31 12.17
12/23/2022 6:00:00 AM 3.33 37.994 0.191 6.88 7.43 12.17
12/23/2022 6:15:00 AM 3.34 38.012 0.189 6.89 7.56 12.16
12/23/2022 6:30:00 AM 3.34 38.012 0.187 6.89 7.61 12.16
12/23/2022 6:45:00 AM 3.34 38.012 0.185 6.88 7.35 12.16
12/23/2022 7:00:00 AM 3.34 38.012 0.184 6.89 7.32 12.16
12/23/2022 7:15:00 AM 3.34 38.012 0.183 6.89 7.27 12.14
12/23/2022 7:30:00 AM 3.31 37.958 0.182 6.89 7.59 12.15
12/23/2022 7:45:00 AM 3.21 37.778 0.183 6.89 8.36 12.18
12/23/2022 8:00:00 AM 3.02 37.436 0.186 6.9 8.75 12.26
12/23/2022 8:15:00 AM 2.86 37.148 0.189 6.9 9.54 12.33
12/23/2022 8:30:00 AM 2.75 36.95 0.194 6.9 9.1 12.38
12/23/2022 8:45:00 AM 2.64 36.752 0.197 6.89 9.22 12.43
12/23/2022 9:00:00 AM 2.58 36.644 0.199 6.89 8.92 12.45
12/23/2022 9:15:00 AM 2.54 36.572 0.202 6.89 8.84 12.47
12/23/2022 9:30:00 AM 2.46 36.428 0.202 6.89 8.2 12.51
12/23/2022 9:45:00 AM 2.36 36.248 0.201 6.88 8.03 12.55
12/23/2022 10:00:00 AM 2.27 36.086 0.199 6.88 7.58 12.6
12/23/2022 10:15:00 AM 2.21 35.978 0.197 6.88 7.39 12.63
12/23/2022 10:30:00 AM 2.11 35.798 0.196 6.88 7.16 12.67
12/23/2022 10:45:00 AM 2.03 35.654 0.195 6.87 7.09 12.7
12/23/2022 11:00:00 AM 1.99 35.582 0.194 6.86 6.89 12.71
12/23/2022 11:15:00 AM 1.89 35.402 0.193 6.85 6.77 12.74
12/23/2022 11:30:00 AM 1.82 35.276 0.192 6.83 6.71 12.76
12/23/2022 11:45:00 AM 1.73 35.114 0.192 6.83 6.55 12.8
12/23/2022 12:00:00 PM 1.67 35.006 0.192 6.84 6.61 12.83
12/23/2022 12:15:00 PM 1.62 34.916 0.192 6.83 6.4 12.85
12/23/2022 12:30:00 PM 1.55 34.79 0.193 6.83 6.25 12.88
12/23/2022 12:45:00 PM 1.5 34.7 0.193 6.83 6.22 12.9
12/23/2022 1:00:00 PM 1.43 34.574 0.194 6.82 6.01 12.93
12/23/2022 1:15:00 PM 1.37 34.466 0.195 6.83 6.19 12.95
12/23/2022 1:30:00 PM 1.32 34.376 0.196 6.83 6.17 12.97
12/23/2022 1:45:00 PM 1.27 34.286 0.196 6.82 6.07 12.98
12/23/2022 2:00:00 PM 1.19 34.142 0.197 6.82 6.24 13
12/23/2022 2:15:00 PM 1.07 33.926 0.197 6.82 6.01 13.05
12/23/2022 2:30:00 PM 0.98 33.764 0.197 6.81 5.9 13.09
12/23/2022 2:45:00 PM 0.91 33.638 0.197 6.82 5.9 13.13
12/23/2022 3:00:00 PM 0.87 33.566 0.197 6.82 5.83 13.15
12/23/2022 3:15:00 PM 0.81 33.458 0.198 6.82 5.79 13.17
12/23/2022 3:30:00 PM 0.72 33.296 0.199 6.81 6.14 13.21
12/23/2022 3:45:00 PM 0.63 33.134 0.198 6.81 5.72 13.23
12/23/2022 4:00:00 PM 0.54 32.972 0.198 6.81 5.78 13.27
12/23/2022 4:15:00 PM 0.45 32.81 0.196 6.8 5.81 13.3
12/23/2022 4:30:00 PM 0.39 32.702 0.195 6.8 5.79 13.33
12/23/2022 4:45:00 PM 0.3 32.54 0.194 6.8 5.73 13.36
12/23/2022 5:00:00 PM 0.23 32.414 0.194 6.8 5.77 13.4
12/23/2022 5:15:00 PM 0.18 32.324 0.193 6.8 5.56 13.42
12/23/2022 5:30:00 PM 0.1 32.18 0.191 6.79 5.61 13.45
12/23/2022 5:45:00 PM 0.06 32.108 0.19 6.78 5.6 13.47
12/23/2022 6:00:00 PM 0.03 32.054 0.192 6.79 5.45 13.48
12/23/2022 6:15:00 PM 0 32 0.191 6.79 5.55 13.5
12/23/2022 6:30:00 PM -0.09 31.838 0.189 6.78 5.38 13.53
12/23/2022 6:45:00 PM -0.12 31.784 0.188 6.78 5.46 13.55
12/23/2022 7:00:00 PM -0.11 31.802 0.191 6.79 5.86 13.56
12/23/2022 7:15:00 PM -0.11 31.802 0.197 6.8 5.48 13.57
12/23/2022 7:30:00 PM -0.11 31.802 0.203 6.8 7.26 13.58
12/23/2022 7:45:00 PM -0.11 31.802 0.205 6.81 5.74 13.58
12/23/2022 8:00:00 PM -0.11 31.802 0.204 6.81 6.42 13.59
12/23/2022 8:15:00 PM -0.1 31.82 0.202 6.82 5.46 13.59
12/23/2022 8:30:00 PM -0.11 31.802 0.201 6.82 6.82 13.59
12/23/2022 8:45:00 PM -0.1 31.82 0.2 6.83 5.64 13.59
12/23/2022 9:00:00 PM -0.1 31.82 0.199 6.83 5.52 13.59
12/23/2022 9:15:00 PM -0.1 31.82 0.199 6.83 5.54 13.6
12/23/2022 9:30:00 PM -0.1 31.82 0.199 6.84 5.78 13.6
12/23/2022 9:45:00 PM -0.1 31.82 0.198 6.84 6.05 13.6
12/23/2022 10:00:00 PM -0.1 31.82 0.198 6.84 5.77 13.6
12/23/2022 10:15:00 PM -0.1 31.82 0.198 6.84 6.06 13.61
12/23/2022 10:30:00 PM -0.1 31.82 0.197 6.85 5.84 13.61
12/23/2022 10:45:00 PM -0.1 31.82 0.197 6.84 6.1 13.6
12/23/2022 11:00:00 PM -0.1 31.82 0.197 6.84 6.72 13.61
12/23/2022 11:15:00 PM -0.1 31.82 0.196 6.84 8.23 13.61
12/23/2022 11:30:00 PM -0.1 31.82 0.196 6.84 8.35 13.62
12/23/2022 11:45:00 PM -0.1 31.82 0.195 6.83 9.07 13.62
12/24/2022 12:00:00 AM -0.1 31.82 0.195 6.83 9.81 13.62
12/24/2022 12:15:00 AM -0.1 31.82 0.194 6.83 10.96 13.61
12/24/2022 12:30:00 AM -0.1 31.82 0.193 6.83 11.54 13.62
12/24/2022 12:45:00 AM -0.1 31.82 0.192 6.84 12.14 13.64
12/24/2022 1:00:00 AM -0.1 31.82 0.192 6.83 11.63 13.63
12/24/2022 1:15:00 AM -0.1 31.82 0.191 6.83 11.86 13.63
12/24/2022 1:30:00 AM -0.1 31.82 0.19 6.83 14.44 13.62
12/24/2022 1:45:00 AM -0.1 31.82 0.19 6.83 15.65 13.64
12/24/2022 2:00:00 AM -0.1 31.82 0.19 6.83 17.19 13.63
12/24/2022 2:15:00 AM -0.1 31.82 0.189 6.83 18.54 13.65
12/24/2022 2:30:00 AM -0.1 31.82 0.189 6.83 19.38 13.64
12/24/2022 2:45:00 AM -0.1 31.82 0.188 6.82 20.45 13.63
12/24/2022 3:00:00 AM -0.1 31.82 0.188 6.82 21.51 13.64
12/24/2022 3:15:00 AM -0.1 31.82 0.187 6.82 22.65 13.65
12/24/2022 3:30:00 AM -0.1 31.82 0.187 6.81 22.34 13.65
12/24/2022 3:45:00 AM -0.1 31.82 0.186 6.81 23.51 13.66
12/24/2022 4:00:00 AM -0.1 31.82 0.186 6.81 24.02 13.64
12/24/2022 4:15:00 AM -0.1 31.82 0.184 6.81 24.8 13.64
12/24/2022 4:30:00 AM -0.1 31.82 0.183 6.81 25.18 13.64
12/24/2022 4:45:00 AM -0.1 31.82 0.183 6.8 23.03 13.63
12/24/2022 5:00:00 AM -0.1 31.82 0.182 6.8 23.61 13.63
12/24/2022 5:15:00 AM -0.1 31.82 0.182 6.8 24.05 13.63
12/24/2022 5:30:00 AM -0.1 31.82 0.182 6.8 23.7 13.63
12/24/2022 5:45:00 AM -0.1 31.82 0.181 6.79 24.55 13.62
12/24/2022 6:00:00 AM -0.1 31.82 0.181 6.8 24.73 13.61
12/24/2022 6:15:00 AM -0.1 31.82 0.18 6.79 27.07 13.6
12/24/2022 6:30:00 AM -0.1 31.82 0.18 6.79 26.58 13.6
12/24/2022 6:45:00 AM -0.1 31.82 0.179 6.79 25.55 13.6
12/24/2022 7:00:00 AM -0.1 31.82 0.179 6.79 24.82 13.61
12/24/2022 7:15:00 AM -0.1 31.82 0.178 6.78 22.47 13.61
12/24/2022 7:30:00 AM -0.1 31.82 0.178 6.78 21.48 13.61
12/24/2022 7:45:00 AM -0.1 31.82 0.178 6.78 20.14 13.62
12/24/2022 8:00:00 AM -0.1 31.82 0.177 6.78 18.8 13.61
12/24/2022 8:15:00 AM -0.1 31.82 0.177 6.78 17.59 13.61
12/24/2022 8:30:00 AM -0.1 31.82 0.176 6.77 16.03 13.61
12/24/2022 8:45:00 AM -0.1 31.82 0.176 6.77 16.26 13.61
12/24/2022 9:00:00 AM -0.1 31.82 0.176 6.77 16.02 13.61
12/24/2022 9:15:00 AM -0.1 31.82 0.175 6.77 16.04 13.62
12/24/2022 9:30:00 AM -0.1 31.82 0.175 6.77 17.06 13.62
12/24/2022 9:45:00 AM -0.1 31.82 0.175 6.76 17.17 13.62
12/24/2022 10:00:00 AM -0.1 31.82 0.174 6.76 15.71 13.62
12/24/2022 10:15:00 AM -0.1 31.82 0.174 6.76 14.87 13.63
12/24/2022 10:30:00 AM -0.1 31.82 0.173 6.76 14.1 13.63
12/24/2022 10:45:00 AM -0.1 31.82 0.173 6.76 15.64 13.63
12/24/2022 11:00:00 AM -0.1 31.82 0.172 6.76 15.33 13.63
12/24/2022 11:15:00 AM -0.1 31.82 0.172 6.76 14.76 13.63
12/24/2022 11:30:00 AM -0.1 31.82 0.171 6.75 19.78 13.63
12/24/2022 11:45:00 AM -0.1 31.82 0.17 6.75 12.61 13.64
12/24/2022 12:00:00 PM -0.1 31.82 0.169 6.75 11.16 13.64
12/24/2022 12:15:00 PM -0.1 31.82 0.168 6.75 12.04 13.63
12/24/2022 12:30:00 PM -0.1 31.82 0.166 6.75 12.3 13.64
12/24/2022 12:45:00 PM -0.1 31.82 0.169 6.74 11.09 13.63
12/24/2022 1:00:00 PM -0.1 31.82 0.17 6.74 11.63 13.64
12/24/2022 1:15:00 PM -0.1 31.82 0.17 6.74 12.24 13.64
12/24/2022 1:30:00 PM -0.1 31.82 0.169 6.74 10.32 13.64
12/24/2022 1:45:00 PM -0.1 31.82 0.168 6.74 10.17 13.64
12/24/2022 2:00:00 PM -0.1 31.82 0.168 6.74 10.3 13.64
12/24/2022 2:15:00 PM -0.1 31.82 0.167 6.74 10.28 13.64
12/24/2022 2:30:00 PM -0.1 31.82 0.167 6.74 10.3 13.64
12/24/2022 2:45:00 PM -0.1 31.82 0.167 6.74 10.45 13.64
12/24/2022 3:00:00 PM -0.1 31.82 0.166 6.74 10.35 13.63
12/24/2022 3:15:00 PM -0.1 31.82 0.166 6.74 10.21 13.64
12/24/2022 3:30:00 PM -0.1 31.82 0.166 6.74 10.37 13.64
12/24/2022 3:45:00 PM -0.1 31.82 0.165 6.74 10.22 13.64
12/24/2022 4:00:00 PM -0.1 31.82 0.164 6.74 10.15 13.64
12/24/2022 4:15:00 PM -0.1 31.82 0.164 6.74 9.64 13.64
12/24/2022 4:30:00 PM -0.1 31.82 0.164 6.74 9.29 13.64
12/24/2022 4:45:00 PM -0.1 31.82 0.163 6.73 9.02 13.64
12/24/2022 5:00:00 PM -0.1 31.82 0.163 6.73 8.73 13.64
12/24/2022 5:15:00 PM -0.1 31.82 0.163 6.73 8.58 13.64
12/24/2022 5:30:00 PM -0.1 31.82 0.162 6.73 8.34 13.64
12/24/2022 5:45:00 PM -0.1 31.82 0.162 6.73 8.14 13.64
12/24/2022 6:00:00 PM -0.1 31.82 0.161 6.73 7.87 13.64
12/24/2022 6:15:00 PM -0.1 31.82 0.16 6.73 7.79 13.63
12/24/2022 6:30:00 PM -0.1 31.82 0.16 6.73 7.53 13.63
12/24/2022 6:45:00 PM -0.1 31.82 0.159 6.72 7.5 13.63
12/24/2022 7:00:00 PM -0.1 31.82 0.158 6.72 7.41 13.63
12/24/2022 7:15:00 PM -0.1 31.82 0.158 6.72 7.24 13.63
12/24/2022 7:30:00 PM -0.1 31.82 0.157 6.72 7.89 13.63
12/24/2022 7:45:00 PM -0.1 31.82 0.157 6.72 7.82 13.63
12/24/2022 8:00:00 PM -0.1 31.82 0.157 6.72 7.69 13.63
12/24/2022 8:15:00 PM -0.1 31.82 0.156 6.72 7.68 13.63
12/24/2022 8:30:00 PM -0.1 31.82 0.156 6.72 7.51 13.63
12/24/2022 8:45:00 PM -0.1 31.82 0.155 6.72 7.47 13.63
12/24/2022 9:00:00 PM -0.1 31.82 0.155 6.72 7.38 13.63
12/24/2022 9:15:00 PM -0.1 31.82 0.154 6.71 7.32 13.63
12/24/2022 9:30:00 PM -0.1 31.82 0.154 6.71 7.14 13.62
12/24/2022 9:45:00 PM -0.1 31.82 0.153 6.71 7.09 13.62
12/24/2022 10:00:00 PM -0.1 31.82 0.153 6.71 7.07 13.62
12/24/2022 10:15:00 PM -0.1 31.82 0.152 6.71 6.9 13.62
12/24/2022 10:30:00 PM -0.1 31.82 0.152 6.71 6.79 13.62
12/24/2022 10:45:00 PM -0.1 31.82 0.151 6.71 6.73 13.62
12/24/2022 11:00:00 PM -0.1 31.82 0.151 6.71 6.69 13.61
12/24/2022 11:15:00 PM -0.1 31.82 0.15 6.71 6.7 13.61
12/24/2022 11:30:00 PM -0.1 31.82 0.15 6.71 6.8 13.6
12/24/2022 11:45:00 PM -0.1 31.82 0.149 6.71 6.85 13.6
12/25/2022 12:00:00 AM -0.1 31.82 0.149 6.71 6.86 13.59
12/25/2022 12:15:00 AM -0.1 31.82 0.149 6.71 6.65 13.59
12/25/2022 12:30:00 AM -0.1 31.82 0.148 6.71 6.23 13.58
12/25/2022 12:45:00 AM -0.1 31.82 0.148 6.71 6.23 13.58
12/25/2022 1:00:00 AM -0.1 31.82 0.147 6.71 6.19 13.58
12/25/2022 1:15:00 AM -0.1 31.82 0.147 6.71 6.17 13.57
12/25/2022 1:30:00 AM -0.1 31.82 0.147 6.71 6.33 13.56
12/25/2022 1:45:00 AM -0.1 31.82 0.146 6.71 6.26 13.56
12/25/2022 2:00:00 AM -0.1 31.82 0.146 6.71 6.29 13.56
12/25/2022 2:15:00 AM -0.1 31.82 0.145 6.71 6.47 13.56
12/25/2022 2:30:00 AM -0.1 31.82 0.145 6.71 6.68 13.55
12/25/2022 2:45:00 AM -0.1 31.82 0.144 6.71 6.73 13.55
12/25/2022 3:00:00 AM -0.1 31.82 0.144 6.71 6.74 13.55
12/25/2022 3:15:00 AM -0.1 31.82 0.143 6.71 6.93 13.55
12/25/2022 3:30:00 AM -0.1 31.82 0.143 6.71 6.88 13.55
12/25/2022 3:45:00 AM -0.1 31.82 0.142 6.71 6.77 13.55
12/25/2022 4:00:00 AM -0.1 31.82 0.142 6.71 6.83 13.55
12/25/2022 4:15:00 AM -0.1 31.82 0.142 6.71 6.77 13.54
12/25/2022 4:30:00 AM -0.1 31.82 0.141 6.71 6.86 13.54
12/25/2022 4:45:00 AM -0.1 31.82 0.141 6.71 6.78 13.53
12/25/2022 5:00:00 AM -0.1 31.82 0.141 6.7 6.76 13.54
12/25/2022 5:15:00 AM -0.1 31.82 0.14 6.71 6.72 13.53
12/25/2022 5:30:00 AM -0.1 31.82 0.14 6.7 6.66 13.53
12/25/2022 5:45:00 AM -0.1 31.82 0.14 6.7 6.62 13.53
12/25/2022 6:00:00 AM -0.1 31.82 0.139 6.7 6.55 13.53
12/25/2022 6:15:00 AM -0.1 31.82 0.139 6.7 6.41 13.52
12/25/2022 6:30:00 AM -0.1 31.82 0.139 6.7 6.33 13.52
12/25/2022 6:45:00 AM -0.1 31.82 0.138 6.7 6.3 13.51
12/25/2022 7:00:00 AM -0.1 31.82 0.138 6.7 6.41 13.51
12/25/2022 7:15:00 AM -0.1 31.82 0.137 6.7 6.49 13.51
12/25/2022 7:30:00 AM -0.1 31.82 0.137 6.7 6.42 13.52
12/25/2022 7:45:00 AM -0.1 31.82 0.137 6.7 6.94 13.51
12/25/2022 8:00:00 AM -0.1 31.82 0.136 6.7 7.39 13.52
12/25/2022 8:15:00 AM -0.1 31.82 0.136 6.71 7.43 13.52
12/25/2022 8:30:00 AM -0.1 31.82 0.136 6.71 7.3 13.51
12/25/2022 8:45:00 AM -0.1 31.82 0.135 6.71 7.95 13.5
12/25/2022 9:00:00 AM -0.08 31.856 0.135 6.71 9.66 13.49
12/25/2022 9:15:00 AM 0.14 32.252 0.135 6.69 4.84 13.53
12/25/2022 9:30:00 AM 0.19 32.342 0.135 6.67 4.26 13.51
12/25/2022 9:45:00 AM 0.22 32.396 0.135 6.69 3.95 13.51
12/25/2022 10:00:00 AM 0.26 32.468 0.134 6.7 4.03 13.5
12/25/2022 10:15:00 AM 0.31 32.558 0.134 6.7 3.67 13.5
12/25/2022 10:30:00 AM 0.34 32.612 0.134 6.7 3.77 13.5
12/25/2022 10:45:00 AM 0.37 32.666 0.134 6.7 3.67 13.49
12/25/2022 11:00:00 AM 0.41 32.738 0.133 6.7 3.55 13.48
12/25/2022 11:15:00 AM 0.44 32.792 0.133 6.7 3.53 13.47
12/25/2022 11:30:00 AM 0.47 32.846 0.133 6.7 3.51 13.46
12/25/2022 11:45:00 AM 0.5 32.9 0.132 6.7 3.46 13.44
12/25/2022 12:00:00 PM 0.53 32.954 0.132 6.71 3.67 13.43
12/25/2022 12:15:00 PM 0.55 32.99 0.132 6.7 3.44 13.42
12/25/2022 12:30:00 PM 0.57 33.026 0.132 6.7 3.48 13.41
12/25/2022 12:45:00 PM 0.6 33.08 0.131 6.7 3.67 13.4
12/25/2022 1:00:00 PM 0.63 33.134 0.131 6.7 3.41 13.4
12/25/2022 1:15:00 PM 0.64 33.152 0.131 6.7 3.46 13.39
12/25/2022 1:30:00 PM 0.65 33.17 0.131 6.7 3.58 13.39
12/25/2022 1:45:00 PM 0.67 33.206 0.13 6.7 3.56 13.39
12/25/2022 2:00:00 PM 0.7 33.26 0.13 6.7 3.52 13.38
12/25/2022 2:15:00 PM 0.72 33.296 0.13 6.7 3.42 13.37
12/25/2022 2:30:00 PM 0.74 33.332 0.13 6.7 3.5 13.37
12/25/2022 2:45:00 PM 0.76 33.368 0.129 6.7 3.42 13.36
12/25/2022 3:00:00 PM 0.77 33.386 0.129 6.7 3.47 13.37
12/25/2022 3:15:00 PM 0.79 33.422 0.129 6.7 3.48 13.36
12/25/2022 3:30:00 PM 0.8 33.44 0.129 6.69 3.5 13.37
12/25/2022 3:45:00 PM 0.8 33.44 0.129 6.7 3.51 13.36
12/25/2022 4:00:00 PM 0.81 33.458 0.128 6.69 3.42 13.36
12/25/2022 4:15:00 PM 0.81 33.458 0.128 6.69 3.41 13.36
12/25/2022 4:30:00 PM 0.8 33.44 0.128 6.69 3.45 13.36
12/25/2022 4:45:00 PM 0.81 33.458 0.128 6.69 3.45 13.36
12/25/2022 5:00:00 PM 0.8 33.44 0.128 6.69 3.58 13.36
12/25/2022 5:15:00 PM 0.81 33.458 0.127 6.69 3.44 13.35
12/25/2022 5:30:00 PM 0.82 33.476 0.127 6.69 3.49 13.36
12/25/2022 5:45:00 PM 0.82 33.476 0.127 6.69 3.49 13.36
12/25/2022 6:00:00 PM 0.82 33.476 0.127 6.68 3.35 13.36
12/25/2022 6:15:00 PM 0.82 33.476 0.126 6.68 3.58 13.37
12/25/2022 6:30:00 PM 0.84 33.512 0.126 6.68 3.57 13.37
12/25/2022 6:45:00 PM 0.85 33.53 0.126 6.68 3.6 13.36
12/25/2022 7:00:00 PM 0.86 33.548 0.126 6.68 3.55 13.37
12/25/2022 7:15:00 PM 0.87 33.566 0.126 6.68 3.51 13.36
12/25/2022 7:30:00 PM 0.87 33.566 0.125 6.68 3.63 13.36
12/25/2022 7:45:00 PM 0.87 33.566 0.125 6.68 3.42 13.36
12/25/2022 8:00:00 PM 0.86 33.548 0.125 6.68 3.43 13.37
12/25/2022 8:15:00 PM 0.87 33.566 0.125 6.67 3.5 13.36
12/25/2022 8:30:00 PM 0.88 33.584 0.124 6.67 3.5 13.37
12/25/2022 8:45:00 PM 0.87 33.566 0.124 6.67 3.4 13.37
12/25/2022 9:00:00 PM 0.87 33.566 0.124 6.67 3.35 13.37
12/25/2022 9:15:00 PM 0.87 33.566 0.124 6.67 3.39 13.37
12/25/2022 9:30:00 PM 0.88 33.584 0.124 6.67 3.44 13.38
12/25/2022 9:45:00 PM 0.88 33.584 0.123 6.67 3.52 13.37
12/25/2022 10:00:00 PM 0.89 33.602 0.123 6.67 3.42 13.37
12/25/2022 10:15:00 PM 0.9 33.62 0.123 6.67 3.42 13.37
12/25/2022 10:30:00 PM 0.9 33.62 0.123 6.66 3.4 13.36
12/25/2022 10:45:00 PM 0.9 33.62 0.123 6.66 3.42 13.37
12/25/2022 11:00:00 PM 0.91 33.638 0.122 6.66 3.39 13.37
12/25/2022 11:15:00 PM 0.91 33.638 0.122 6.66 3.47 13.37
12/25/2022 11:30:00 PM 0.92 33.656 0.122 6.66 3.35 13.37
12/25/2022 11:45:00 PM 0.92 33.656 0.122 6.66 3.61 13.37
12/26/2022 12:00:00 AM 0.92 33.656 0.122 6.66 3.36 13.37
12/26/2022 12:15:00 AM 0.91 33.638 0.121 6.66 3.51 13.37
12/26/2022 12:30:00 AM 0.92 33.656 0.121 6.66 3.31 13.37
12/26/2022 12:45:00 AM 0.93 33.674 0.121 6.66 3.48 13.36
12/26/2022 1:00:00 AM 0.94 33.692 0.121 6.65 3.36 13.37
12/26/2022 1:15:00 AM 0.94 33.692 0.121 6.65 3.41 13.37
12/26/2022 1:30:00 AM 0.94 33.692 0.12 6.65 3.44 13.37
12/26/2022 1:45:00 AM 0.95 33.71 0.12 6.65 3.37 13.36
12/26/2022 2:00:00 AM 0.95 33.71 0.12 6.65 3.31 13.36
12/26/2022 2:15:00 AM 0.96 33.728 0.12 6.65 3.37 13.36
12/26/2022 2:30:00 AM 0.95 33.71 0.12 6.65 3.35 13.37
12/26/2022 2:45:00 AM 0.96 33.728 0.12 6.65 3.32 13.37
12/26/2022 3:00:00 AM 0.96 33.728 0.119 6.65 3.33 13.37
12/26/2022 3:15:00 AM 0.96 33.728 0.119 6.65 3.34 13.37
12/26/2022 3:30:00 AM 0.96 33.728 0.119 6.65 3.3 13.37
12/26/2022 3:45:00 AM 0.96 33.728 0.119 6.64 3.44 13.38
12/26/2022 4:00:00 AM 0.96 33.728 0.119 6.64 3.4 13.37
12/26/2022 4:15:00 AM 0.97 33.746 0.119 6.64 3.38 13.38
12/26/2022 4:30:00 AM 0.98 33.764 0.118 6.64 3.33 13.37
12/26/2022 4:45:00 AM 0.99 33.782 0.118 6.64 3.3 13.37
12/26/2022 5:00:00 AM 0.99 33.782 0.118 6.64 3.37 13.37
12/26/2022 5:15:00 AM 0.99 33.782 0.118 6.64 3.4 13.37
12/26/2022 5:30:00 AM 0.98 33.764 0.118 6.64 3.37 13.37
12/26/2022 5:45:00 AM 0.98 33.764 0.118 6.64 3.38 13.38
12/26/2022 6:00:00 AM 0.99 33.782 0.117 6.64 3.33 13.38
12/26/2022 6:15:00 AM 1 33.8 0.117 6.64 3.61 13.37
12/26/2022 6:30:00 AM 1 33.8 0.117 6.64 3.46 13.38
12/26/2022 6:45:00 AM 1 33.8 0.117 6.63 3.61 13.38
12/26/2022 7:00:00 AM 1 33.8 0.117 6.64 3.53 13.39
12/26/2022 7:15:00 AM 0.99 33.782 0.117 6.63 3.46 13.38
12/26/2022 7:30:00 AM 1 33.8 0.116 6.63 3.31 13.38
12/26/2022 7:45:00 AM 1 33.8 0.116 6.63 3.31 13.38
12/26/2022 8:00:00 AM 1 33.8 0.117 6.63 3.34 13.38
12/26/2022 8:15:00 AM 1 33.8 0.117 6.62 3.34 13.38
12/26/2022 8:30:00 AM 1 33.8 0.118 6.62 3.28 13.38
12/26/2022 8:45:00 AM 1.01 33.818 0.118 6.62 3.36 13.39
12/26/2022 9:00:00 AM 1.02 33.836 0.118 6.62 3.43 13.39
12/26/2022 9:15:00 AM 1.03 33.854 0.117 6.62 3.35 13.38
12/26/2022 9:30:00 AM 1.05 33.89 0.117 6.62 3.34 13.38
12/26/2022 9:45:00 AM 1.07 33.926 0.116 6.62 3.53 13.37
12/26/2022 10:00:00 AM 1.09 33.962 0.116 6.63 3.41 13.37
12/26/2022 10:15:00 AM 1.1 33.98 0.116 6.62 3.32 13.36
12/26/2022 10:30:00 AM 1.13 34.034 0.116 6.63 3.44 13.35
12/26/2022 10:45:00 AM 1.15 34.07 0.116 6.63 3.37 13.34
12/26/2022 11:00:00 AM 1.18 34.124 0.115 6.63 3.43 13.33
12/26/2022 11:15:00 AM 1.21 34.178 0.115 6.63 3.43 13.31
12/26/2022 11:30:00 AM 1.24 34.232 0.115 6.63 3.3 13.3
12/26/2022 11:45:00 AM 1.28 34.304 0.114 6.63 3.34 13.29
12/26/2022 12:00:00 PM 1.3 34.34 0.114 6.63 3.29 13.28
12/26/2022 12:15:00 PM 1.33 34.394 0.114 6.63 3.49 13.28
12/26/2022 12:30:00 PM 1.37 34.466 0.114 6.63 3.37 13.26
12/26/2022 12:45:00 PM 1.4 34.52 0.114 6.63 3.47 13.25
12/26/2022 1:00:00 PM 1.43 34.574 0.113 6.63 3.42 13.24
12/26/2022 1:15:00 PM 1.45 34.61 0.113 6.63 3.39 13.23
12/26/2022 1:30:00 PM 1.47 34.646 0.113 6.62 3.46 13.22
12/26/2022 1:45:00 PM 1.49 34.682 0.113 6.63 3.28 13.21
12/26/2022 2:00:00 PM 1.5 34.7 0.113 6.62 3.76 13.21
12/26/2022 2:15:00 PM 1.51 34.718 0.112 6.62 3.66 13.2
12/26/2022 2:30:00 PM 1.52 34.736 0.112 6.63 3.67 13.19
12/26/2022 2:45:00 PM 1.53 34.754 0.112 6.62 3.47 13.19
12/26/2022 3:00:00 PM 1.55 34.79 0.112 6.62 3.48 13.18
12/26/2022 3:15:00 PM 1.56 34.808 0.112 6.63 3.42 13.19
12/26/2022 3:30:00 PM 1.56 34.808 0.112 6.62 3.43 13.17
12/26/2022 3:45:00 PM 1.57 34.826 0.112 6.62 3.46 13.17
12/26/2022 4:00:00 PM 1.58 34.844 0.112 6.62 3.34 13.17
12/26/2022 4:15:00 PM 1.58 34.844 0.111 6.62 3.3 13.16
12/26/2022 4:30:00 PM 1.58 34.844 0.111 6.62 3.35 13.16
12/26/2022 4:45:00 PM 1.57 34.826 0.111 6.62 3.38 13.17
12/26/2022 5:00:00 PM 1.58 34.844 0.111 6.62 3.6 13.16
12/26/2022 5:15:00 PM 1.58 34.844 0.111 6.62 3.38 13.17
12/26/2022 5:30:00 PM 1.58 34.844 0.111 6.62 3.36 13.17
12/26/2022 5:45:00 PM 1.59 34.862 0.111 6.62 3.39 13.17
12/26/2022 6:00:00 PM 1.59 34.862 0.11 6.62 3.35 13.17
12/26/2022 6:15:00 PM 1.6 34.88 0.11 6.62 3.36 13.16
12/26/2022 6:30:00 PM 1.61 34.898 0.11 6.61 3.33 13.16
12/26/2022 6:45:00 PM 1.61 34.898 0.11 6.62 3.38 13.16
12/26/2022 7:00:00 PM 1.61 34.898 0.11 6.61 3.33 13.16
12/26/2022 7:15:00 PM 1.62 34.916 0.11 6.61 3.41 13.17
12/26/2022 7:30:00 PM 1.61 34.898 0.11 6.61 3.33 13.16
12/26/2022 7:45:00 PM 1.6 34.88 0.11 6.61 3.41 13.17
12/26/2022 8:00:00 PM 1.59 34.862 0.11 6.61 3.34 13.17
12/26/2022 8:15:00 PM 1.59 34.862 0.11 6.61 3.37 13.17
12/26/2022 8:30:00 PM 1.59 34.862 0.109 6.6 3.36 13.17
12/26/2022 8:45:00 PM 1.59 34.862 0.109 6.61 3.42 13.17
12/26/2022 9:00:00 PM 1.6 34.88 0.109 6.61 3.52 13.16
12/26/2022 9:15:00 PM 1.62 34.916 0.109 6.61 3.45 13.16
12/26/2022 9:30:00 PM 1.63 34.934 0.109 6.61 3.44 13.15
12/26/2022 9:45:00 PM 1.64 34.952 0.109 6.61 3.47 13.15
12/26/2022 10:00:00 PM 1.65 34.97 0.109 6.61 3.33 13.16
12/26/2022 10:15:00 PM 1.66 34.988 0.109 6.6 3.39 13.14
12/26/2022 10:30:00 PM 1.66 34.988 0.109 6.6 3.42 13.14
12/26/2022 10:45:00 PM 1.67 35.006 0.108 6.6 3.57 13.14
12/26/2022 11:00:00 PM 1.68 35.024 0.108 6.61 3.52 13.14
12/26/2022 11:15:00 PM 1.68 35.024 0.108 6.61 3.34 13.14
12/26/2022 11:30:00 PM 1.68 35.024 0.108 6.6 3.4 13.13
12/26/2022 11:45:00 PM 1.69 35.042 0.108 6.6 3.45 13.13
12/27/2022 12:00:00 AM 1.69 35.042 0.108 6.6 3.35 13.14
12/27/2022 12:15:00 AM 1.7 35.06 0.108 6.6 3.3 13.13
12/27/2022 12:30:00 AM 1.71 35.078 0.108 6.6 3.36 13.13
12/27/2022 12:45:00 AM 1.72 35.096 0.108 6.6 3.37 13.12
12/27/2022 1:00:00 AM 1.72 35.096 0.108 6.6 3.36 13.12
12/27/2022 1:15:00 AM 1.72 35.096 0.107 6.6 3.45 13.12
12/27/2022 1:30:00 AM 1.72 35.096 0.107 6.6 3.47 13.12
12/27/2022 1:45:00 AM 1.72 35.096 0.107 6.6 3.48 13.13
12/27/2022 2:00:00 AM 1.73 35.114 0.107 6.6 3.37 13.12
12/27/2022 2:15:00 AM 1.74 35.132 0.107 6.6 3.42 13.11
12/27/2022 2:30:00 AM 1.75 35.15 0.107 6.59 3.44 13.11
12/27/2022 2:45:00 AM 1.75 35.15 0.107 6.59 3.46 13.11
12/27/2022 3:00:00 AM 1.76 35.168 0.107 6.59 3.32 13.11
12/27/2022 3:15:00 AM 1.76 35.168 0.107 6.59 3.37 13.1
12/27/2022 3:30:00 AM 1.77 35.186 0.107 6.59 3.45 13.1
12/27/2022 3:45:00 AM 1.78 35.204 0.106 6.59 3.47 13.1
12/27/2022 4:00:00 AM 1.79 35.222 0.106 6.59 3.41 13.09
12/27/2022 4:15:00 AM 1.8 35.24 0.106 6.59 3.56 13.09
12/27/2022 4:30:00 AM 1.81 35.258 0.106 6.59 3.44 13.08
12/27/2022 4:45:00 AM 1.82 35.276 0.106 6.59 3.38 13.08
12/27/2022 5:00:00 AM 1.82 35.276 0.106 6.59 3.44 13.08
12/27/2022 5:15:00 AM 1.83 35.294 0.106 6.59 3.32 13.08
12/27/2022 5:30:00 AM 1.82 35.276 0.106 6.59 3.29 13.08
12/27/2022 5:45:00 AM 1.83 35.294 0.106 6.59 3.36 13.09
12/27/2022 6:00:00 AM 1.83 35.294 0.106 6.59 3.38 13.08
12/27/2022 6:15:00 AM 1.84 35.312 0.106 6.59 3.29 13.08
12/27/2022 6:30:00 AM 1.84 35.312 0.106 6.59 3.3 13.08
12/27/2022 6:45:00 AM 1.85 35.33 0.105 6.59 3.39 13.08
12/27/2022 7:00:00 AM 1.86 35.348 0.105 6.59 3.39 13.07
12/27/2022 7:15:00 AM 1.87 35.366 0.105 6.59 3.32 13.08
12/27/2022 7:30:00 AM 1.88 35.384 0.105 6.59 3.54 13.07
12/27/2022 7:45:00 AM 1.89 35.402 0.105 6.59 3.4 13.07
12/27/2022 8:00:00 AM 1.9 35.42 0.105 6.59 3.29 13.06
12/27/2022 8:15:00 AM 1.92 35.456 0.105 6.59 3.56 13.06
12/27/2022 8:30:00 AM 1.93 35.474 0.105 6.59 3.49 13.06
12/27/2022 8:45:00 AM 1.93 35.474 0.105 6.59 3.47 13.06
12/27/2022 9:00:00 AM 1.94 35.492 0.105 6.58 3.25 13.06
12/27/2022 9:15:00 AM 1.95 35.51 0.105 6.59 3.34 13.06
12/27/2022 9:30:00 AM 1.97 35.546 0.105 6.59 3.31 13.06
12/27/2022 9:45:00 AM 1.98 35.564 0.105 6.58 3.32 13.06
12/27/2022 10:00:00 AM 2 35.6 0.105 6.58 3.3 13.05
12/27/2022 10:15:00 AM 2.01 35.618 0.104 6.58 3.27 13.05
12/27/2022 10:30:00 AM 2.02 35.636 0.104 6.58 3.3 13.04
12/27/2022 10:45:00 AM 2.03 35.654 0.104 6.59 3.5 13.05
12/27/2022 11:00:00 AM 2.05 35.69 0.104 6.59 3.35 13.04
12/27/2022 11:15:00 AM 2.06 35.708 0.104 6.59 3.39 13.04
12/27/2022 11:30:00 AM 2.07 35.726 0.104 6.59 3.42 13.03
12/27/2022 11:45:00 AM 2.08 35.744 0.104 6.59 3.43 13.03
12/27/2022 12:00:00 PM 2.09 35.762 0.104 6.59 3.3 13.02
12/27/2022 12:15:00 PM 2.1 35.78 0.104 6.59 3.38 13.01
12/27/2022 12:30:00 PM 2.11 35.798 0.104 6.58 3.44 13.01
12/27/2022 12:45:00 PM 2.11 35.798 0.104 6.58 3.55 13.01
12/27/2022 1:00:00 PM 2.12 35.816 0.105 6.58 3.4 13.01
12/27/2022 1:15:00 PM 2.14 35.852 0.105 6.58 3.4 12.99
12/27/2022 1:30:00 PM 2.16 35.888 0.105 6.58 3.36 12.98
12/27/2022 1:45:00 PM 2.17 35.906 0.106 6.58 3.5 12.98
12/27/2022 2:00:00 PM 2.17 35.906 0.108 6.58 3.35 12.97
12/27/2022 2:15:00 PM 2.19 35.942 0.11 6.58 3.52 12.97
12/27/2022 2:30:00 PM 2.2 35.96 0.11 6.58 3.42 12.97
12/27/2022 2:45:00 PM 2.22 35.996 0.11 6.58 3.38 12.95
12/27/2022 3:00:00 PM 2.22 35.996 0.111 6.58 3.38 12.95
12/27/2022 3:15:00 PM 2.24 36.032 0.112 6.58 3.32 12.94
12/27/2022 3:30:00 PM 2.25 36.05 0.114 6.58 3.4 12.94
12/27/2022 3:45:00 PM 2.26 36.068 0.114 6.58 3.37 12.94
12/27/2022 4:00:00 PM 2.27 36.086 0.113 6.58 3.39 12.94
12/27/2022 4:15:00 PM 2.27 36.086 0.112 6.58 3.64 12.94
12/27/2022 4:30:00 PM 2.28 36.104 0.111 6.58 3.57 12.93
12/27/2022 4:45:00 PM 2.29 36.122 0.11 6.58 3.39 12.93
12/27/2022 5:00:00 PM 2.29 36.122 0.11 6.58 3.36 12.93
12/27/2022 5:15:00 PM 2.29 36.122 0.109 6.58 3.51 12.92
12/27/2022 5:30:00 PM 2.29 36.122 0.109 6.58 3.54 12.93
12/27/2022 5:45:00 PM 2.29 36.122 0.108 6.58 3.42 12.92
12/27/2022 6:00:00 PM 2.3 36.14 0.108 6.58 3.41 12.92
12/27/2022 6:15:00 PM 2.3 36.14 0.107 6.58 3.58 12.93
12/27/2022 6:30:00 PM 2.31 36.158 0.107 6.58 3.51 12.93
12/27/2022 6:45:00 PM 2.32 36.176 0.107 6.58 3.55 12.92
12/27/2022 7:00:00 PM 2.34 36.212 0.106 6.58 3.47 12.91
12/27/2022 7:15:00 PM 2.35 36.23 0.106 6.58 3.47 12.91
12/27/2022 7:30:00 PM 2.35 36.23 0.106 6.58 3.35 12.91
12/27/2022 7:45:00 PM 2.36 36.248 0.105 6.58 3.32 12.91
12/27/2022 8:00:00 PM 2.36 36.248 0.105 6.58 3.4 12.91
12/27/2022 8:15:00 PM 2.37 36.266 0.105 6.58 3.41 12.91
12/27/2022 8:30:00 PM 2.38 36.284 0.105 6.58 3.36 12.9
12/27/2022 8:45:00 PM 2.39 36.302 0.104 6.58 3.4 12.89
12/27/2022 9:00:00 PM 2.4 36.32 0.104 6.57 3.57 12.89
12/27/2022 9:15:00 PM 2.4 36.32 0.104 6.58 3.62 12.88
12/27/2022 9:30:00 PM 2.4 36.32 0.104 6.57 3.43 12.88
12/27/2022 9:45:00 PM 2.41 36.338 0.104 6.57 3.37 12.88
12/27/2022 10:00:00 PM 2.42 36.356 0.104 6.57 3.41 12.88
12/27/2022 10:15:00 PM 2.42 36.356 0.103 6.57 3.52 12.87
12/27/2022 10:30:00 PM 2.43 36.374 0.103 6.57 3.46 12.87
12/27/2022 10:45:00 PM 2.43 36.374 0.103 6.57 3.4 12.87
12/27/2022 11:00:00 PM 2.44 36.392 0.103 6.57 3.53 12.87
12/27/2022 11:15:00 PM 2.44 36.392 0.103 6.57 3.63 12.87
12/27/2022 11:30:00 PM 2.45 36.41 0.103 6.57 3.49 12.86
12/27/2022 11:45:00 PM 2.46 36.428 0.103 6.57 3.38 12.85
12/28/2022 12:00:00 AM 2.46 36.428 0.103 6.57 3.35 12.85
12/28/2022 12:15:00 AM 2.47 36.446 0.103 6.57 3.39 12.84
12/28/2022 12:30:00 AM 2.48 36.464 0.103 6.57 3.53 12.84
12/28/2022 12:45:00 AM 2.5 36.5 0.103 6.57 3.44 12.83
12/28/2022 1:00:00 AM 2.5 36.5 0.103 6.57 3.45 12.83
12/28/2022 1:15:00 AM 2.5 36.5 0.102 6.57 3.37 12.83
12/28/2022 1:30:00 AM 2.5 36.5 0.102 6.57 3.35 12.83
12/28/2022 1:45:00 AM 2.49 36.482 0.102 6.57 3.34 12.83
12/28/2022 2:00:00 AM 2.47 36.446 0.102 6.56 3.43 12.84
12/28/2022 2:15:00 AM 2.45 36.41 0.102 6.56 3.49 12.84
12/28/2022 2:30:00 AM 2.46 36.428 0.102 6.56 3.44 12.84
12/28/2022 2:45:00 AM 2.46 36.428 0.102 6.56 3.33 12.85
12/28/2022 3:00:00 AM 2.46 36.428 0.102 6.56 3.32 12.85
12/28/2022 3:15:00 AM 2.46 36.428 0.102 6.56 3.51 12.85
12/28/2022 3:30:00 AM 2.45 36.41 0.102 6.56 3.35 12.85
12/28/2022 3:45:00 AM 2.44 36.392 0.102 6.56 3.39 12.85
12/28/2022 4:00:00 AM 2.42 36.356 0.102 6.56 3.44 12.85
12/28/2022 4:15:00 AM 2.4 36.32 0.102 6.56 3.41 12.87
12/28/2022 4:30:00 AM 2.38 36.284 0.102 6.56 3.43 12.88
12/28/2022 4:45:00 AM 2.37 36.266 0.102 6.56 3.41 12.88
12/28/2022 5:00:00 AM 2.37 36.266 0.102 6.56 3.4 12.89
12/28/2022 5:15:00 AM 2.36 36.248 0.102 6.55 3.39 12.89
12/28/2022 5:30:00 AM 2.35 36.23 0.101 6.55 3.48 12.89
12/28/2022 5:45:00 AM 2.35 36.23 0.101 6.55 3.37 12.89
12/28/2022 6:00:00 AM 2.35 36.23 0.101 6.55 3.43 12.9
12/28/2022 6:15:00 AM 2.34 36.212 0.101 6.55 3.44 12.9
12/28/2022 6:30:00 AM 2.33 36.194 0.101 6.55 3.4 12.9
12/28/2022 6:45:00 AM 2.32 36.176 0.101 6.56 3.52 12.91
12/28/2022 7:00:00 AM 2.32 36.176 0.101 6.55 3.46 12.91
12/28/2022 7:15:00 AM 2.31 36.158 0.101 6.55 3.48 12.92
12/28/2022 7:30:00 AM 2.3 36.14 0.101 6.55 3.39 12.91
12/28/2022 7:45:00 AM 2.3 36.14 0.101 6.55 3.41 12.92
12/28/2022 8:00:00 AM 2.31 36.158 0.101 6.55 3.63 12.92
12/28/2022 8:15:00 AM 2.31 36.158 0.101 6.55 3.68 12.92
12/28/2022 8:30:00 AM 2.31 36.158 0.101 6.55 3.46 12.92
12/28/2022 8:45:00 AM 2.31 36.158 0.101 6.55 3.33 12.93
12/28/2022 9:00:00 AM 2.33 36.194 0.101 6.55 3.33 12.92
12/28/2022 9:15:00 AM 2.37 36.266 0.1 6.55 3.35 12.92
12/28/2022 9:30:00 AM 2.39 36.302 0.1 6.55 3.41 12.91
12/28/2022 9:45:00 AM 2.42 36.356 0.1 6.55 3.45 12.9
12/28/2022 10:00:00 AM 2.47 36.446 0.1 6.55 3.48 12.88
12/28/2022 10:15:00 AM 2.51 36.518 0.1 6.55 3.33 12.87
12/28/2022 10:30:00 AM 2.56 36.608 0.1 6.56 3.43 12.84
12/28/2022 10:45:00 AM 2.63 36.734 0.1 6.56 3.58 12.83
12/28/2022 11:00:00 AM 2.68 36.824 0.1 6.56 3.62 12.81
12/28/2022 11:15:00 AM 2.75 36.95 0.1 6.56 3.46 12.78
12/28/2022 11:30:00 AM 2.82 37.076 0.1 6.56 3.46 12.75
12/28/2022 11:45:00 AM 2.86 37.148 0.1 6.56 3.39 12.73
12/28/2022 12:00:00 PM 2.89 37.202 0.1 6.56 3.32 12.72
12/28/2022 12:15:00 PM 2.92 37.256 0.1 6.56 3.33 12.71
12/28/2022 12:30:00 PM 2.94 37.292 0.1 6.57 3.54 12.7
12/28/2022 12:45:00 PM 2.96 37.328 0.1 6.57 3.38 12.69
12/28/2022 1:00:00 PM 2.98 37.364 0.1 6.57 3.53 12.68
12/28/2022 1:15:00 PM 3 37.4 0.1 6.57 3.51 12.67
12/28/2022 1:30:00 PM 3.02 37.436 0.1 6.57 3.44 12.67
12/28/2022 1:45:00 PM 3.05 37.49 0.1 6.57 3.48 12.66
12/28/2022 2:00:00 PM 3.06 37.508 0.1 6.57 3.42 12.65
12/28/2022 2:15:00 PM 3.1 37.58 0.1 6.57 3.41 12.64
12/28/2022 2:30:00 PM 3.12 37.616 0.1 6.57 3.38 12.63
12/28/2022 2:45:00 PM 3.12 37.616 0.1 6.57 3.35 12.62
12/28/2022 3:00:00 PM 3.13 37.634 0.1 6.57 3.43 12.61
12/28/2022 3:15:00 PM 3.14 37.652 0.1 6.57 3.42 12.62
12/28/2022 3:30:00 PM 3.14 37.652 0.1 6.57 3.43 12.62
12/28/2022 3:45:00 PM 3.14 37.652 0.1 6.57 3.45 12.61
12/28/2022 4:00:00 PM 3.14 37.652 0.101 6.57 3.56 12.62
12/28/2022 4:15:00 PM 3.13 37.634 0.101 6.57 3.6 12.62
12/28/2022 4:30:00 PM 3.13 37.634 0.101 6.57 3.47 12.62
12/28/2022 4:45:00 PM 3.11 37.598 0.101 6.57 3.52 12.63
12/28/2022 5:00:00 PM 3.03 37.454 0.101 6.57 3.49 12.64
12/28/2022 5:15:00 PM 3.02 37.436 0.102 6.56 3.59 12.66
12/28/2022 5:30:00 PM 3.04 37.472 0.103 6.56 3.53 12.65
12/28/2022 5:45:00 PM 3.06 37.508 0.103 6.56 3.75 12.64
12/28/2022 6:00:00 PM 3.06 37.508 0.104 6.56 3.66 12.65
12/28/2022 6:15:00 PM 3.06 37.508 0.104 6.56 3.42 12.64
12/28/2022 6:30:00 PM 3.05 37.49 0.104 6.56 3.5 12.66
12/28/2022 6:45:00 PM 3.04 37.472 0.104 6.56 3.58 12.66
12/28/2022 7:00:00 PM 3.03 37.454 0.105 6.56 3.47 12.66
12/28/2022 7:15:00 PM 3.01 37.418 0.105 6.56 3.54 12.67
12/28/2022 7:30:00 PM 3.01 37.418 0.105 6.56 3.58 12.67
12/28/2022 7:45:00 PM 3.01 37.418 0.105 6.56 3.46 12.67
12/28/2022 8:00:00 PM 2.99 37.382 0.105 6.56 3.54 12.68
12/28/2022 8:15:00 PM 2.97 37.346 0.105 6.56 3.46 12.68
12/28/2022 8:30:00 PM 2.96 37.328 0.105 6.56 3.43 12.68
12/28/2022 8:45:00 PM 2.95 37.31 0.104 6.56 3.31 12.69
12/28/2022 9:00:00 PM 2.94 37.292 0.104 6.56 3.37 12.7
12/28/2022 9:15:00 PM 2.93 37.274 0.104 6.55 3.42 12.7
12/28/2022 9:30:00 PM 2.91 37.238 0.104 6.56 3.45 12.71
12/28/2022 9:45:00 PM 2.9 37.22 0.104 6.56 3.45 12.71
12/28/2022 10:00:00 PM 2.89 37.202 0.104 6.56 3.63 12.71
12/28/2022 10:15:00 PM 2.87 37.166 0.103 6.55 3.64 12.71
12/28/2022 10:30:00 PM 2.87 37.166 0.103 6.55 3.44 12.71
12/28/2022 10:45:00 PM 2.86 37.148 0.103 6.55 3.45 12.71
12/28/2022 11:00:00 PM 2.86 37.148 0.103 6.55 3.52 12.71
12/28/2022 11:15:00 PM 2.85 37.13 0.103 6.55 3.47 12.72
12/28/2022 11:30:00 PM 2.84 37.112 0.103 6.55 3.48 12.72
12/28/2022 11:45:00 PM 2.83 37.094 0.102 6.55 3.53 12.73
12/29/2022 12:00:00 AM 2.82 37.076 0.102 6.55 3.48 12.73
12/29/2022 12:15:00 AM 2.81 37.058 0.102 6.55 3.45 12.73
12/29/2022 12:30:00 AM 2.79 37.022 0.102 6.55 3.34 12.73
12/29/2022 12:45:00 AM 2.78 37.004 0.102 6.55 3.32 12.74
12/29/2022 1:00:00 AM 2.77 36.986 0.102 6.55 3.36 12.75
12/29/2022 1:15:00 AM 2.75 36.95 0.102 6.55 3.41 12.76
12/29/2022 1:30:00 AM 2.74 36.932 0.102 6.55 3.43 12.76
12/29/2022 1:45:00 AM 2.73 36.914 0.102 6.55 3.44 12.77
12/29/2022 2:00:00 AM 2.71 36.878 0.101 6.55 3.45 12.77
12/29/2022 2:15:00 AM 2.7 36.86 0.101 6.55 3.39 12.77
12/29/2022 2:30:00 AM 2.69 36.842 0.101 6.55 3.48 12.78
12/29/2022 2:45:00 AM 2.68 36.824 0.101 6.55 3.61 12.79
12/29/2022 3:00:00 AM 2.67 36.806 0.101 6.55 3.49 12.79
12/29/2022 3:15:00 AM 2.65 36.77 0.101 6.55 3.39 12.79
12/29/2022 3:30:00 AM 2.64 36.752 0.101 6.55 3.69 12.79
12/29/2022 3:45:00 AM 2.63 36.734 0.101 6.55 3.59 12.8
12/29/2022 4:00:00 AM 2.62 36.716 0.101 6.55 3.89 12.8
12/29/2022 4:15:00 AM 2.6 36.68 0.101 6.55 3.76 12.81
12/29/2022 4:30:00 AM 2.59 36.662 0.101 6.55 3.54 12.82
12/29/2022 4:45:00 AM 2.58 36.644 0.101 6.55 3.5 12.82
12/29/2022 5:00:00 AM 2.57 36.626 0.1 6.55 3.48 12.82
12/29/2022 5:15:00 AM 2.56 36.608 0.1 6.55 3.41 12.82
12/29/2022 5:30:00 AM 2.55 36.59 0.1 6.55 3.41 12.83
12/29/2022 5:45:00 AM 2.55 36.59 0.1 6.55 3.61 12.83
12/29/2022 6:00:00 AM 2.54 36.572 0.1 6.54 3.66 12.84
12/29/2022 6:15:00 AM 2.53 36.554 0.1 6.55 3.68 12.84
12/29/2022 6:30:00 AM 2.53 36.554 0.1 6.55 3.59 12.83
12/29/2022 6:45:00 AM 2.53 36.554 0.1 6.55 3.62 12.84
12/29/2022 7:00:00 AM 2.53 36.554 0.1 6.55 3.48 12.84
12/29/2022 7:15:00 AM 2.54 36.572 0.1 6.55 3.75 12.84
12/29/2022 7:30:00 AM 2.56 36.608 0.1 6.55 3.71 12.84
12/29/2022 7:45:00 AM 2.58 36.644 0.1 6.55 3.76 12.83
12/29/2022 8:00:00 AM 2.59 36.662 0.1 6.55 3.52 12.83
12/29/2022 8:15:00 AM 2.61 36.698 0.1 6.55 3.4 12.83
12/29/2022 8:30:00 AM 2.64 36.752 0.1 6.55 3.5 12.82
12/29/2022 8:45:00 AM 2.69 36.842 0.1 6.55 3.6 12.81
12/29/2022 9:00:00 AM 2.72 36.896 0.1 6.55 3.52 12.8
12/29/2022 9:15:00 AM 2.77 36.986 0.099 6.55 3.48 12.78
12/29/2022 9:30:00 AM 2.82 37.076 0.099 6.55 3.45 12.76
12/29/2022 9:45:00 AM 2.87 37.166 0.099 6.55 3.45 12.75
12/29/2022 10:00:00 AM 2.92 37.256 0.099 6.55 3.33 12.73
12/29/2022 10:15:00 AM 2.98 37.364 0.099 6.55 3.41 12.7
12/29/2022 10:30:00 AM 3.04 37.472 0.099 6.55 3.43 12.68
12/29/2022 10:45:00 AM 3.11 37.598 0.099 6.55 3.41 12.65
12/29/2022 11:00:00 AM 3.2 37.76 0.099 6.55 3.56 12.62
12/29/2022 11:15:00 AM 3.28 37.904 0.099 6.55 3.83 12.6
12/29/2022 11:30:00 AM 3.37 38.066 0.099 6.56 3.61 12.57
12/29/2022 11:45:00 AM 3.46 38.228 0.099 6.56 3.51 12.53
12/29/2022 12:00:00 PM 3.52 38.336 0.099 6.56 3.3 12.5
12/29/2022 12:15:00 PM 3.61 38.498 0.099 6.57 3.52 12.46
12/29/2022 12:30:00 PM 3.69 38.642 0.099 6.57 3.46 12.44
12/29/2022 12:45:00 PM 3.76 38.768 0.099 6.57 3.41 12.41
12/29/2022 1:00:00 PM 3.83 38.894 0.1 6.58 3.37 12.39
12/29/2022 1:15:00 PM 3.86 38.948 0.1 6.58 3.44 12.38
12/29/2022 1:30:00 PM 3.88 38.984 0.1 6.58 3.5 12.37
12/29/2022 1:45:00 PM 3.89 39.002 0.101 6.58 3.54 12.37
12/29/2022 2:00:00 PM 3.9 39.02 0.101 6.58 3.47 12.37
12/29/2022 2:15:00 PM 3.89 39.002 0.102 6.58 3.7 12.36
12/29/2022 2:30:00 PM 3.89 39.002 0.103 6.58 3.58 12.36
12/29/2022 2:45:00 PM 3.9 39.02 0.103 6.58 3.61 12.36
12/29/2022 3:00:00 PM 3.9 39.02 0.105 6.59 3.57 12.36
12/29/2022 3:15:00 PM 3.9 39.02 0.109 6.58 3.71 12.36
12/29/2022 3:30:00 PM 3.89 39.002 0.118 6.58 3.74 12.36
12/29/2022 3:45:00 PM 3.88 38.984 0.13 6.58 3.64 12.36
12/29/2022 4:00:00 PM 3.86 38.948 0.142 6.59 3.94 12.37
12/29/2022 4:15:00 PM 3.77 38.786 0.156 6.59 3.88 12.38
12/29/2022 4:30:00 PM 3.79 38.822 0.173 6.59 3.76 12.39
12/29/2022 4:45:00 PM 3.78 38.804 0.195 6.6 3.81 12.39
12/29/2022 5:00:00 PM 3.77 38.786 0.22 6.61 3.86 12.39
12/29/2022 5:15:00 PM 3.74 38.732 0.246 6.62 3.61 12.4
12/29/2022 5:30:00 PM 3.72 38.696 0.278 6.63 3.71 12.41
12/29/2022 5:45:00 PM 3.71 38.678 0.309 6.64 3.67 12.41
12/29/2022 6:00:00 PM 3.66 38.588 0.334 6.66 3.76 12.43
12/29/2022 6:15:00 PM 3.67 38.606 0.354 6.67 3.69 12.43
12/29/2022 6:30:00 PM 3.69 38.642 0.368 6.68 3.53 12.42
12/29/2022 6:45:00 PM 3.73 38.714 0.377 6.69 3.6 12.41
12/29/2022 7:00:00 PM 3.74 38.732 0.381 6.7 3.58 12.41
12/29/2022 7:15:00 PM 3.76 38.768 0.382 6.71 3.68 12.4
12/29/2022 7:30:00 PM 3.77 38.786 0.381 6.72 3.77 12.4
12/29/2022 7:45:00 PM 3.77 38.786 0.38 6.73 3.55 12.4
12/29/2022 8:00:00 PM 3.77 38.786 0.379 6.74 3.53 12.39
12/29/2022 8:15:00 PM 3.75 38.75 0.378 6.75 3.87 12.4
12/29/2022 8:30:00 PM 3.74 38.732 0.376 6.75 3.86 12.41
12/29/2022 8:45:00 PM 3.75 38.75 0.373 6.76 3.69 12.41
12/29/2022 9:00:00 PM 3.75 38.75 0.371 6.76 3.75 12.4
12/29/2022 9:15:00 PM 3.75 38.75 0.368 6.77 3.63 12.4
12/29/2022 9:30:00 PM 3.76 38.768 0.365 6.77 3.97 12.4
12/29/2022 9:45:00 PM 3.78 38.804 0.361 6.77 3.82 12.39
12/29/2022 10:00:00 PM 3.79 38.822 0.358 6.78 3.62 12.39
12/29/2022 10:15:00 PM 3.8 38.84 0.354 6.78 3.66 12.39
12/29/2022 10:30:00 PM 3.81 38.858 0.35 6.79 3.74 12.39
12/29/2022 10:45:00 PM 3.82 38.876 0.347 6.79 3.81 12.38
12/29/2022 11:00:00 PM 3.83 38.894 0.345 6.8 3.83 12.39
12/29/2022 11:15:00 PM 3.83 38.894 0.343 6.8 3.69 12.39
12/29/2022 11:30:00 PM 3.84 38.912 0.342 6.81 3.74 12.39
12/29/2022 11:45:00 PM 3.85 38.93 0.341 6.81 3.82 12.39
12/30/2022 12:00:00 AM 3.85 38.93 0.341 6.81 3.78 12.38
12/30/2022 12:15:00 AM 3.85 38.93 0.341 6.82 3.81 12.38
12/30/2022 12:30:00 AM 3.85 38.93 0.342 6.82 3.73 12.38
12/30/2022 12:45:00 AM 3.85 38.93 0.342 6.83 3.8 12.38
12/30/2022 1:00:00 AM 3.85 38.93 0.343 6.83 3.89 12.38
12/30/2022 1:15:00 AM 3.86 38.948 0.344 6.84 3.85 12.38
12/30/2022 1:30:00 AM 3.87 38.966 0.345 6.85 3.8 12.37
12/30/2022 1:45:00 AM 3.87 38.966 0.346 6.85 3.84 12.38
12/30/2022 2:00:00 AM 3.87 38.966 0.347 6.86 3.73 12.38
12/30/2022 2:15:00 AM 3.88 38.984 0.347 6.86 3.84 12.38
12/30/2022 2:30:00 AM 3.9 39.02 0.348 6.87 3.8 12.37
12/30/2022 2:45:00 AM 3.9 39.02 0.348 6.87 3.9 12.37
12/30/2022 3:00:00 AM 3.89 39.002 0.348 6.88 3.8 12.38
12/30/2022 3:15:00 AM 3.91 39.038 0.348 6.88 3.89 12.37
12/30/2022 3:30:00 AM 3.92 39.056 0.347 6.88 3.74 12.37
12/30/2022 3:45:00 AM 3.93 39.074 0.347 6.89 3.89 12.37
12/30/2022 4:00:00 AM 3.93 39.074 0.346 6.89 3.93 12.36
12/30/2022 4:15:00 AM 3.94 39.092 0.345 6.9 4.14 12.36
12/30/2022 4:30:00 AM 3.95 39.11 0.344 6.9 4.06 12.35
12/30/2022 4:45:00 AM 3.96 39.128 0.343 6.91 4.17 12.36
12/30/2022 5:00:00 AM 3.96 39.128 0.342 6.91 3.97 12.35
12/30/2022 5:15:00 AM 3.97 39.146 0.341 6.91 3.99 12.35
12/30/2022 5:30:00 AM 3.97 39.146 0.339 6.91 3.89 12.35
12/30/2022 5:45:00 AM 3.98 39.164 0.338 6.92 3.99 12.35
12/30/2022 6:00:00 AM 4 39.2 0.337 6.92 4.05 12.35
12/30/2022 6:15:00 AM 4.01 39.218 0.336 6.92 4.09 12.34
12/30/2022 6:30:00 AM 4.01 39.218 0.335 6.93 4.03 12.34
12/30/2022 6:45:00 AM 4.02 39.236 0.334 6.93 3.89 12.34
12/30/2022 7:00:00 AM 4.04 39.272 0.334 6.94 3.94 12.33
12/30/2022 7:15:00 AM 4.04 39.272 0.334 6.94 4 12.33
12/30/2022 7:30:00 AM 4.05 39.29 0.334 6.95 4.22 12.33
12/30/2022 7:45:00 AM 4.06 39.308 0.334 6.95 4.19 12.32
12/30/2022 8:00:00 AM 4.07 39.326 0.334 6.95 4.29 12.33
12/30/2022 8:15:00 AM 4.08 39.344 0.335 6.95 4.12 12.32
12/30/2022 8:30:00 AM 4.08 39.344 0.336 6.95 4.16 12.33
12/30/2022 8:45:00 AM 4.1 39.38 0.337 6.96 4.3 12.33
12/30/2022 9:00:00 AM 4.12 39.416 0.338 6.96 4.17 12.32
12/30/2022 9:15:00 AM 4.14 39.452 0.339 6.97 4.22 12.31
12/30/2022 9:30:00 AM 4.15 39.47 0.341 6.97 4.65 12.31
12/30/2022 9:45:00 AM 4.18 39.524 0.342 6.97 4.3 12.3
12/30/2022 10:00:00 AM 4.21 39.578 0.343 6.98 4.24 12.29
12/30/2022 10:15:00 AM 4.22 39.596 0.345 6.98 4.36 12.29
12/30/2022 10:30:00 AM 4.28 39.704 0.347 6.99 4.42 12.27
12/30/2022 10:45:00 AM 4.32 39.776 0.348 6.99 4.56 12.26
12/30/2022 11:00:00 AM 4.34 39.812 0.35 7 4.39 12.25
12/30/2022 11:15:00 AM 4.37 39.866 0.352 7.01 4.62 12.24
12/30/2022 11:30:00 AM 4.41 39.938 0.355 7.01 4.54 12.23
12/30/2022 11:45:00 AM 4.48 40.064 0.358 7.02 4.5 12.2
12/30/2022 12:00:00 PM 4.54 40.172 0.362 7.03 4.74 12.18
12/30/2022 12:15:00 PM 4.58 40.244 0.366 7.03 4.82 12.16
12/30/2022 12:30:00 PM 4.61 40.298 0.371 7.04 4.98 12.15
12/30/2022 12:45:00 PM 4.58 40.244 0.376 7.04 4.99 12.15
12/30/2022 1:00:00 PM 4.68 40.424 0.382 7.05 5.24 12.13
12/30/2022 1:15:00 PM 4.69 40.442 0.389 7.06 5.49 12.11
12/30/2022 1:30:00 PM 4.76 40.568 0.397 7.07 5.78 12.09
12/30/2022 1:45:00 PM 4.75 40.55 0.403 7.08 5.98 12.1
12/30/2022 2:00:00 PM 4.73 40.514 0.409 7.09 6 12.09
12/30/2022 2:15:00 PM 4.57 40.226 0.413 7.09 6.59 12.11
12/30/2022 2:30:00 PM 4.75 40.55 0.417 7.09 6.11 12.08
12/30/2022 2:45:00 PM 4.68 40.424 0.418 7.1 6.41 12.1
12/30/2022 3:00:00 PM 4.51 40.118 0.418 7.1 6.72 12.09
12/30/2022 3:15:00 PM 4.64 40.352 0.418 7.1 6.75 12.1
12/30/2022 3:30:00 PM 4.67 40.406 0.416 7.1 6.63 12.11
12/30/2022 3:45:00 PM 4.69 40.442 0.414 7.11 6.5 12.11
12/30/2022 4:00:00 PM 4.65 40.37 0.411 7.11 6.34 12.12
12/30/2022 4:15:00 PM 4.65 40.37 0.408 7.11 6.66 12.12
12/30/2022 4:30:00 PM 4.66 40.388 0.405 7.11 6.19 12.12
12/30/2022 4:45:00 PM 4.65 40.37 0.401 7.1 6.38 12.12
12/30/2022 5:00:00 PM 4.63 40.334 0.397 7.1 6.4 12.12
12/30/2022 5:15:00 PM 4.6 40.28 0.393 7.09 6.22 12.13
12/30/2022 5:30:00 PM 4.57 40.226 0.388 7.09 6.23 12.14
12/30/2022 5:45:00 PM 4.55 40.19 0.385 7.08 6.15 12.15
12/30/2022 6:00:00 PM 4.53 40.154 0.381 7.08 6.1 12.15
12/30/2022 6:15:00 PM 4.51 40.118 0.378 7.07 6.18 12.15
12/30/2022 6:30:00 PM 4.49 40.082 0.374 7.06 5.9 12.16
12/30/2022 6:45:00 PM 4.48 40.064 0.37 7.06 5.98 12.16
12/30/2022 7:00:00 PM 4.47 40.046 0.366 7.05 5.82 12.16
12/30/2022 7:15:00 PM 4.46 40.028 0.362 7.04 5.78 12.17
12/30/2022 7:30:00 PM 4.45 40.01 0.359 7.03 6.09 12.17
12/30/2022 7:45:00 PM 4.43 39.974 0.356 7.03 6.07 12.18
12/30/2022 8:00:00 PM 4.4 39.92 0.353 7.02 5.96 12.19
12/30/2022 8:15:00 PM 4.4 39.92 0.35 7.02 5.69 12.19
12/30/2022 8:30:00 PM 4.39 39.902 0.347 7.01 5.73 12.19
12/30/2022 8:45:00 PM 4.39 39.902 0.344 7.01 5.82 12.2
12/30/2022 9:00:00 PM 4.38 39.884 0.342 7 5.61 12.19
12/30/2022 9:15:00 PM 4.37 39.866 0.339 6.99 5.53 12.2
12/30/2022 9:30:00 PM 4.36 39.848 0.337 6.99 5.53 12.2
12/30/2022 9:45:00 PM 4.35 39.83 0.335 6.99 5.42 12.2
12/30/2022 10:00:00 PM 4.34 39.812 0.333 6.98 5.33 12.21
12/30/2022 10:15:00 PM 4.33 39.794 0.331 6.97 5.31 12.22
12/30/2022 10:30:00 PM 4.32 39.776 0.329 6.97 5.23 12.21
12/30/2022 10:45:00 PM 4.32 39.776 0.327 6.97 5.24 12.21
12/30/2022 11:00:00 PM 4.31 39.758 0.326 6.96 5.5 12.21
12/30/2022 11:15:00 PM 4.29 39.722 0.324 6.96 5.6 12.22
12/30/2022 11:30:00 PM 4.29 39.722 0.323 6.95 5.24 12.22
12/30/2022 11:45:00 PM 4.29 39.722 0.322 6.95 5.08 12.22
12/31/2022 12:00:00 AM 4.29 39.722 0.321 6.94 5.3 12.22
12/31/2022 12:15:00 AM 4.29 39.722 0.32 6.94 5.2 12.22
12/31/2022 12:30:00 AM 4.29 39.722 0.319 6.94 5.13 12.22
12/31/2022 12:45:00 AM 4.29 39.722 0.318 6.93 5.18 12.22
12/31/2022 1:00:00 AM 4.3 39.74 0.318 6.93 5.54 12.21
12/31/2022 1:15:00 AM 4.3 39.74 0.317 6.93 5.35 12.2
12/31/2022 1:30:00 AM 4.31 39.758 0.317 6.92 5.37 12.2
12/31/2022 1:45:00 AM 4.3 39.74 0.316 6.92 5.17 12.2
12/31/2022 2:00:00 AM 4.3 39.74 0.316 6.91 5.06 12.19
12/31/2022 2:15:00 AM 4.3 39.74 0.315 6.91 5.19 12.2
12/31/2022 2:30:00 AM 4.3 39.74 0.314 6.91 5.04 12.2
12/31/2022 2:45:00 AM 4.29 39.722 0.313 6.9 5.1 12.2
12/31/2022 3:00:00 AM 4.27 39.686 0.312 6.9 5.19 12.21
12/31/2022 3:15:00 AM 4.28 39.704 0.311 6.9 4.96 12.2
12/31/2022 3:30:00 AM 4.28 39.704 0.309 6.89 5.02 12.2
12/31/2022 3:45:00 AM 4.27 39.686 0.308 6.9 5.27 12.21
12/31/2022 4:00:00 AM 4.26 39.668 0.306 6.89 5.23 12.21
12/31/2022 4:15:00 AM 4.26 39.668 0.305 6.89 4.93 12.21
12/31/2022 4:30:00 AM 4.25 39.65 0.303 6.88 5.03 12.21
12/31/2022 4:45:00 AM 4.26 39.668 0.301 6.88 5.28 12.21
12/31/2022 5:00:00 AM 4.26 39.668 0.3 6.88 4.91 12.2
12/31/2022 5:15:00 AM 4.26 39.668 0.298 6.88 5.04 12.2
12/31/2022 5:30:00 AM 4.26 39.668 0.296 6.87 4.93 12.2
12/31/2022 5:45:00 AM 4.25 39.65 0.294 6.87 5.05 12.2
12/31/2022 6:00:00 AM 4.26 39.668 0.292 6.87 5.06 12.19
12/31/2022 6:15:00 AM 4.26 39.668 0.29 6.86 4.99 12.19
12/31/2022 6:30:00 AM 4.27 39.686 0.288 6.86 4.99 12.19
12/31/2022 6:45:00 AM 4.29 39.722 0.287 6.86 4.83 12.18
12/31/2022 7:00:00 AM 4.31 39.758 0.285 6.85 5.08 12.17
12/31/2022 7:15:00 AM 4.32 39.776 0.283 6.85 5.06 12.16
12/31/2022 7:30:00 AM 4.33 39.794 0.281 6.85 5.06 12.17
12/31/2022 7:45:00 AM 4.34 39.812 0.28 6.85 4.84 12.16
12/31/2022 8:00:00 AM 4.34 39.812 0.278 6.84 4.95 12.17
12/31/2022 8:15:00 AM 4.34 39.812 0.276 6.84 4.73 12.16
12/31/2022 8:30:00 AM 4.34 39.812 0.275 6.84 4.71 12.16
12/31/2022 8:45:00 AM 4.35 39.83 0.273 6.84 4.74 12.15
12/31/2022 9:00:00 AM 4.37 39.866 0.272 6.84 4.8 12.15
12/31/2022 9:15:00 AM 4.39 39.902 0.27 6.84 5.04 12.14
12/31/2022 9:30:00 AM 4.42 39.956 0.268 6.84 4.81 12.13
12/31/2022 9:45:00 AM 4.45 40.01 0.267 6.84 4.76 12.12
12/31/2022 10:00:00 AM 4.49 40.082 0.265 6.84 4.78 12.11
12/31/2022 10:15:00 AM 4.53 40.154 0.264 6.84 4.87 12.1
12/31/2022 10:30:00 AM 4.57 40.226 0.263 6.84 4.83 12.09
12/31/2022 10:45:00 AM 4.62 40.316 0.261 6.84 5.07 12.08
12/31/2022 11:00:00 AM 4.67 40.406 0.26 6.84 4.67 12.07
12/31/2022 11:15:00 AM 4.7 40.46 0.259 6.85 4.78 12.05
12/31/2022 11:30:00 AM 4.73 40.514 0.258 6.85 4.6 12.04
12/31/2022 11:45:00 AM 4.76 40.568 0.257 6.85 4.74 12.02
12/31/2022 12:00:00 PM 4.78 40.604 0.256 6.85 4.62 12.01
12/31/2022 12:15:00 PM 4.8 40.64 0.256 6.85 4.66 12
12/31/2022 12:30:00 PM 4.82 40.676 0.256 6.85 4.9 11.99
12/31/2022 12:45:00 PM 4.84 40.712 0.255 6.85 4.88 11.98
12/31/2022 1:00:00 PM 4.85 40.73 0.255 6.86 4.9 11.97
12/31/2022 1:15:00 PM 4.86 40.748 0.255 6.85 4.89 11.96
12/31/2022 1:30:00 PM 4.87 40.766 0.255 6.86 5.15 11.96
12/31/2022 1:45:00 PM 4.87 40.766 0.255 6.86 5.07 11.95
12/31/2022 2:00:00 PM 4.88 40.784 0.254 6.87 4.9 11.94
12/31/2022 2:15:00 PM 4.89 40.802 0.254 6.87 5.06 11.94
12/31/2022 2:30:00 PM 4.91 40.838 0.254 6.87 5.08 11.93
12/31/2022 2:45:00 PM 4.93 40.874 0.253 6.88 5.37 11.92
12/31/2022 3:00:00 PM 4.96 40.928 0.253 6.88 5.32 11.91
12/31/2022 3:15:00 PM 4.98 40.964 0.253 6.88 5.32 11.9
12/31/2022 3:30:00 PM 4.98 40.964 0.252 6.88 5.22 11.91
12/31/2022 3:45:00 PM 4.98 40.964 0.251 6.88 5.32 11.9
12/31/2022 4:00:00 PM 4.97 40.946 0.25 6.88 5.4 11.91
12/31/2022 4:15:00 PM 4.97 40.946 0.249 6.88 5.51 11.91
12/31/2022 4:30:00 PM 4.97 40.946 0.247 6.87 5.42 11.91
12/31/2022 4:45:00 PM 4.96 40.928 0.245 6.87 5.8 11.91
12/31/2022 5:00:00 PM 4.96 40.928 0.244 6.87 6.01 11.91
12/31/2022 5:15:00 PM 4.95 40.91 0.242 6.87 6.01 11.91
12/31/2022 5:30:00 PM 4.94 40.892 0.24 6.86 6.29 11.91
12/31/2022 5:45:00 PM 4.93 40.874 0.238 6.86 6.32 11.92
12/31/2022 6:00:00 PM 4.92 40.856 0.236 6.86 6.39 11.92
12/31/2022 6:15:00 PM 4.92 40.856 0.234 6.85 6.71 11.92
12/31/2022 6:30:00 PM 4.9 40.82 0.232 6.85 6.94 11.93
12/31/2022 6:45:00 PM 4.89 40.802 0.23 6.85 6.88 11.93
12/31/2022 7:00:00 PM 4.89 40.802 0.229 6.85 7.08 11.92
12/31/2022 7:15:00 PM 4.89 40.802 0.228 6.84 7.12 11.92
12/31/2022 7:30:00 PM 4.92 40.856 0.227 6.84 7.46 11.92
12/31/2022 7:45:00 PM 4.92 40.856 0.225 6.84 8.32 11.92
12/31/2022 8:00:00 PM 4.93 40.874 0.224 6.84 8.43 11.92
12/31/2022 8:15:00 PM 4.92 40.856 0.225 6.84 8.83 11.93
12/31/2022 8:30:00 PM 4.87 40.766 0.226 6.83 9.57 11.93
12/31/2022 8:45:00 PM 4.86 40.748 0.225 6.82 10.06 11.94
12/31/2022 9:00:00 PM 4.87 40.766 0.223 6.82 10.89 11.94
12/31/2022 9:15:00 PM 4.84 40.712 0.222 6.8 11.11 11.95
12/31/2022 9:30:00 PM 4.85 40.73 0.224 6.8 10.47 11.95
12/31/2022 9:45:00 PM 4.86 40.748 0.224 6.79 10.17 11.95
12/31/2022 10:00:00 PM 4.85 40.73 0.221 6.79 9.38 11.96
12/31/2022 10:15:00 PM 4.86 40.748 0.217 6.78 9.09 11.96
12/31/2022 10:30:00 PM 4.87 40.766 0.214 6.77 9.09 11.95
12/31/2022 10:45:00 PM 4.88 40.784 0.211 6.76 8.42 11.95
12/31/2022 11:00:00 PM 4.88 40.784 0.208 6.76 8.55 11.96
12/31/2022 11:15:00 PM 4.87 40.766 0.206 6.75 8.29 11.96
12/31/2022 11:30:00 PM 4.87 40.766 0.203 6.74 7.92 11.97
12/31/2022 11:45:00 PM 4.86 40.748 0.202 6.73 7.73 11.97
1/1/2023 12:00:00 AM 4.85 40.73 0.2 6.73 7.45 11.98
1/1/2023 12:15:00 AM 4.84 40.712 0.199 6.72 7.36 11.98
1/1/2023 12:30:00 AM 4.82 40.676 0.198 6.71 7.08 11.99
1/1/2023 12:45:00 AM 4.81 40.658 0.197 6.71 6.89 12
1/1/2023 1:00:00 AM 4.8 40.64 0.196 6.7 6.99 12
1/1/2023 1:15:00 AM 4.78 40.604 0.195 6.7 6.5 12.01
1/1/2023 1:30:00 AM 4.77 40.586 0.195 6.69 6.51 12.01
1/1/2023 1:45:00 AM 4.75 40.55 0.194 6.68 6.25 12.02
1/1/2023 2:00:00 AM 4.73 40.514 0.193 6.68 6.07 12.03
1/1/2023 2:15:00 AM 4.71 40.478 0.193 6.68 5.92 12.03
1/1/2023 2:30:00 AM 4.69 40.442 0.192 6.68 5.85 12.04
1/1/2023 2:45:00 AM 4.68 40.424 0.192 6.67 5.83 12.05
1/1/2023 3:00:00 AM 4.67 40.406 0.191 6.67 5.61 12.06
1/1/2023 3:15:00 AM 4.66 40.388 0.191 6.66 5.57 12.06
1/1/2023 3:30:00 AM 4.65 40.37 0.191 6.66 5.39 12.06
1/1/2023 3:45:00 AM 4.63 40.334 0.191 6.65 5.4 12.07
1/1/2023 4:00:00 AM 4.62 40.316 0.19 6.65 5.36 12.07
1/1/2023 4:15:00 AM 4.6 40.28 0.19 6.64 5.24 12.08
1/1/2023 4:30:00 AM 4.59 40.262 0.189 6.64 5.08 12.08
1/1/2023 4:45:00 AM 4.59 40.262 0.189 6.64 5 12.08
1/1/2023 5:00:00 AM 4.58 40.244 0.188 6.63 5.01 12.08
1/1/2023 5:15:00 AM 4.57 40.226 0.187 6.63 4.8 12.09
1/1/2023 5:30:00 AM 4.56 40.208 0.187 6.63 4.82 12.09
1/1/2023 5:45:00 AM 4.56 40.208 0.186 6.62 4.74 12.1
1/1/2023 6:00:00 AM 4.55 40.19 0.186 6.62 4.67 12.1
1/1/2023 6:15:00 AM 4.55 40.19 0.185 6.62 4.81 12.1
1/1/2023 6:30:00 AM 4.54 40.172 0.184 6.62 4.59 12.11
1/1/2023 6:45:00 AM 4.54 40.172 0.184 6.61 4.49 12.1
1/1/2023 7:00:00 AM 4.54 40.172 0.183 6.61 4.5 12.11
1/1/2023 7:15:00 AM 4.54 40.172 0.183 6.61 4.45 12.11
1/1/2023 7:30:00 AM 4.54 40.172 0.182 6.61 4.27 12.11
1/1/2023 7:45:00 AM 4.53 40.154 0.181 6.61 4.46 12.11
1/1/2023 8:00:00 AM 4.53 40.154 0.181 6.61 4.29 12.12
1/1/2023 8:15:00 AM 4.53 40.154 0.18 6.6 4.36 12.12
1/1/2023 8:30:00 AM 4.54 40.172 0.18 6.6 4.22 12.13
1/1/2023 8:45:00 AM 4.55 40.19 0.179 6.6 4.25 12.13
1/1/2023 9:00:00 AM 4.56 40.208 0.178 6.6 4.07 12.13
1/1/2023 9:15:00 AM 4.57 40.226 0.178 6.6 4.12 12.13
1/1/2023 9:30:00 AM 4.59 40.262 0.177 6.6 4.12 12.12
1/1/2023 9:45:00 AM 4.61 40.298 0.176 6.61 4.08 12.12
1/1/2023 10:00:00 AM 4.64 40.352 0.176 6.61 4.1 12.12
1/1/2023 10:15:00 AM 4.66 40.388 0.175 6.61 4.06 12.11
1/1/2023 10:30:00 AM 4.7 40.46 0.174 6.6 4.06 12.1
1/1/2023 10:45:00 AM 4.72 40.496 0.174 6.61 4.11 12.1
1/1/2023 11:00:00 AM 4.76 40.568 0.173 6.61 3.93 12.08
1/1/2023 11:15:00 AM 4.77 40.586 0.173 6.6 3.83 12.07
1/1/2023 11:30:00 AM 4.81 40.658 0.173 6.61 3.9 12.06
1/1/2023 11:45:00 AM 4.87 40.766 0.172 6.6 3.8 12.04
1/1/2023 12:00:00 PM 4.93 40.874 0.172 6.61 3.86 12.02
1/1/2023 12:15:00 PM 4.95 40.91 0.171 6.61 3.83 12.01
1/1/2023 12:30:00 PM 4.97 40.946 0.17 6.61 3.78 12
1/1/2023 12:45:00 PM 5 41 0.17 6.61 3.78 11.98
1/1/2023 1:00:00 PM 5.02 41.036 0.169 6.61 3.84 11.97
1/1/2023 1:15:00 PM 5.02 41.036 0.169 6.61 3.75 11.97
1/1/2023 1:30:00 PM 5.03 41.054 0.168 6.61 3.83 11.96
1/1/2023 1:45:00 PM 5.06 41.108 0.168 6.61 3.79 11.95
1/1/2023 2:00:00 PM 5.08 41.144 0.167 6.61 3.77 11.95
1/1/2023 2:15:00 PM 5.1 41.18 0.167 6.61 3.7 11.94
1/1/2023 2:30:00 PM 5.12 41.216 0.166 6.61 3.76 11.93
1/1/2023 2:45:00 PM 5.12 41.216 0.165 6.61 3.72 11.93
1/1/2023 3:00:00 PM 5.12 41.216 0.165 6.61 3.74 11.93
1/1/2023 3:15:00 PM 5.12 41.216 0.164 6.61 3.77 11.92
1/1/2023 3:30:00 PM 5.12 41.216 0.163 6.6 3.73 11.93
1/1/2023 3:45:00 PM 5.12 41.216 0.162 6.6 3.66 11.93
1/1/2023 4:00:00 PM 5.11 41.198 0.161 6.6 3.72 11.93
1/1/2023 4:15:00 PM 5.11 41.198 0.161 6.6 3.83 11.93
1/1/2023 4:30:00 PM 5.11 41.198 0.16 6.59 3.68 11.93
1/1/2023 4:45:00 PM 5.1 41.18 0.159 6.58 3.7 11.93
1/1/2023 5:00:00 PM 5.1 41.18 0.158 6.58 3.71 11.93
1/1/2023 5:15:00 PM 5.11 41.198 0.157 6.59 3.72 11.93
1/1/2023 5:30:00 PM 5.12 41.216 0.156 6.58 3.71 11.93
1/1/2023 5:45:00 PM 5.13 41.234 0.155 6.58 3.66 11.93
1/1/2023 6:00:00 PM 5.15 41.27 0.154 6.58 3.67 11.93
1/1/2023 6:15:00 PM 5.16 41.288 0.154 6.57 3.7 11.92
1/1/2023 6:30:00 PM 5.17 41.306 0.153 6.57 3.65 11.93
1/1/2023 6:45:00 PM 5.17 41.306 0.152 6.56 3.69 11.93
1/1/2023 7:00:00 PM 5.18 41.324 0.151 6.56 3.64 11.93
1/1/2023 7:15:00 PM 5.19 41.342 0.15 6.56 3.62 11.93
1/1/2023 7:30:00 PM 5.19 41.342 0.15 6.56 3.68 11.93
1/1/2023 7:45:00 PM 5.2 41.36 0.149 6.56 3.62 11.93
1/1/2023 8:00:00 PM 5.2 41.36 0.148 6.55 3.61 11.93
1/1/2023 8:15:00 PM 5.21 41.378 0.147 6.55 3.73 11.93
1/1/2023 8:30:00 PM 5.22 41.396 0.147 6.55 3.65 11.92
1/1/2023 8:45:00 PM 5.22 41.396 0.146 6.55 3.6 11.92
1/1/2023 9:00:00 PM 5.22 41.396 0.145 6.55 3.61 11.93
1/1/2023 9:15:00 PM 5.23 41.414 0.144 6.54 3.67 11.93
1/1/2023 9:30:00 PM 5.23 41.414 0.144 6.54 3.66 11.93
1/1/2023 9:45:00 PM 5.23 41.414 0.143 6.54 3.76 11.92
1/1/2023 10:00:00 PM 5.24 41.432 0.142 6.53 3.73 11.92
1/1/2023 10:15:00 PM 5.24 41.432 0.142 6.53 3.73 11.92
1/1/2023 10:30:00 PM 5.24 41.432 0.141 6.53 3.59 11.93
1/1/2023 10:45:00 PM 5.24 41.432 0.14 6.53 3.7 11.93
1/1/2023 11:00:00 PM 5.24 41.432 0.139 6.52 3.66 11.93
1/1/2023 11:15:00 PM 5.24 41.432 0.139 6.51 3.64 11.93
1/1/2023 11:30:00 PM 5.25 41.45 0.138 6.52 3.76 11.93
1/1/2023 11:45:00 PM 5.25 41.45 0.137 6.51 3.63 11.92
1/2/2023 12:00:00 AM 5.25 41.45 0.137 6.51 3.7 11.92
1/2/2023 12:15:00 AM 5.26 41.468 0.136 6.51 3.62 11.92
1/2/2023 12:30:00 AM 5.26 41.468 0.135 6.51 3.61 11.92
1/2/2023 12:45:00 AM 5.26 41.468 0.135 6.5 3.66 11.92
1/2/2023 1:00:00 AM 5.27 41.486 0.134 6.5 3.51 11.92
1/2/2023 1:15:00 AM 5.27 41.486 0.133 6.5 3.68 11.92
1/2/2023 1:30:00 AM 5.28 41.504 0.133 6.49 3.72 11.92
1/2/2023 1:45:00 AM 5.28 41.504 0.133 6.5 3.61 11.92
1/2/2023 2:00:00 AM 5.29 41.522 0.132 6.49 3.58 11.92
1/2/2023 2:15:00 AM 5.29 41.522 0.131 6.49 3.59 11.92
1/2/2023 2:30:00 AM 5.3 41.54 0.131 6.49 3.6 11.91
1/2/2023 2:45:00 AM 5.3 41.54 0.13 6.49 3.56 11.92
1/2/2023 3:00:00 AM 5.31 41.558 0.129 6.49 3.56 11.92
1/2/2023 3:15:00 AM 5.31 41.558 0.129 6.49 3.55 11.92
1/2/2023 3:30:00 AM 5.31 41.558 0.128 6.48 3.56 11.92
1/2/2023 3:45:00 AM 5.32 41.576 0.128 6.47 3.55 11.91
1/2/2023 4:00:00 AM 5.32 41.576 0.127 6.47 3.56 11.92
1/2/2023 4:15:00 AM 5.33 41.594 0.127 6.47 3.53 11.91
1/2/2023 4:30:00 AM 5.33 41.594 0.126 6.47 3.48 11.91
1/2/2023 4:45:00 AM 5.33 41.594 0.126 6.47 3.51 11.91
1/2/2023 5:00:00 AM 5.34 41.612 0.125 6.47 3.55 11.91
1/2/2023 5:15:00 AM 5.34 41.612 0.125 6.46 3.43 11.91
1/2/2023 5:30:00 AM 5.34 41.612 0.124 6.46 3.44 11.91
1/2/2023 5:45:00 AM 5.35 41.63 0.124 6.46 3.44 11.92
1/2/2023 6:00:00 AM 5.35 41.63 0.123 6.46 3.35 11.92
1/2/2023 6:15:00 AM 5.35 41.63 0.123 6.46 3.47 11.91
1/2/2023 6:30:00 AM 5.36 41.648 0.122 6.45 3.41 11.91
1/2/2023 6:45:00 AM 5.36 41.648 0.122 6.45 3.37 11.91
1/2/2023 7:00:00 AM 5.36 41.648 0.121 6.45 3.4 11.91
1/2/2023 7:15:00 AM 5.36 41.648 0.121 6.44 3.34 11.91
1/2/2023 7:30:00 AM 5.36 41.648 0.12 6.44 3.42 11.91
1/2/2023 7:45:00 AM 5.36 41.648 0.12 6.44 3.33 11.91
1/2/2023 8:00:00 AM 5.37 41.666 0.12 6.43 3.35 11.91
1/2/2023 8:15:00 AM 5.37 41.666 0.119 6.43 3.31 11.91
1/2/2023 8:30:00 AM 5.37 41.666 0.119 6.42 3.3 11.92
1/2/2023 8:45:00 AM 5.38 41.684 0.118 6.43 3.42 11.91
1/2/2023 9:00:00 AM 5.39 41.702 0.118 6.43 3.34 11.91
1/2/2023 9:15:00 AM 5.41 41.738 0.118 6.42 3.3 11.91
1/2/2023 9:30:00 AM 5.43 41.774 0.117 6.42 3.41 11.91
1/2/2023 9:45:00 AM 5.44 41.792 0.117 6.42 3.38 11.9
1/2/2023 10:00:00 AM 5.45 41.81 0.116 6.42 3.26 11.89
1/2/2023 10:15:00 AM 5.47 41.846 0.116 6.42 3.36 11.89
1/2/2023 10:30:00 AM 5.48 41.864 0.116 6.43 3.43 11.89
1/2/2023 10:45:00 AM 5.49 41.882 0.115 6.42 3.35 11.89
1/2/2023 11:00:00 AM 5.51 41.918 0.115 6.42 3.37 11.88
1/2/2023 11:15:00 AM 5.52 41.936 0.115 6.42 3.32 11.88
1/2/2023 11:30:00 AM 5.54 41.972 0.114 6.42 3.25 11.87
1/2/2023 11:45:00 AM 5.56 42.008 0.114 6.42 3.29 11.86
1/2/2023 12:00:00 PM 5.58 42.044 0.114 6.42 3.25 11.85
1/2/2023 12:15:00 PM 5.6 42.08 0.113 6.42 3.23 11.85
1/2/2023 12:30:00 PM 5.62 42.116 0.113 6.42 3.31 11.84
1/2/2023 12:45:00 PM 5.63 42.134 0.112 6.42 3.31 11.83
1/2/2023 1:00:00 PM 5.64 42.152 0.112 6.42 3.25 11.82
1/2/2023 1:15:00 PM 5.65 42.17 0.112 6.42 3.33 11.82
1/2/2023 1:30:00 PM 5.66 42.188 0.111 6.42 3.25 11.81
1/2/2023 1:45:00 PM 5.67 42.206 0.111 6.42 3.32 11.81
1/2/2023 2:00:00 PM 5.67 42.206 0.111 6.42 3.26 11.8
1/2/2023 2:15:00 PM 5.67 42.206 0.11 6.42 3.36 11.8
1/2/2023 2:30:00 PM 5.68 42.224 0.11 6.42 3.32 11.8
1/2/2023 2:45:00 PM 5.68 42.224 0.11 6.41 3.45 11.8
1/2/2023 3:00:00 PM 5.68 42.224 0.109 6.41 3.36 11.8
1/2/2023 3:15:00 PM 5.68 42.224 0.109 6.41 3.37 11.8
1/2/2023 3:30:00 PM 5.69 42.242 0.109 6.41 3.38 11.8
1/2/2023 3:45:00 PM 5.69 42.242 0.109 6.4 3.37 11.79
1/2/2023 4:00:00 PM 5.69 42.242 0.108 6.4 3.38 11.79
1/2/2023 4:15:00 PM 5.68 42.224 0.108 6.41 3.37 11.8
1/2/2023 4:30:00 PM 5.68 42.224 0.108 6.4 3.36 11.8
1/2/2023 4:45:00 PM 5.68 42.224 0.107 6.4 3.38 11.8
1/2/2023 5:00:00 PM 5.68 42.224 0.107 6.39 3.33 11.8
1/2/2023 5:15:00 PM 5.67 42.206 0.107 6.39 3.51 11.8
1/2/2023 5:30:00 PM 5.67 42.206 0.107 6.38 3.51 11.81
1/2/2023 5:45:00 PM 5.67 42.206 0.107 6.39 3.38 11.81
1/2/2023 6:00:00 PM 5.67 42.206 0.106 6.38 3.38 11.81
1/2/2023 6:15:00 PM 5.67 42.206 0.106 6.38 3.29 11.81
1/2/2023 6:30:00 PM 5.66 42.188 0.105 6.39 3.35 11.81
1/2/2023 6:45:00 PM 5.66 42.188 0.105 6.38 3.31 11.81
1/2/2023 7:00:00 PM 5.66 42.188 0.105 6.38 3.37 11.81
1/2/2023 7:15:00 PM 5.66 42.188 0.105 6.37 3.37 11.81
1/2/2023 7:30:00 PM 5.67 42.206 0.104 6.37 3.32 11.81
1/2/2023 7:45:00 PM 5.67 42.206 0.104 6.37 3.33 11.81
1/2/2023 8:00:00 PM 5.67 42.206 0.104 6.37 3.3 11.81
1/2/2023 8:15:00 PM 5.67 42.206 0.103 6.36 3.33 11.81
1/2/2023 8:30:00 PM 5.67 42.206 0.103 6.36 3.27 11.81
1/2/2023 8:45:00 PM 5.67 42.206 0.103 6.36 3.3 11.81
1/2/2023 9:00:00 PM 5.67 42.206 0.103 6.36 3.35 11.8
1/2/2023 9:15:00 PM 5.67 42.206 0.102 6.36 3.34 11.8
1/2/2023 9:30:00 PM 5.68 42.224 0.102 6.35 3.29 11.8
1/2/2023 9:45:00 PM 5.68 42.224 0.102 6.35 3.24 11.8
1/2/2023 10:00:00 PM 5.68 42.224 0.101 6.35 3.23 11.8
1/2/2023 10:15:00 PM 5.68 42.224 0.101 6.35 3.27 11.8
1/2/2023 10:30:00 PM 5.69 42.242 0.101 6.35 3.21 11.8
1/2/2023 10:45:00 PM 5.69 42.242 0.101 6.35 3.25 11.79
1/2/2023 11:00:00 PM 5.69 42.242 0.1 6.34 3.25 11.8
1/2/2023 11:15:00 PM 5.69 42.242 0.1 6.34 3.24 11.79
1/2/2023 11:30:00 PM 5.7 42.26 0.1 6.34 3.27 11.78
1/2/2023 11:45:00 PM 5.7 42.26 0.1 6.34 3.32 11.79
1/3/2023 12:00:00 AM 5.7 42.26 0.1 6.34 3.31 11.78
1/3/2023 12:15:00 AM 5.71 42.278 0.099 6.34 3.27 11.78
1/3/2023 12:30:00 AM 5.71 42.278 0.099 6.34 3.32 11.77
1/3/2023 12:45:00 AM 5.71 42.278 0.099 6.34 3.28 11.78
1/3/2023 1:00:00 AM 5.72 42.296 0.099 6.34 3.19 11.77
1/3/2023 1:15:00 AM 5.72 42.296 0.099 6.34 3.24 11.77
1/3/2023 1:30:00 AM 5.72 42.296 0.098 6.33 3.24 11.77
1/3/2023 1:45:00 AM 5.72 42.296 0.098 6.33 3.14 11.76
1/3/2023 2:00:00 AM 5.73 42.314 0.098 6.34 3.24 11.76
1/3/2023 2:15:00 AM 5.73 42.314 0.098 6.33 3.11 11.76
1/3/2023 2:30:00 AM 5.74 42.332 0.098 6.33 3.19 11.77
1/3/2023 2:45:00 AM 5.74 42.332 0.097 6.34 3.2 11.77
1/3/2023 3:00:00 AM 5.74 42.332 0.097 6.33 3.2 11.77
1/3/2023 3:15:00 AM 5.75 42.35 0.097 6.33 3.19 11.76
1/3/2023 3:30:00 AM 5.75 42.35 0.097 6.32 3.15 11.75
1/3/2023 3:45:00 AM 5.76 42.368 0.097 6.33 3.25 11.75
1/3/2023 4:00:00 AM 5.76 42.368 0.096 6.32 3.19 11.74
1/3/2023 4:15:00 AM 5.76 42.368 0.096 6.33 3.19 11.74
1/3/2023 4:30:00 AM 5.77 42.386 0.096 6.32 3.24 11.74
1/3/2023 4:45:00 AM 5.77 42.386 0.096 6.32 3.26 11.74
1/3/2023 5:00:00 AM 5.77 42.386 0.095 6.32 3.19 11.73
1/3/2023 5:15:00 AM 5.78 42.404 0.095 6.32 3.14 11.73
1/3/2023 5:30:00 AM 5.79 42.422 0.095 6.32 3.11 11.73
1/3/2023 5:45:00 AM 5.79 42.422 0.095 6.32 3.04 11.72
1/3/2023 6:00:00 AM 5.8 42.44 0.095 6.32 3.08 11.72
1/3/2023 6:15:00 AM 5.81 42.458 0.095 6.32 3.1 11.71
1/3/2023 6:30:00 AM 5.81 42.458 0.094 6.32 3.08 11.71
1/3/2023 6:45:00 AM 5.82 42.476 0.094 6.32 3.16 11.71
1/3/2023 7:00:00 AM 5.83 42.494 0.093 6.32 3.35 11.7
1/3/2023 7:15:00 AM 5.84 42.512 0.093 6.32 3.43 11.7
1/3/2023 7:30:00 AM 5.85 42.53 0.094 6.33 3.73 11.7
1/3/2023 7:45:00 AM 5.86 42.548 0.094 6.34 4.21 11.69
1/3/2023 8:00:00 AM 5.87 42.566 0.095 6.34 5.09 11.69
1/3/2023 8:15:00 AM 5.88 42.584 0.095 6.36 6.01 11.68
1/3/2023 8:30:00 AM 5.88 42.584 0.101 6.37 7.13 11.68
1/3/2023 8:45:00 AM 5.88 42.584 0.106 6.41 8.52 11.67
1/3/2023 9:00:00 AM 5.89 42.602 0.107 6.42 11.37 11.67
1/3/2023 9:15:00 AM 5.88 42.584 0.11 6.45 12.55 11.67
1/3/2023 9:30:00 AM 5.87 42.566 0.113 6.46 14.87 11.67
1/3/2023 9:45:00 AM 5.86 42.548 0.115 6.46 17.79 11.68
1/3/2023 10:00:00 AM 5.85 42.53 0.117 6.47 20.94 11.68
1/3/2023 10:15:00 AM 5.84 42.512 0.12 6.48 21.77 11.68
1/3/2023 10:30:00 AM 5.84 42.512 0.124 6.49 21.24 11.68
1/3/2023 10:45:00 AM 5.86 42.548 0.123 6.49 23.08 11.68
1/3/2023 11:00:00 AM 5.9 42.62 0.124 6.48 22.05 11.67
1/3/2023 11:15:00 AM 5.94 42.692 0.124 6.48 22.7 11.66
1/3/2023 11:30:00 AM 5.99 42.782 0.124 6.48 22.55 11.65
1/3/2023 11:45:00 AM 6 42.8 0.123 6.47 20.37 11.64
1/3/2023 12:00:00 PM 6.05 42.89 0.122 6.46 19.76 11.63
1/3/2023 12:15:00 PM 6.07 42.926 0.121 6.45 21.76 11.62
1/3/2023 12:30:00 PM 6.09 42.962 0.121 6.44 20.31 11.61
1/3/2023 12:45:00 PM 6.11 42.998 0.12 6.43 20.04 11.6
1/3/2023 1:00:00 PM 6.13 43.034 0.12 6.43 18.28 11.59
1/3/2023 1:15:00 PM 6.13 43.034 0.121 6.43 17.99 11.59
1/3/2023 1:30:00 PM 6.14 43.052 0.121 6.41 17.81 11.59
1/3/2023 1:45:00 PM 6.15 43.07 0.121 6.4 19.28 11.58
1/3/2023 2:00:00 PM 6.15 43.07 0.121 6.39 17.6 11.58
1/3/2023 2:15:00 PM 6.15 43.07 0.122 6.39 17.41 11.58
1/3/2023 2:30:00 PM 6.15 43.07 0.123 6.38 17.17 11.57
1/3/2023 2:45:00 PM 6.16 43.088 0.124 6.37 14.42 11.57
1/3/2023 3:00:00 PM 6.18 43.124 0.124 6.36 15.45 11.56
1/3/2023 3:15:00 PM 6.22 43.196 0.125 6.37 15.68 11.55
1/3/2023 3:30:00 PM 6.23 43.214 0.126 6.37 12.99 11.54
1/3/2023 3:45:00 PM 6.27 43.286 0.127 6.37 12.96 11.53
1/3/2023 4:00:00 PM 6.3 43.34 0.128 6.37 10.9 11.52
1/3/2023 4:15:00 PM 6.31 43.358 0.128 6.37 10.95 11.51
1/3/2023 4:30:00 PM 6.32 43.376 0.129 6.36 11.59 11.5
1/3/2023 4:45:00 PM 6.32 43.376 0.129 6.36 10.25 11.5
1/3/2023 5:00:00 PM 6.34 43.412 0.129 6.36 11.18 11.5
1/3/2023 5:15:00 PM 6.35 43.43 0.129 6.36 9.6 11.5
1/3/2023 5:30:00 PM 6.36 43.448 0.129 6.36 9.54 11.5
1/3/2023 5:45:00 PM 6.37 43.466 0.129 6.35 9.91 11.49
1/3/2023 6:00:00 PM 6.37 43.466 0.129 6.34 8.26 11.49
1/3/2023 6:15:00 PM 6.38 43.484 0.129 6.34 9.24 11.48
1/3/2023 6:30:00 PM 6.39 43.502 0.129 6.33 7.89 11.48
1/3/2023 6:45:00 PM 6.4 43.52 0.128 6.33 8.19 11.48
1/3/2023 7:00:00 PM 6.41 43.538 0.128 6.34 8.46 11.48
1/3/2023 7:15:00 PM 6.42 43.556 0.128 6.33 7.39 11.47
1/3/2023 7:30:00 PM 6.43 43.574 0.127 6.33 8 11.47
1/3/2023 7:45:00 PM 6.44 43.592 0.127 6.33 7.4 11.48
1/3/2023 8:00:00 PM 6.46 43.628 0.126 6.33 7.38 11.47
1/3/2023 8:15:00 PM 6.49 43.682 0.126 6.33 6.75 11.47
1/3/2023 8:30:00 PM 6.5 43.7 0.125 6.33 7.31 11.46
1/3/2023 8:45:00 PM 6.51 43.718 0.125 6.32 7.9 11.46
1/3/2023 9:00:00 PM 6.51 43.718 0.124 6.32 7.02 11.46
1/3/2023 9:15:00 PM 6.53 43.754 0.124 6.32 6.81 11.46
1/3/2023 9:30:00 PM 6.54 43.772 0.123 6.32 6.39 11.45
1/3/2023 9:45:00 PM 6.57 43.826 0.123 6.33 6.9 11.45
1/3/2023 10:00:00 PM 6.58 43.844 0.122 6.32 6.46 11.44
1/3/2023 10:15:00 PM 6.62 43.916 0.122 6.33 6.03 11.44
1/3/2023 10:30:00 PM 6.65 43.97 0.121 6.33 5.95 11.42
1/3/2023 10:45:00 PM 6.67 44.006 0.12 6.33 6.05 11.41
1/3/2023 11:00:00 PM 6.68 44.024 0.12 6.33 5.06 11.41
1/3/2023 11:15:00 PM 6.71 44.078 0.119 6.33 5.44 11.41
1/3/2023 11:30:00 PM 6.75 44.15 0.119 6.34 5.46 11.4
1/3/2023 11:45:00 PM 6.77 44.186 0.118 6.33 5.33 11.39
1/4/2023 12:00:00 AM 6.79 44.222 0.118 6.33 5.69 11.38
1/4/2023 12:15:00 AM 6.81 44.258 0.117 6.33 4.83 11.38
1/4/2023 12:30:00 AM 6.84 44.312 0.117 6.33 5.29 11.37
1/4/2023 12:45:00 AM 6.86 44.348 0.116 6.33 5.69 11.37
1/4/2023 1:00:00 AM 6.88 44.384 0.116 6.33 5.02 11.36
1/4/2023 1:15:00 AM 6.9 44.42 0.115 6.33 4.95 11.35
1/4/2023 1:30:00 AM 6.91 44.438 0.114 6.32 5.66 11.34
1/4/2023 1:45:00 AM 6.92 44.456 0.114 6.33 4.87 11.34
1/4/2023 2:00:00 AM 6.93 44.474 0.113 6.32 4.99 11.34
1/4/2023 2:15:00 AM 6.93 44.474 0.113 6.32 4.65 11.34
1/4/2023 2:30:00 AM 6.92 44.456 0.112 6.31 5.42 11.34
1/4/2023 2:45:00 AM 6.92 44.456 0.112 6.32 5.18 11.35
1/4/2023 3:00:00 AM 6.93 44.474 0.111 6.32 4.43 11.35
1/4/2023 3:15:00 AM 6.94 44.492 0.111 6.31 4.58 11.34
1/4/2023 3:30:00 AM 6.96 44.528 0.111 6.3 4.72 11.33
1/4/2023 3:45:00 AM 6.96 44.528 0.11 6.3 4.9 11.33
1/4/2023 4:00:00 AM 6.97 44.546 0.109 6.29 5.43 11.33
1/4/2023 4:15:00 AM 6.97 44.546 0.109 6.28 5.74 11.33
1/4/2023 4:30:00 AM 6.99 44.582 0.108 6.29 6.75 11.33
1/4/2023 4:45:00 AM 7.02 44.636 0.107 6.29 6.54 11.32
1/4/2023 5:00:00 AM 7.03 44.654 0.107 6.29 5.97 11.32
1/4/2023 5:15:00 AM 7.04 44.672 0.106 6.29 5.59 11.31
1/4/2023 5:30:00 AM 7.05 44.69 0.106 6.29 5.71 11.31
1/4/2023 5:45:00 AM 7.06 44.708 0.106 6.28 7.05 11.32
1/4/2023 6:00:00 AM 7.07 44.726 0.105 6.29 5.55 11.32
1/4/2023 6:15:00 AM 7.07 44.726 0.105 6.28 6.72 11.32
1/4/2023 6:30:00 AM 7.08 44.744 0.105 6.28 4.92 11.31
1/4/2023 6:45:00 AM 7.08 44.744 0.104 6.27 6.95 11.31
1/4/2023 7:00:00 AM 7.06 44.708 0.103 6.25 6.85 11.31
1/4/2023 7:15:00 AM 7.04 44.672 0.103 6.25 6.69 11.31
1/4/2023 7:30:00 AM 7.02 44.636 0.103 6.24 5.09 11.32
1/4/2023 7:45:00 AM 7.02 44.636 0.102 6.24 5.08 11.32
1/4/2023 8:00:00 AM 7.01 44.618 0.102 6.23 7.69 11.32
1/4/2023 8:15:00 AM 7 44.6 0.101 6.22 3.96 11.33
1/4/2023 8:30:00 AM 7 44.6 0.101 6.22 3.86 11.33
1/4/2023 8:45:00 AM 7.01 44.618 0.101 6.22 4.22 11.33
1/4/2023 9:00:00 AM 7.03 44.654 0.1 6.22 4.74 11.32
1/4/2023 9:15:00 AM 7.05 44.69 0.1 6.21 4.51 11.32
1/4/2023 9:30:00 AM 7.07 44.726 0.1 6.21 5.07 11.32
1/4/2023 9:45:00 AM 7.09 44.762 0.099 6.21 5.67 11.32
1/4/2023 10:00:00 AM 7.12 44.816 0.099 6.21 4.99 11.31
1/4/2023 10:15:00 AM 7.16 44.888 0.098 6.21 5.38 11.31
1/4/2023 10:30:00 AM 7.19 44.942 0.098 6.22 3.83 11.3
1/4/2023 10:45:00 AM 7.23 45.014 0.098 6.22 4.25 11.29
1/4/2023 11:00:00 AM 7.33 45.194 0.094 6.51 4.04 11.34
1/4/2023 11:15:00 AM 7.36 45.248 0.094 6.37 3.6 11.32
1/4/2023 11:30:00 AM 7.37 45.266 0.093 6.32 3.68 11.31
1/4/2023 11:45:00 AM 7.4 45.32 0.093 6.27 3.78 11.3
1/4/2023 12:00:00 PM 7.42 45.356 0.092 6.27 3.22 11.29
1/4/2023 12:15:00 PM 7.45 45.41 0.093 6.28 3.23 11.27
1/4/2023 12:30:00 PM 7.47 45.446 0.092 6.26 3.36 11.26
1/4/2023 12:45:00 PM 7.48 45.464 0.092 6.24 3.5 11.25
1/4/2023 1:00:00 PM 7.48 45.464 0.091 6.21 3.42 11.24
1/4/2023 1:15:00 PM 7.49 45.482 0.091 6.2 3.42 11.24
1/4/2023 1:30:00 PM 7.49 45.482 0.091 6.18 3.28 11.23
1/4/2023 1:45:00 PM 7.49 45.482 0.09 6.18 3.35 11.22
1/4/2023 2:00:00 PM 7.5 45.5 0.09 6.16 3.2 11.22
1/4/2023 2:15:00 PM 7.5 45.5 0.09 6.15 3.08 11.21
1/4/2023 2:30:00 PM 7.52 45.536 0.09 6.14 3.48 11.21
1/4/2023 2:45:00 PM 7.52 45.536 0.089 6.14 3.2 11.2
1/4/2023 3:00:00 PM 7.53 45.554 0.089 6.12 3.07 11.19
1/4/2023 3:15:00 PM 7.54 45.572 0.089 6.11 3.48 11.19
1/4/2023 3:30:00 PM 7.54 45.572 0.089 6.12 3.34 11.18
1/4/2023 3:45:00 PM 7.54 45.572 0.089 6.12 3.11 11.18
1/4/2023 4:00:00 PM 7.54 45.572 0.088 6.1 3.54 11.18
1/4/2023 4:15:00 PM 7.55 45.59 0.088 6.09 3.36 11.18
1/4/2023 4:30:00 PM 7.55 45.59 0.088 6.09 3.21 11.18
1/4/2023 4:45:00 PM 7.55 45.59 0.088 6.08 3.19 11.18
1/4/2023 5:00:00 PM 7.55 45.59 0.087 6.09 3.31 11.17
1/4/2023 5:15:00 PM 7.56 45.608 0.087 6.08 3.8 11.17
1/4/2023 5:30:00 PM 7.56 45.608 0.087 6.08 3.74 11.17
1/4/2023 5:45:00 PM 7.56 45.608 0.086 6.07 3.51 11.17
1/4/2023 6:00:00 PM 7.56 45.608 0.086 6.07 3.2 11.17
1/4/2023 6:15:00 PM 7.56 45.608 0.086 6.06 3.32 11.17
1/4/2023 6:30:00 PM 7.56 45.608 0.086 6.07 3.18 11.17
1/4/2023 6:45:00 PM 7.56 45.608 0.086 6.07 3.34 11.17
1/4/2023 7:00:00 PM 7.57 45.626 0.086 6.06 3.15 11.18
1/4/2023 7:15:00 PM 7.56 45.608 0.086 6.06 3.14 11.17
1/4/2023 7:30:00 PM 7.56 45.608 0.086 6.05 3.32 11.17
1/4/2023 7:45:00 PM 7.55 45.59 0.085 6.05 2.98 11.17
1/4/2023 8:00:00 PM 7.54 45.572 0.085 6.04 3.13 11.18
1/4/2023 8:15:00 PM 7.54 45.572 0.085 6.04 3.16 11.18
1/4/2023 8:30:00 PM 7.55 45.59 0.085 6.04 3.17 11.18
1/4/2023 8:45:00 PM 7.55 45.59 0.085 6.05 3.25 11.19
1/4/2023 9:00:00 PM 7.57 45.626 0.085 6.07 3.01 11.18
1/4/2023 9:15:00 PM 7.59 45.662 0.084 6.07 3.26 11.18
1/4/2023 9:30:00 PM 7.6 45.68 0.084 6.07 3.08 11.18
1/4/2023 9:45:00 PM 7.6 45.68 0.084 6.06 2.78 11.18
1/4/2023 10:00:00 PM 7.62 45.716 0.084 6.07 2.92 11.18
1/4/2023 10:15:00 PM 7.62 45.716 0.084 6.07 3.06 11.18
1/4/2023 10:30:00 PM 7.62 45.716 0.084 6.07 2.96 11.18
1/4/2023 10:45:00 PM 7.59 45.662 0.084 6.06 3.38 11.19
1/4/2023 11:00:00 PM 7.59 45.662 0.083 6.06 2.86 11.19
1/4/2023 11:15:00 PM 7.58 45.644 0.083 6.06 3.02 11.2
1/4/2023 11:30:00 PM 7.58 45.644 0.083 6.05 3.03 11.2
1/4/2023 11:45:00 PM 7.56 45.608 0.083 6.05 3.4 11.21
1/5/2023 12:00:00 AM 7.54 45.572 0.083 6.06 2.76 11.21
1/5/2023 12:15:00 AM 7.51 45.518 0.083 6.05 2.83 11.23
1/5/2023 12:30:00 AM 7.47 45.446 0.083 6.03 2.84 11.24
1/5/2023 12:45:00 AM 7.44 45.392 0.083 6.04 2.95 11.25
1/5/2023 1:00:00 AM 7.4 45.32 0.082 6.03 2.8 11.27
1/5/2023 1:15:00 AM 7.37 45.266 0.082 6.03 2.84 11.28
1/5/2023 1:30:00 AM 7.34 45.212 0.082 6.02 2.84 11.29
1/5/2023 1:45:00 AM 7.3 45.14 0.082 6.02 2.96 11.3
1/5/2023 2:00:00 AM 7.27 45.086 0.082 6 2.78 11.32
1/5/2023 2:15:00 AM 7.23 45.014 0.082 6.01 2.78 11.33
1/5/2023 2:30:00 AM 7.2 44.96 0.082 6.01 2.66 11.35
1/5/2023 2:45:00 AM 7.17 44.906 0.081 6 2.73 11.35
1/5/2023 3:00:00 AM 7.14 44.852 0.081 6.01 2.75 11.36
1/5/2023 3:15:00 AM 7.11 44.798 0.081 5.99 2.64 11.37
1/5/2023 3:30:00 AM 7.08 44.744 0.081 6 2.79 11.38
1/5/2023 3:45:00 AM 7.05 44.69 0.081 5.99 2.74 11.39
1/5/2023 4:00:00 AM 7.03 44.654 0.081 5.99 2.76 11.38
1/5/2023 4:15:00 AM 7.01 44.618 0.081 6 2.8 11.39
1/5/2023 4:30:00 AM 6.98 44.564 0.081 5.98 2.71 11.39
1/5/2023 4:45:00 AM 6.96 44.528 0.081 5.98 2.66 11.4
1/5/2023 5:00:00 AM 6.94 44.492 0.08 5.97 2.65 11.41
1/5/2023 5:15:00 AM 6.93 44.474 0.08 5.98 2.67 11.41
1/5/2023 5:30:00 AM 6.93 44.474 0.081 5.99 2.6 11.41
1/5/2023 5:45:00 AM 6.93 44.474 0.08 5.99 2.56 11.41
1/5/2023 6:00:00 AM 6.92 44.456 0.08 5.99 2.57 11.41
1/5/2023 6:15:00 AM 6.91 44.438 0.08 6 2.57 11.41
1/5/2023 6:30:00 AM 6.88 44.384 0.08 5.99 2.68 11.41
1/5/2023 6:45:00 AM 6.87 44.366 0.08 5.99 2.58 11.42
1/5/2023 7:00:00 AM 6.85 44.33 0.08 5.99 2.57 11.44
1/5/2023 7:15:00 AM 6.83 44.294 0.08 5.99 2.81 11.45
1/5/2023 7:30:00 AM 6.83 44.294 0.08 6.01 2.61 11.45
1/5/2023 7:45:00 AM 6.82 44.276 0.08 5.99 2.64 11.45
1/5/2023 8:00:00 AM 6.81 44.258 0.08 5.99 2.51 11.46
1/5/2023 8:15:00 AM 6.81 44.258 0.08 6 2.73 11.46
1/5/2023 8:30:00 AM 6.82 44.276 0.079 6 3.02 11.46
1/5/2023 8:45:00 AM 6.83 44.294 0.079 6.01 2.55 11.46
1/5/2023 9:00:00 AM 6.82 44.276 0.079 6 2.57 11.46
1/5/2023 9:15:00 AM 6.82 44.276 0.079 6.01 2.79 11.46
1/5/2023 9:30:00 AM 6.82 44.276 0.079 6.01 2.66 11.47
1/5/2023 9:45:00 AM 6.84 44.312 0.079 6.01 2.58 11.46
1/5/2023 10:00:00 AM 6.85 44.33 0.079 6.02 2.55 11.46
1/5/2023 10:15:00 AM 6.86 44.348 0.079 6.02 2.59 11.46
1/5/2023 10:30:00 AM 6.87 44.366 0.079 6.02 2.48 11.45
1/5/2023 10:45:00 AM 6.88 44.384 0.079 6.02 2.54 11.45
1/5/2023 11:00:00 AM 6.9 44.42 0.079 6.03 2.52 11.44
1/5/2023 11:15:00 AM 6.91 44.438 0.079 6.03 2.53 11.44
1/5/2023 11:30:00 AM 6.92 44.456 0.079 6.03 2.6 11.44
1/5/2023 11:45:00 AM 6.94 44.492 0.078 6.02 2.72 11.43
1/5/2023 12:00:00 PM 6.95 44.51 0.079 6.02 2.54 11.43
1/5/2023 12:15:00 PM 6.96 44.528 0.078 6.03 2.5 11.42
1/5/2023 12:30:00 PM 7 44.6 0.078 6.04 2.5 11.41
1/5/2023 12:45:00 PM 7.01 44.618 0.079 6.03 2.52 11.41
1/5/2023 1:00:00 PM 7 44.6 0.078 6.03 2.67 11.4
1/5/2023 1:15:00 PM 7 44.6 0.078 6.04 2.5 11.4
1/5/2023 1:30:00 PM 7 44.6 0.078 6.03 2.49 11.4
1/5/2023 1:45:00 PM 7 44.6 0.078 6.03 2.37 11.4
1/5/2023 2:00:00 PM 6.99 44.582 0.078 6.03 2.58 11.4
1/5/2023 2:15:00 PM 6.99 44.582 0.078 6.04 2.64 11.4
1/5/2023 2:30:00 PM 7 44.6 0.078 6.03 2.48 11.4
1/5/2023 2:45:00 PM 6.99 44.582 0.078 6.03 2.38 11.4
1/5/2023 3:00:00 PM 6.99 44.582 0.078 6.03 2.42 11.4
1/5/2023 3:15:00 PM 6.99 44.582 0.078 6.04 2.49 11.4
1/5/2023 3:30:00 PM 6.99 44.582 0.078 6.04 2.52 11.4
1/5/2023 3:45:00 PM 6.99 44.582 0.078 6.03 2.5 11.4
1/5/2023 4:00:00 PM 6.97 44.546 0.078 6.04 2.53 11.4
1/5/2023 4:15:00 PM 6.96 44.528 0.078 6.03 2.45 11.4
1/5/2023 4:30:00 PM 6.94 44.492 0.078 6.03 2.4 11.41
1/5/2023 4:45:00 PM 6.91 44.438 0.078 6.03 2.37 11.41
1/5/2023 5:00:00 PM 6.87 44.366 0.078 6.03 2.38 11.42
1/5/2023 5:15:00 PM 6.83 44.294 0.078 6.02 2.48 11.44
1/5/2023 5:30:00 PM 6.8 44.24 0.078 6.01 2.49 11.45
1/5/2023 5:45:00 PM 6.78 44.204 0.078 6.02 2.41 11.45
1/5/2023 6:00:00 PM 6.75 44.15 0.078 6.01 2.44 11.46
1/5/2023 6:15:00 PM 6.72 44.096 0.078 6.01 2.38 11.47
1/5/2023 6:30:00 PM 6.68 44.024 0.078 6.01 2.39 11.49
1/5/2023 6:45:00 PM 6.63 43.934 0.078 6.01 2.45 11.5
1/5/2023 7:00:00 PM 6.6 43.88 0.078 6.01 2.36 11.52
1/5/2023 7:15:00 PM 6.57 43.826 0.078 6 2.46 11.52
1/5/2023 7:30:00 PM 6.55 43.79 0.078 6 2.32 11.53
1/5/2023 7:45:00 PM 6.53 43.754 0.078 5.98 2.34 11.54
1/5/2023 8:00:00 PM 6.51 43.718 0.077 5.99 2.38 11.54
1/5/2023 8:15:00 PM 6.49 43.682 0.078 6 2.37 11.55
1/5/2023 8:30:00 PM 6.46 43.628 0.078 5.99 2.29 11.56
1/5/2023 8:45:00 PM 6.44 43.592 0.077 5.99 2.37 11.56
1/5/2023 9:00:00 PM 6.42 43.556 0.078 6 2.25 11.57
1/5/2023 9:15:00 PM 6.41 43.538 0.078 6.01 2.23 11.56
1/5/2023 9:30:00 PM 6.4 43.52 0.078 6.01 2.32 11.57
1/5/2023 9:45:00 PM 6.39 43.502 0.078 6.01 2.21 11.57
1/5/2023 10:00:00 PM 6.39 43.502 0.078 6.01 2.19 11.57
1/5/2023 10:15:00 PM 6.38 43.484 0.078 6.01 2.3 11.57
1/5/2023 10:30:00 PM 6.38 43.484 0.078 6.02 2.33 11.57
1/5/2023 10:45:00 PM 6.39 43.502 0.078 6.01 2.33 11.57
1/5/2023 11:00:00 PM 6.38 43.484 0.077 6.02 2.26 11.57
1/5/2023 11:15:00 PM 6.38 43.484 0.077 6.02 2.27 11.57
1/5/2023 11:30:00 PM 6.36 43.448 0.077 6.02 2.24 11.58
1/5/2023 11:45:00 PM 6.35 43.43 0.077 6.02 2.2 11.58
1/6/2023 12:00:00 AM 6.34 43.412 0.078 6.03 2.17 11.58
1/6/2023 12:15:00 AM 6.33 43.394 0.077 6.03 2.37 11.58
1/6/2023 12:30:00 AM 6.32 43.376 0.077 6.03 2.41 11.58
1/6/2023 12:45:00 AM 6.31 43.358 0.077 6.03 2.24 11.58
1/6/2023 1:00:00 AM 6.3 43.34 0.077 6.03 2.27 11.58
1/6/2023 1:15:00 AM 6.29 43.322 0.077 6.03 2.23 11.59
1/6/2023 1:30:00 AM 6.28 43.304 0.077 6.04 2.21 11.59
1/6/2023 1:45:00 AM 6.28 43.304 0.077 6.03 2.19 11.59
1/6/2023 2:00:00 AM 6.28 43.304 0.077 6.03 2.24 11.59
1/6/2023 2:15:00 AM 6.27 43.286 0.077 6.04 2.21 11.59
1/6/2023 2:30:00 AM 6.28 43.304 0.077 6.04 2.24 11.6
1/6/2023 2:45:00 AM 6.27 43.286 0.077 6.04 2.21 11.6
1/6/2023 3:00:00 AM 6.27 43.286 0.077 6.03 2.18 11.6
1/6/2023 3:15:00 AM 6.27 43.286 0.077 6.03 2.22 11.6
1/6/2023 3:30:00 AM 6.27 43.286 0.077 6.04 2.18 11.6
1/6/2023 3:45:00 AM 6.26 43.268 0.077 6.05 2.19 11.6
1/6/2023 4:00:00 AM 6.26 43.268 0.077 6.05 2.19 11.6
1/6/2023 4:15:00 AM 6.26 43.268 0.077 6.04 2.27 11.6
1/6/2023 4:30:00 AM 6.25 43.25 0.077 6.05 2.27 11.6
1/6/2023 4:45:00 AM 6.24 43.232 0.077 6.05 2.35 11.6
1/6/2023 5:00:00 AM 6.22 43.196 0.077 6.07 2.14 11.62
1/6/2023 5:15:00 AM 6.2 43.16 0.077 6.05 2.25 11.62
1/6/2023 5:30:00 AM 6.19 43.142 0.077 6.05 2.18 11.63
1/6/2023 5:45:00 AM 6.17 43.106 0.077 6.06 2.17 11.64
1/6/2023 6:00:00 AM 6.15 43.07 0.077 6.07 2.27 11.65
1/6/2023 6:15:00 AM 6.11 42.998 0.077 6.05 2.21 11.65
1/6/2023 6:30:00 AM 6.08 42.944 0.077 6.06 2.17 11.67
1/6/2023 6:45:00 AM 6.05 42.89 0.077 6.06 2.22 11.68
1/6/2023 7:00:00 AM 6.04 42.872 0.077 6.05 2.15 11.69
1/6/2023 7:15:00 AM 6.03 42.854 0.077 6.06 2.19 11.7
1/6/2023 7:30:00 AM 6.02 42.836 0.077 6.06 2.27 11.7
1/6/2023 7:45:00 AM 6.01 42.818 0.077 6.06 2.16 11.7
1/6/2023 8:00:00 AM 6 42.8 0.077 6.06 2.11 11.71
1/6/2023 8:15:00 AM 6 42.8 0.077 6.07 2.16 11.72
1/6/2023 8:30:00 AM 5.99 42.782 0.077 6.08 2.08 11.72
1/6/2023 8:45:00 AM 5.99 42.782 0.077 6.08 2.09 11.72
1/6/2023 9:00:00 AM 5.98 42.764 0.077 6.09 2.13 11.72
1/6/2023 9:15:00 AM 5.98 42.764 0.078 6.08 2.18 11.73
1/6/2023 9:30:00 AM 5.98 42.764 0.078 6.08 2.07 11.73
1/6/2023 9:45:00 AM 5.99 42.782 0.078 6.07 2.12 11.73
1/6/2023 10:00:00 AM 5.99 42.782 0.078 6.08 2.08 11.73
1/6/2023 10:15:00 AM 5.98 42.764 0.078 6.09 2.2 11.73
1/6/2023 10:30:00 AM 5.9 42.62 0.078 6.09 2.12 11.76
1/6/2023 10:45:00 AM 5.87 42.566 0.078 6.07 2.07 11.77
1/6/2023 11:00:00 AM 5.88 42.584 0.078 6.08 2.16 11.77
1/6/2023 11:15:00 AM 5.88 42.584 0.078 6.08 2.14 11.77
1/6/2023 11:30:00 AM 5.89 42.602 0.078 6.08 2.09 11.77
1/6/2023 11:45:00 AM 5.91 42.638 0.078 6.09 2.11 11.76
1/6/2023 12:00:00 PM 5.93 42.674 0.078 6.09 2.03 11.76
1/6/2023 12:15:00 PM 5.93 42.674 0.078 6.1 2.15 11.76
1/6/2023 12:30:00 PM 5.94 42.692 0.078 6.1 2.17 11.76
1/6/2023 12:45:00 PM 5.95 42.71 0.078 6.11 2.1 11.75
1/6/2023 1:00:00 PM 5.97 42.746 0.078 6.1 2.13 11.74
1/6/2023 1:15:00 PM 6 42.8 0.078 6.1 2.09 11.74
1/6/2023 1:30:00 PM 5.99 42.782 0.078 6.11 2.1 11.73
1/6/2023 1:45:00 PM 5.97 42.746 0.078 6.11 2.17 11.74
1/6/2023 2:00:00 PM 5.94 42.692 0.078 6.1 2.09 11.75
1/6/2023 2:15:00 PM 5.93 42.674 0.078 6.1 2.18 11.76
1/6/2023 2:30:00 PM 5.92 42.656 0.078 6.1 2.06 11.76
1/6/2023 2:45:00 PM 5.91 42.638 0.078 6.1 2.08 11.76
1/6/2023 3:00:00 PM 5.91 42.638 0.078 6.1 2.03 11.77
1/6/2023 3:15:00 PM 5.9 42.62 0.078 6.1 2.09 11.77
1/6/2023 3:30:00 PM 5.89 42.602 0.078 6.09 2.15 11.77
1/6/2023 3:45:00 PM 5.88 42.584 0.079 6.1 2.14 11.78
1/6/2023 4:00:00 PM 5.87 42.566 0.079 6.09 2.16 11.78
1/6/2023 4:15:00 PM 5.85 42.53 0.079 6.11 2.14 11.78
1/6/2023 4:30:00 PM 5.84 42.512 0.079 6.1 2.08 11.79
1/6/2023 4:45:00 PM 5.82 42.476 0.079 6.1 2.11 11.8
1/6/2023 5:00:00 PM 5.81 42.458 0.079 6.09 2.11 11.8
1/6/2023 5:15:00 PM 5.8 42.44 0.079 6.09 2.16 11.81
1/6/2023 5:30:00 PM 5.79 42.422 0.079 6.09 2.12 11.81
1/6/2023 5:45:00 PM 5.78 42.404 0.079 6.09 2.15 11.82
1/6/2023 6:00:00 PM 5.77 42.386 0.079 6.1 2.1 11.82
1/6/2023 6:15:00 PM 5.74 42.332 0.079 6.1 2.15 11.82
1/6/2023 6:30:00 PM 5.72 42.296 0.079 6.09 2.22 11.83
1/6/2023 6:45:00 PM 5.71 42.278 0.079 6.08 2.19 11.84
1/6/2023 7:00:00 PM 5.71 42.278 0.079 6.09 2.12 11.83
1/6/2023 7:15:00 PM 5.71 42.278 0.079 6.09 2.07 11.84
1/6/2023 7:30:00 PM 5.7 42.26 0.079 6.1 2.07 11.84
1/6/2023 7:45:00 PM 5.7 42.26 0.079 6.09 2.01 11.85
1/6/2023 8:00:00 PM 5.7 42.26 0.079 6.1 2.06 11.84
1/6/2023 8:15:00 PM 5.7 42.26 0.079 6.1 2.15 11.84
1/6/2023 8:30:00 PM 5.69 42.242 0.079 6.1 2.02 11.84
1/6/2023 8:45:00 PM 5.68 42.224 0.079 6.1 1.98 11.85
1/6/2023 9:00:00 PM 5.68 42.224 0.079 6.1 1.99 11.85
1/6/2023 9:15:00 PM 5.68 42.224 0.079 6.1 2.01 11.85
1/6/2023 9:30:00 PM 5.67 42.206 0.079 6.1 1.96 11.85
1/6/2023 9:45:00 PM 5.67 42.206 0.079 6.11 2.07 11.85
1/6/2023 10:00:00 PM 5.65 42.17 0.079 6.11 1.96 11.85
1/6/2023 10:15:00 PM 5.65 42.17 0.079 6.1 1.96 11.86
1/6/2023 10:30:00 PM 5.65 42.17 0.079 6.1 1.96 11.86
1/6/2023 10:45:00 PM 5.63 42.134 0.079 6.1 2.01 11.86
1/6/2023 11:00:00 PM 5.54 41.972 0.079 6.1 1.96 11.88
1/6/2023 11:15:00 PM 5.45 41.81 0.079 6.09 1.96 11.92
1/6/2023 11:30:00 PM 5.44 41.792 0.079 6.09 1.97 11.93
1/6/2023 11:45:00 PM 5.46 41.828 0.079 6.09 2.02 11.92
1/7/2023 12:00:00 AM 5.49 41.882 0.079 6.09 1.98 11.91
1/7/2023 12:15:00 AM 5.5 41.9 0.079 6.1 1.9 11.9
1/7/2023 12:30:00 AM 5.5 41.9 0.079 6.1 1.97 11.9
1/7/2023 12:45:00 AM 5.51 41.918 0.079 6.11 1.99 11.9
1/7/2023 1:00:00 AM 5.51 41.918 0.079 6.1 2.1 11.9
1/7/2023 1:15:00 AM 5.5 41.9 0.079 6.1 2.07 11.9
1/7/2023 1:30:00 AM 5.5 41.9 0.079 6.11 1.97 11.9
1/7/2023 1:45:00 AM 5.51 41.918 0.079 6.1 1.95 11.9
1/7/2023 2:00:00 AM 5.51 41.918 0.079 6.11 1.95 11.9
1/7/2023 2:15:00 AM 5.51 41.918 0.079 6.11 1.94 11.9
1/7/2023 2:30:00 AM 5.51 41.918 0.079 6.11 2.02 11.9
1/7/2023 2:45:00 AM 5.51 41.918 0.08 6.11 1.99 11.9
1/7/2023 3:00:00 AM 5.5 41.9 0.08 6.12 1.94 11.9
1/7/2023 3:15:00 AM 5.5 41.9 0.08 6.11 1.88 11.9
1/7/2023 3:30:00 AM 5.5 41.9 0.08 6.11 1.91 11.9
1/7/2023 3:45:00 AM 5.5 41.9 0.08 6.11 2 11.9
1/7/2023 4:00:00 AM 5.5 41.9 0.08 6.11 1.95 11.9
1/7/2023 4:15:00 AM 5.5 41.9 0.08 6.11 1.91 11.9
1/7/2023 4:30:00 AM 5.5 41.9 0.08 6.12 1.9 11.9
1/7/2023 4:45:00 AM 5.49 41.882 0.08 6.12 1.95 11.91
1/7/2023 5:00:00 AM 5.49 41.882 0.08 6.12 1.95 11.9
1/7/2023 5:15:00 AM 5.49 41.882 0.08 6.12 1.94 11.9
1/7/2023 5:30:00 AM 5.49 41.882 0.08 6.12 2.05 11.91
1/7/2023 5:45:00 AM 5.49 41.882 0.08 6.12 1.93 11.91
1/7/2023 6:00:00 AM 5.49 41.882 0.08 6.12 1.99 11.91
1/7/2023 6:15:00 AM 5.49 41.882 0.08 6.11 2.02 11.91
1/7/2023 6:30:00 AM 5.49 41.882 0.08 6.11 1.97 11.91
1/7/2023 6:45:00 AM 5.49 41.882 0.08 6.12 1.93 11.91
1/7/2023 7:00:00 AM 5.48 41.864 0.08 6.12 1.92 11.91
1/7/2023 7:15:00 AM 5.48 41.864 0.08 6.12 1.96 11.92
1/7/2023 7:30:00 AM 5.44 41.792 0.08 6.11 1.97 11.93
1/7/2023 7:45:00 AM 5.43 41.774 0.08 6.12 1.94 11.93
1/7/2023 8:00:00 AM 5.43 41.774 0.08 6.12 1.89 11.93
1/7/2023 8:15:00 AM 5.43 41.774 0.08 6.12 1.92 11.94
1/7/2023 8:30:00 AM 5.44 41.792 0.08 6.11 1.92 11.94
1/7/2023 8:45:00 AM 5.45 41.81 0.08 6.11 1.84 11.94
1/7/2023 9:00:00 AM 5.46 41.828 0.08 6.12 1.92 11.93
1/7/2023 9:15:00 AM 5.47 41.846 0.08 6.14 1.86 11.93
1/7/2023 9:30:00 AM 5.47 41.846 0.08 6.13 1.88 11.94
1/7/2023 9:45:00 AM 5.48 41.864 0.08 6.14 2 11.93
1/7/2023 10:00:00 AM 5.49 41.882 0.081 6.13 1.87 11.93
1/7/2023 10:15:00 AM 5.49 41.882 0.081 6.14 1.88 11.93
1/7/2023 10:30:00 AM 5.5 41.9 0.081 6.13 1.91 11.93
1/7/2023 10:45:00 AM 5.51 41.918 0.081 6.13 1.89 11.93
1/7/2023 11:00:00 AM 5.53 41.954 0.081 6.14 1.85 11.92
1/7/2023 11:15:00 AM 5.55 41.99 0.081 6.13 1.95 11.92
1/7/2023 11:30:00 AM 5.56 42.008 0.081 6.14 1.9 11.91
1/7/2023 11:45:00 AM 5.55 41.99 0.081 6.14 1.93 11.91
1/7/2023 12:00:00 PM 5.55 41.99 0.081 6.14 2.18 11.91
1/7/2023 12:15:00 PM 5.51 41.918 0.081 6.14 1.94 11.92
1/7/2023 12:30:00 PM 5.51 41.918 0.081 6.14 1.93 11.92
1/7/2023 12:45:00 PM 5.51 41.918 0.081 6.14 1.9 11.92
1/7/2023 1:00:00 PM 5.54 41.972 0.081 6.14 1.91 11.91
1/7/2023 1:15:00 PM 5.53 41.954 0.081 6.15 1.91 11.91
1/7/2023 1:30:00 PM 5.5 41.9 0.081 6.15 1.98 11.92
1/7/2023 1:45:00 PM 5.48 41.864 0.081 6.13 1.93 11.93
1/7/2023 2:00:00 PM 5.48 41.864 0.081 6.15 1.9 11.93
1/7/2023 2:15:00 PM 5.41 41.738 0.081 6.14 1.9 11.94
1/7/2023 2:30:00 PM 5.4 41.72 0.081 6.14 1.91 11.96
1/7/2023 2:45:00 PM 5.42 41.756 0.081 6.14 1.99 11.96
1/7/2023 3:00:00 PM 5.43 41.774 0.081 6.14 1.96 11.95
1/7/2023 3:15:00 PM 5.44 41.792 0.081 6.14 1.95 11.95
1/7/2023 3:30:00 PM 5.45 41.81 0.082 6.14 2.01 11.95
1/7/2023 3:45:00 PM 5.45 41.81 0.082 6.14 1.92 11.95
1/7/2023 4:00:00 PM 5.44 41.792 0.082 6.15 1.95 11.95
1/7/2023 4:15:00 PM 5.44 41.792 0.082 6.15 1.88 11.96
1/7/2023 4:30:00 PM 5.43 41.774 0.082 6.15 1.86 11.95
1/7/2023 4:45:00 PM 5.43 41.774 0.082 6.15 2.04 11.96
1/7/2023 5:00:00 PM 5.42 41.756 0.082 6.14 1.85 11.96
1/7/2023 5:15:00 PM 5.41 41.738 0.082 6.16 1.94 11.97
1/7/2023 5:30:00 PM 5.4 41.72 0.082 6.15 1.97 11.97
1/7/2023 5:45:00 PM 5.39 41.702 0.082 6.15 1.91 11.98
1/7/2023 6:00:00 PM 5.39 41.702 0.082 6.15 1.92 11.98
1/7/2023 6:15:00 PM 5.38 41.684 0.082 6.15 1.91 11.99
1/7/2023 6:30:00 PM 5.37 41.666 0.082 6.15 1.92 11.99
1/7/2023 6:45:00 PM 5.37 41.666 0.082 6.15 1.93 11.99
1/7/2023 7:00:00 PM 5.36 41.648 0.082 6.15 1.96 11.99
1/7/2023 7:15:00 PM 5.35 41.63 0.083 6.14 1.97 12
1/7/2023 7:30:00 PM 5.35 41.63 0.083 6.15 1.93 12
1/7/2023 7:45:00 PM 5.34 41.612 0.083 6.15 1.98 12
1/7/2023 8:00:00 PM 5.33 41.594 0.083 6.14 1.93 12.01
1/7/2023 8:15:00 PM 5.32 41.576 0.083 6.16 1.91 12.01
1/7/2023 8:30:00 PM 5.31 41.558 0.083 6.15 1.88 12.02
1/7/2023 8:45:00 PM 5.31 41.558 0.083 6.15 1.88 12.02
1/7/2023 9:00:00 PM 5.29 41.522 0.083 6.16 1.84 12.03
1/7/2023 9:15:00 PM 5.28 41.504 0.083 6.16 1.88 12.03
1/7/2023 9:30:00 PM 5.27 41.486 0.083 6.15 1.89 12.03
1/7/2023 9:45:00 PM 5.27 41.486 0.083 6.15 1.91 12.04
1/7/2023 10:00:00 PM 5.27 41.486 0.083 6.16 1.91 12.03
1/7/2023 10:15:00 PM 5.27 41.486 0.083 6.14 1.84 12.04
1/7/2023 10:30:00 PM 5.26 41.468 0.083 6.15 1.92 12.04
1/7/2023 10:45:00 PM 5.25 41.45 0.083 6.15 1.88 12.04
1/7/2023 11:00:00 PM 5.25 41.45 0.083 6.16 1.87 12.04
1/7/2023 11:15:00 PM 5.25 41.45 0.083 6.15 1.82 12.05
1/7/2023 11:30:00 PM 5.24 41.432 0.083 6.17 1.88 12.04
1/7/2023 11:45:00 PM 5.23 41.414 0.083 6.16 1.86 12.05
1/8/2023 12:00:00 AM 5.22 41.396 0.083 6.16 1.93 12.05
1/8/2023 12:15:00 AM 5.21 41.378 0.083 6.16 1.91 12.05
1/8/2023 12:30:00 AM 5.2 41.36 0.083 6.17 1.84 12.06
1/8/2023 12:45:00 AM 5.19 41.342 0.083 6.17 1.9 12.06
1/8/2023 1:00:00 AM 5.19 41.342 0.083 6.16 1.91 12.06
1/8/2023 1:15:00 AM 5.17 41.306 0.083 6.16 1.89 12.07
1/8/2023 1:30:00 AM 5.16 41.288 0.083 6.16 1.91 12.07
1/8/2023 1:45:00 AM 5.14 41.252 0.083 6.16 1.84 12.07
1/8/2023 2:00:00 AM 5.13 41.234 0.083 6.17 1.94 12.07
1/8/2023 2:15:00 AM 5.13 41.234 0.084 6.16 1.85 12.08
1/8/2023 2:30:00 AM 5.12 41.216 0.084 6.16 1.82 12.08
1/8/2023 2:45:00 AM 5.11 41.198 0.084 6.17 1.85 12.08
1/8/2023 3:00:00 AM 5.11 41.198 0.084 6.16 1.83 12.08
1/8/2023 3:15:00 AM 5.1 41.18 0.084 6.16 1.88 12.08
1/8/2023 3:30:00 AM 5.09 41.162 0.084 6.18 1.8 12.09
1/8/2023 3:45:00 AM 5.08 41.144 0.084 6.16 1.81 12.08
1/8/2023 4:00:00 AM 5.07 41.126 0.084 6.16 1.83 12.09
1/8/2023 4:15:00 AM 5.06 41.108 0.084 6.17 1.82 12.09
1/8/2023 4:30:00 AM 5.06 41.108 0.084 6.17 1.77 12.09
1/8/2023 4:45:00 AM 5.05 41.09 0.084 6.17 1.81 12.09
1/8/2023 5:00:00 AM 5.04 41.072 0.084 6.17 1.76 12.09
1/8/2023 5:15:00 AM 5.04 41.072 0.084 6.16 1.83 12.09
1/8/2023 5:30:00 AM 5.03 41.054 0.084 6.17 1.89 12.09
1/8/2023 5:45:00 AM 5.02 41.036 0.084 6.18 1.84 12.09
1/8/2023 6:00:00 AM 5.01 41.018 0.084 6.17 1.81 12.1
1/8/2023 6:15:00 AM 4.99 40.982 0.084 6.18 1.81 12.11
1/8/2023 6:30:00 AM 4.98 40.964 0.084 6.18 1.79 12.11
1/8/2023 6:45:00 AM 4.97 40.946 0.084 6.18 1.79 12.12
1/8/2023 7:00:00 AM 4.96 40.928 0.084 6.18 1.83 12.11
1/8/2023 7:15:00 AM 4.95 40.91 0.084 6.17 1.83 12.12
1/8/2023 7:30:00 AM 4.93 40.874 0.084 6.18 1.82 12.12
1/8/2023 7:45:00 AM 4.92 40.856 0.084 6.17 1.82 12.13
1/8/2023 8:00:00 AM 4.91 40.838 0.084 6.18 1.79 12.14
1/8/2023 8:15:00 AM 4.9 40.82 0.084 6.17 1.76 12.14
1/8/2023 8:30:00 AM 4.9 40.82 0.084 6.18 1.82 12.14
1/8/2023 8:45:00 AM 4.89 40.802 0.084 6.18 1.75 12.14
1/8/2023 9:00:00 AM 4.89 40.802 0.084 6.18 1.83 12.15
1/8/2023 9:15:00 AM 4.88 40.784 0.085 6.17 1.83 12.15
1/8/2023 9:30:00 AM 4.88 40.784 0.085 6.18 1.75 12.15
1/8/2023 9:45:00 AM 4.89 40.802 0.085 6.19 1.78 12.15
1/8/2023 10:00:00 AM 4.9 40.82 0.085 6.18 1.83 12.14
1/8/2023 10:15:00 AM 4.91 40.838 0.085 6.18 1.8 12.14
1/8/2023 10:30:00 AM 4.93 40.874 0.085 6.19 1.78 12.12
1/8/2023 10:45:00 AM 4.96 40.928 0.085 6.19 1.77 12.12
1/8/2023 11:00:00 AM 4.98 40.964 0.085 6.19 1.76 12.11
1/8/2023 11:15:00 AM 5 41 0.085 6.19 1.76 12.09
1/8/2023 11:30:00 AM 5.02 41.036 0.085 6.19 1.78 12.08
1/8/2023 11:45:00 AM 5.03 41.054 0.085 6.2 1.76 12.08
1/8/2023 12:00:00 PM 5.06 41.108 0.085 6.19 1.74 12.07
1/8/2023 12:15:00 PM 5.06 41.108 0.085 6.19 1.8 12.06
1/8/2023 12:30:00 PM 5.06 41.108 0.085 6.19 1.71 12.06
1/8/2023 12:45:00 PM 5.07 41.126 0.085 6.2 1.72 12.06
1/8/2023 1:00:00 PM 5.09 41.162 0.085 6.2 1.75 12.05
1/8/2023 1:15:00 PM 5.13 41.234 0.084 6.19 1.8 12.04
1/8/2023 1:30:00 PM 5.17 41.306 0.085 6.2 1.74 12.03
1/8/2023 1:45:00 PM 5.18 41.324 0.085 6.2 1.82 12.02
1/8/2023 2:00:00 PM 5.2 41.36 0.085 6.2 1.79 12
1/8/2023 2:15:00 PM 5.21 41.378 0.085 6.21 1.78 12
1/8/2023 2:30:00 PM 5.22 41.396 0.085 6.19 1.81 11.99
1/8/2023 2:45:00 PM 5.21 41.378 0.085 6.19 1.77 11.99
1/8/2023 3:00:00 PM 5.2 41.36 0.085 6.21 1.74 11.99
1/8/2023 3:15:00 PM 5.18 41.324 0.085 6.21 1.82 12
1/8/2023 3:30:00 PM 5.16 41.288 0.085 6.2 1.74 12
1/8/2023 3:45:00 PM 5.15 41.27 0.085 6.2 1.76 12
1/8/2023 4:00:00 PM 5.13 41.234 0.085 6.19 1.71 12
1/8/2023 4:15:00 PM 5.11 41.198 0.085 6.2 1.75 12.01
1/8/2023 4:30:00 PM 5.08 41.144 0.085 6.19 1.72 12.01
1/8/2023 4:45:00 PM 5.05 41.09 0.085 6.2 1.78 12.02
1/8/2023 5:00:00 PM 5.02 41.036 0.085 6.19 1.76 12.02
1/8/2023 5:15:00 PM 5 41 0.085 6.19 1.76 12.02
1/8/2023 5:30:00 PM 4.98 40.964 0.085 6.2 1.74 12.02
1/8/2023 5:45:00 PM 4.96 40.928 0.085 6.18 1.72 12.03
1/8/2023 6:00:00 PM 4.93 40.874 0.085 6.18 1.82 12.04
1/8/2023 6:15:00 PM 4.91 40.838 0.085 6.18 1.76 12.05
1/8/2023 6:30:00 PM 4.9 40.82 0.085 6.18 1.81 12.05
1/8/2023 6:45:00 PM 4.9 40.82 0.085 6.19 1.75 12.06
1/8/2023 7:00:00 PM 4.9 40.82 0.085 6.19 1.71 12.05
1/8/2023 7:15:00 PM 4.91 40.838 0.085 6.19 1.75 12.05
1/8/2023 7:30:00 PM 4.91 40.838 0.085 6.19 1.75 12.04
1/8/2023 7:45:00 PM 4.91 40.838 0.085 6.19 1.73 12.04
1/8/2023 8:00:00 PM 4.91 40.838 0.085 6.2 1.76 12.04
1/8/2023 8:15:00 PM 4.9 40.82 0.085 6.19 1.71 12.04
1/8/2023 8:30:00 PM 4.88 40.784 0.085 6.2 1.76 12.05
1/8/2023 8:45:00 PM 4.85 40.73 0.085 6.18 1.73 12.06
1/8/2023 9:00:00 PM 4.82 40.676 0.085 6.19 1.72 12.06
1/8/2023 9:15:00 PM 4.79 40.622 0.085 6.18 1.75 12.08
1/8/2023 9:30:00 PM 4.75 40.55 0.085 6.18 1.69 12.09
1/8/2023 9:45:00 PM 4.74 40.532 0.085 6.18 1.71 12.1
1/8/2023 10:00:00 PM 4.72 40.496 0.085 6.17 1.7 12.1
1/8/2023 10:15:00 PM 4.72 40.496 0.085 6.18 1.69 12.1
1/8/2023 10:30:00 PM 4.72 40.496 0.085 6.18 1.73 12.09
1/8/2023 10:45:00 PM 4.73 40.514 0.085 6.19 1.72 12.09
1/8/2023 11:00:00 PM 4.73 40.514 0.085 6.19 1.7 12.09
1/8/2023 11:15:00 PM 4.74 40.532 0.085 6.19 1.71 12.08
1/8/2023 11:30:00 PM 4.74 40.532 0.085 6.2 1.71 12.08
1/8/2023 11:45:00 PM 4.75 40.55 0.085 6.19 1.81 12.08
1/9/2023 12:00:00 AM 4.75 40.55 0.085 6.19 1.69 12.08
1/9/2023 12:15:00 AM 4.75 40.55 0.085 6.2 1.75 12.07
1/9/2023 12:30:00 AM 4.76 40.568 0.085 6.19 1.74 12.08
1/9/2023 12:45:00 AM 4.76 40.568 0.085 6.2 1.76 12.07
1/9/2023 1:00:00 AM 4.76 40.568 0.085 6.2 1.69 12.07
1/9/2023 1:15:00 AM 4.76 40.568 0.085 6.2 1.72 12.06
1/9/2023 1:30:00 AM 4.76 40.568 0.085 6.2 1.7 12.07
1/9/2023 1:45:00 AM 4.75 40.55 0.085 6.2 1.81 12.07
1/9/2023 2:00:00 AM 4.75 40.55 0.085 6.19 1.84 12.07
1/9/2023 2:15:00 AM 4.74 40.532 0.085 6.19 1.74 12.08
1/9/2023 2:30:00 AM 4.72 40.496 0.085 6.2 1.74 12.08
1/9/2023 2:45:00 AM 4.7 40.46 0.085 6.2 1.75 12.09
1/9/2023 3:00:00 AM 4.67 40.406 0.085 6.19 1.67 12.09
1/9/2023 3:15:00 AM 4.64 40.352 0.085 6.19 1.67 12.1
1/9/2023 3:30:00 AM 4.63 40.334 0.085 6.2 1.71 12.11
1/9/2023 3:45:00 AM 4.61 40.298 0.085 6.2 1.68 12.12
1/9/2023 4:00:00 AM 4.6 40.28 0.085 6.2 1.79 12.12
1/9/2023 4:15:00 AM 4.59 40.262 0.085 6.2 1.74 12.13
1/9/2023 4:30:00 AM 4.58 40.244 0.085 6.2 1.72 12.12
1/9/2023 4:45:00 AM 4.57 40.226 0.085 6.2 1.65 12.13
1/9/2023 5:00:00 AM 4.55 40.19 0.085 6.2 1.7 12.13
1/9/2023 5:15:00 AM 4.53 40.154 0.085 6.2 1.73 12.14
1/9/2023 5:30:00 AM 4.52 40.136 0.085 6.2 1.67 12.15
1/9/2023 5:45:00 AM 4.52 40.136 0.085 6.2 1.69 12.15
1/9/2023 6:00:00 AM 4.5 40.1 0.085 6.2 1.69 12.15
1/9/2023 6:15:00 AM 4.5 40.1 0.085 6.2 1.67 12.16
1/9/2023 6:30:00 AM 4.48 40.064 0.085 6.2 1.61 12.16
1/9/2023 6:45:00 AM 4.48 40.064 0.085 6.2 1.8 12.17
1/9/2023 7:00:00 AM 4.46 40.028 0.085 6.2 1.66 12.17
1/9/2023 7:15:00 AM 4.44 39.992 0.085 6.2 1.65 12.18
1/9/2023 7:30:00 AM 4.44 39.992 0.085 6.2 1.66 12.18
1/9/2023 7:45:00 AM 4.42 39.956 0.085 6.21 1.66 12.18
1/9/2023 8:00:00 AM 4.42 39.956 0.085 6.21 1.71 12.18
1/9/2023 8:15:00 AM 4.41 39.938 0.085 6.2 1.69 12.19
1/9/2023 8:30:00 AM 4.41 39.938 0.085 6.2 1.66 12.19
1/9/2023 8:45:00 AM 4.41 39.938 0.085 6.19 1.67 12.2
1/9/2023 9:00:00 AM 4.39 39.902 0.085 6.2 1.66 12.2
1/9/2023 9:15:00 AM 4.38 39.884 0.085 6.21 1.72 12.21
1/9/2023 9:30:00 AM 4.39 39.902 0.085 6.21 1.69 12.21
1/9/2023 9:45:00 AM 4.39 39.902 0.085 6.21 1.66 12.21
1/9/2023 10:00:00 AM 4.4 39.92 0.085 6.21 1.69 12.21
1/9/2023 10:15:00 AM 4.41 39.938 0.085 6.2 1.66 12.21
1/9/2023 10:30:00 AM 4.44 39.992 0.085 6.21 1.7 12.2
1/9/2023 10:45:00 AM 4.47 40.046 0.085 6.21 1.65 12.2
1/9/2023 11:00:00 AM 4.5 40.1 0.085 6.21 1.69 12.19
1/9/2023 11:15:00 AM 4.51 40.118 0.085 6.21 1.68 12.18
1/9/2023 11:30:00 AM 4.53 40.154 0.085 6.21 1.7 12.18
1/9/2023 11:45:00 AM 4.56 40.208 0.085 6.22 1.65 12.17
1/9/2023 12:00:00 PM 4.6 40.28 0.085 6.22 1.64 12.15
1/9/2023 12:15:00 PM 4.65 40.37 0.085 6.22 1.64 12.13
1/9/2023 12:30:00 PM 4.67 40.406 0.085 6.22 1.65 12.12
1/9/2023 12:45:00 PM 4.71 40.478 0.085 6.22 1.7 12.11
1/9/2023 1:00:00 PM 4.73 40.514 0.085 6.22 1.66 12.1
1/9/2023 1:15:00 PM 4.75 40.55 0.085 6.22 1.73 12.08
1/9/2023 1:30:00 PM 4.76 40.568 0.085 6.23 1.69 12.09
1/9/2023 1:45:00 PM 4.76 40.568 0.085 6.23 1.65 12.08
1/9/2023 2:00:00 PM 4.75 40.55 0.085 6.22 1.7 12.08
1/9/2023 2:15:00 PM 4.74 40.532 0.085 6.22 1.7 12.09
1/9/2023 2:30:00 PM 4.73 40.514 0.085 6.21 1.73 12.09
1/9/2023 2:45:00 PM 4.71 40.478 0.085 6.21 1.71 12.09
1/9/2023 3:00:00 PM 4.69 40.442 0.085 6.22 1.78 12.1
1/9/2023 3:15:00 PM 4.66 40.388 0.085 6.21 1.64 12.11
1/9/2023 3:30:00 PM 4.65 40.37 0.085 6.21 1.75 12.12
1/9/2023 3:45:00 PM 4.64 40.352 0.085 6.21 1.72 12.12
1/9/2023 4:00:00 PM 4.64 40.352 0.085 6.22 1.73 12.11
1/9/2023 4:15:00 PM 4.63 40.334 0.085 6.21 1.72 12.12
1/9/2023 4:30:00 PM 4.63 40.334 0.085 6.21 1.7 12.12
1/9/2023 4:45:00 PM 4.61 40.298 0.085 6.2 1.79 12.13
1/9/2023 5:00:00 PM 4.59 40.262 0.085 6.2 1.73 12.13
1/9/2023 5:15:00 PM 4.58 40.244 0.085 6.2 1.77 12.13
1/9/2023 5:30:00 PM 4.57 40.226 0.085 6.2 1.71 12.14
1/9/2023 5:45:00 PM 4.55 40.19 0.085 6.21 1.75 12.14
1/9/2023 6:00:00 PM 4.53 40.154 0.085 6.21 1.76 12.14
1/9/2023 6:15:00 PM 4.52 40.136 0.085 6.2 1.75 12.15
1/9/2023 6:30:00 PM 4.5 40.1 0.085 6.2 1.69 12.15
1/9/2023 6:45:00 PM 4.49 40.082 0.085 6.2 1.74 12.16
1/9/2023 7:00:00 PM 4.47 40.046 0.085 6.21 1.72 12.16
1/9/2023 7:15:00 PM 4.46 40.028 0.085 6.2 1.72 12.17
1/9/2023 7:30:00 PM 4.45 40.01 0.085 6.2 1.7 12.17
1/9/2023 7:45:00 PM 4.43 39.974 0.085 6.21 1.69 12.17
1/9/2023 8:00:00 PM 4.42 39.956 0.085 6.21 1.71 12.17
1/9/2023 8:15:00 PM 4.39 39.902 0.085 6.21 1.67 12.18
1/9/2023 8:30:00 PM 4.37 39.866 0.085 6.21 1.64 12.19
1/9/2023 8:45:00 PM 4.35 39.83 0.085 6.21 1.64 12.19
1/9/2023 9:00:00 PM 4.34 39.812 0.085 6.2 1.68 12.2
1/9/2023 9:15:00 PM 4.32 39.776 0.085 6.21 1.65 12.2
1/9/2023 9:30:00 PM 4.31 39.758 0.085 6.2 1.63 12.2
1/9/2023 9:45:00 PM 4.31 39.758 0.085 6.2 1.66 12.21
1/9/2023 10:00:00 PM 4.3 39.74 0.085 6.2 1.64 12.22
1/9/2023 10:15:00 PM 4.3 39.74 0.085 6.2 1.65 12.22
1/9/2023 10:30:00 PM 4.29 39.722 0.085 6.2 1.7 12.22
1/9/2023 10:45:00 PM 4.29 39.722 0.085 6.21 1.61 12.22
1/9/2023 11:00:00 PM 4.29 39.722 0.085 6.2 1.68 12.22
1/9/2023 11:15:00 PM 4.29 39.722 0.085 6.2 1.61 12.22
1/9/2023 11:30:00 PM 4.29 39.722 0.085 6.21 1.7 12.22
1/9/2023 11:45:00 PM 4.27 39.686 0.085 6.2 1.66 12.23
1/10/2023 12:00:00 AM 4.27 39.686 0.085 6.2 1.71 12.23
1/10/2023 12:15:00 AM 4.27 39.686 0.085 6.2 1.67 12.23
1/10/2023 12:30:00 AM 4.27 39.686 0.085 6.21 1.64 12.23
1/10/2023 12:45:00 AM 4.26 39.668 0.085 6.2 1.7 12.23
1/10/2023 1:00:00 AM 4.27 39.686 0.085 6.2 1.69 12.23
1/10/2023 1:15:00 AM 4.27 39.686 0.085 6.2 1.71 12.23
1/10/2023 1:30:00 AM 4.27 39.686 0.085 6.21 1.66 12.23
1/10/2023 1:45:00 AM 4.27 39.686 0.085 6.2 1.63 12.23
1/10/2023 2:00:00 AM 4.27 39.686 0.085 6.2 1.66 12.23
1/10/2023 2:15:00 AM 4.28 39.704 0.085 6.21 1.64 12.23
1/10/2023 2:30:00 AM 4.28 39.704 0.085 6.2 1.64 12.23
1/10/2023 2:45:00 AM 4.28 39.704 0.085 6.21 1.64 12.23
1/10/2023 3:00:00 AM 4.28 39.704 0.085 6.21 1.71 12.23
1/10/2023 3:15:00 AM 4.29 39.722 0.085 6.22 1.64 12.23
1/10/2023 3:30:00 AM 4.29 39.722 0.085 6.21 1.68 12.22
1/10/2023 3:45:00 AM 4.29 39.722 0.085 6.21 1.8 12.22
1/10/2023 4:00:00 AM 4.29 39.722 0.085 6.21 1.75 12.22
1/10/2023 4:15:00 AM 4.29 39.722 0.085 6.22 1.75 12.22
1/10/2023 4:30:00 AM 4.3 39.74 0.085 6.21 1.62 12.22
1/10/2023 4:45:00 AM 4.29 39.722 0.085 6.2 1.75 12.22
1/10/2023 5:00:00 AM 4.29 39.722 0.085 6.2 1.75 12.22
1/10/2023 5:15:00 AM 4.29 39.722 0.084 6.2 1.7 12.22
1/10/2023 5:30:00 AM 4.29 39.722 0.084 6.21 1.69 12.22
1/10/2023 5:45:00 AM 4.28 39.704 0.085 6.21 1.62 12.22
1/10/2023 6:00:00 AM 4.29 39.722 0.085 6.2 1.61 12.22
1/10/2023 6:15:00 AM 4.28 39.704 0.085 6.21 1.64 12.22
1/10/2023 6:30:00 AM 4.28 39.704 0.085 6.21 1.68 12.22
1/10/2023 6:45:00 AM 4.28 39.704 0.085 6.21 1.63 12.22
1/10/2023 7:00:00 AM 4.28 39.704 0.085 6.21 1.65 12.23
1/10/2023 7:15:00 AM 4.28 39.704 0.085 6.21 1.64 12.22
1/10/2023 7:30:00 AM 4.28 39.704 0.085 6.2 1.57 12.22
1/10/2023 7:45:00 AM 4.28 39.704 0.085 6.21 1.68 12.22
1/10/2023 8:00:00 AM 4.28 39.704 0.085 6.21 1.62 12.23
1/10/2023 8:15:00 AM 4.28 39.704 0.085 6.22 1.67 12.22
1/10/2023 8:30:00 AM 4.27 39.686 0.085 6.21 1.68 12.22
1/10/2023 8:45:00 AM 4.28 39.704 0.085 6.21 1.59 12.23
1/10/2023 9:00:00 AM 4.28 39.704 0.085 6.22 1.63 12.22
1/10/2023 9:15:00 AM 4.3 39.74 0.085 6.21 1.68 12.22
1/10/2023 9:30:00 AM 4.31 39.758 0.085 6.21 1.69 12.22
1/10/2023 9:45:00 AM 4.32 39.776 0.085 6.21 1.62 12.22
1/10/2023 10:00:00 AM 4.35 39.83 0.085 6.22 1.62 12.22
1/10/2023 10:15:00 AM 4.37 39.866 0.085 6.21 1.65 12.21
1/10/2023 10:30:00 AM 4.39 39.902 0.085 6.22 1.6 12.2
1/10/2023 10:45:00 AM 4.42 39.956 0.085 6.22 1.65 12.2
1/10/2023 11:00:00 AM 4.45 40.01 0.085 6.22 1.68 12.2
1/10/2023 11:15:00 AM 4.47 40.046 0.085 6.23 1.58 12.18
1/10/2023 11:30:00 AM 4.5 40.1 0.085 6.23 1.68 12.18
1/10/2023 11:45:00 AM 4.52 40.136 0.085 6.23 1.68 12.16
1/10/2023 12:00:00 PM 4.55 40.19 0.085 6.23 1.64 12.15
1/10/2023 12:15:00 PM 4.57 40.226 0.085 6.23 1.68 12.14
1/10/2023 12:30:00 PM 4.59 40.262 0.085 6.23 1.61 12.14
1/10/2023 12:45:00 PM 4.62 40.316 0.085 6.22 1.63 12.13
1/10/2023 1:00:00 PM 4.64 40.352 0.085 6.23 1.62 12.12
1/10/2023 1:15:00 PM 4.66 40.388 0.085 6.22 1.68 12.11
1/10/2023 1:30:00 PM 4.68 40.424 0.085 6.23 1.65 12.1
1/10/2023 1:45:00 PM 4.69 40.442 0.085 6.22 1.61 12.09
1/10/2023 2:00:00 PM 4.71 40.478 0.085 6.23 1.63 12.09
1/10/2023 2:15:00 PM 4.72 40.496 0.085 6.23 1.65 12.08
1/10/2023 2:30:00 PM 4.72 40.496 0.085 6.22 1.69 12.08
1/10/2023 2:45:00 PM 4.73 40.514 0.085 6.22 1.66 12.07
1/10/2023 3:00:00 PM 4.75 40.55 0.085 6.23 1.7 12.07
1/10/2023 3:15:00 PM 4.77 40.586 0.085 6.22 1.63 12.06
1/10/2023 3:30:00 PM 4.78 40.604 0.085 6.23 1.64 12.05
1/10/2023 3:45:00 PM 4.8 40.64 0.085 6.22 1.65 12.06
1/10/2023 4:00:00 PM 4.81 40.658 0.085 6.23 1.68 12.05
1/10/2023 4:15:00 PM 4.81 40.658 0.085 6.24 1.67 12.05
1/10/2023 4:30:00 PM 4.8 40.64 0.085 6.22 1.64 12.05
1/10/2023 4:45:00 PM 4.79 40.622 0.084 6.23 1.62 12.05
1/10/2023 5:00:00 PM 4.77 40.586 0.084 6.23 1.65 12.06
1/10/2023 5:15:00 PM 4.76 40.568 0.085 6.23 1.66 12.06
1/10/2023 5:30:00 PM 4.76 40.568 0.085 6.23 1.65 12.06
1/10/2023 5:45:00 PM 4.75 40.55 0.085 6.23 1.63 12.07
1/10/2023 6:00:00 PM 4.74 40.532 0.085 6.22 1.63 12.07
1/10/2023 6:15:00 PM 4.73 40.514 0.085 6.22 1.68 12.08
1/10/2023 6:30:00 PM 4.72 40.496 0.085 6.22 1.66 12.08
1/10/2023 6:45:00 PM 4.71 40.478 0.085 6.21 1.64 12.09
1/10/2023 7:00:00 PM 4.69 40.442 0.085 6.21 1.65 12.09
1/10/2023 7:15:00 PM 4.68 40.424 0.085 6.21 1.63 12.09
1/10/2023 7:30:00 PM 4.67 40.406 0.085 6.22 1.64 12.09
1/10/2023 7:45:00 PM 4.67 40.406 0.085 6.21 1.7 12.1
1/10/2023 8:00:00 PM 4.67 40.406 0.085 6.22 1.65 12.1
1/10/2023 8:15:00 PM 4.67 40.406 0.085 6.21 1.67 12.1
1/10/2023 8:30:00 PM 4.67 40.406 0.085 6.22 1.62 12.1
1/10/2023 8:45:00 PM 4.66 40.388 0.085 6.22 1.61 12.1
1/10/2023 9:00:00 PM 4.66 40.388 0.085 6.21 1.6 12.1
1/10/2023 9:15:00 PM 4.66 40.388 0.085 6.23 1.58 12.11
1/10/2023 9:30:00 PM 4.65 40.37 0.085 6.21 1.61 12.11
1/10/2023 9:45:00 PM 4.65 40.37 0.085 6.22 1.71 12.11
1/10/2023 10:00:00 PM 4.65 40.37 0.085 6.22 1.6 12.12
1/10/2023 10:15:00 PM 4.64 40.352 0.085 6.21 1.68 12.12
1/10/2023 10:30:00 PM 4.64 40.352 0.085 6.21 1.7 12.12
1/10/2023 10:45:00 PM 4.64 40.352 0.085 6.21 1.74 12.12
1/10/2023 11:00:00 PM 4.63 40.334 0.085 6.21 1.69 12.12
1/10/2023 11:15:00 PM 4.62 40.316 0.085 6.22 1.68 12.12
1/10/2023 11:30:00 PM 4.61 40.298 0.085 6.21 1.78 12.13
1/10/2023 11:45:00 PM 4.59 40.262 0.085 6.21 1.73 12.13
1/11/2023 12:00:00 AM 4.57 40.226 0.085 6.22 1.72 12.14
1/11/2023 12:15:00 AM 4.56 40.208 0.085 6.2 1.82 12.14
1/11/2023 12:30:00 AM 4.57 40.226 0.085 6.21 1.88 12.14
1/11/2023 12:45:00 AM 4.57 40.226 0.085 6.21 1.73 12.14
1/11/2023 1:00:00 AM 4.58 40.244 0.085 6.21 1.65 12.14
1/11/2023 1:15:00 AM 4.57 40.226 0.085 6.21 1.65 12.14
1/11/2023 1:30:00 AM 4.57 40.226 0.085 6.2 1.63 12.15
1/11/2023 1:45:00 AM 4.58 40.244 0.085 6.21 1.7 12.15
1/11/2023 2:00:00 AM 4.57 40.226 0.085 6.2 1.71 12.15
1/11/2023 2:15:00 AM 4.56 40.208 0.085 6.21 1.7 12.15
1/11/2023 2:30:00 AM 4.54 40.172 0.085 6.2 1.7 12.15
1/11/2023 2:45:00 AM 4.5 40.1 0.085 6.2 1.67 12.17
1/11/2023 3:00:00 AM 4.46 40.028 0.085 6.22 1.73 12.17
1/11/2023 3:15:00 AM 4.42 39.956 0.085 6.19 1.74 12.18
1/11/2023 3:30:00 AM 4.39 39.902 0.085 6.21 1.7 12.19
1/11/2023 3:45:00 AM 4.35 39.83 0.085 6.2 1.86 12.2
1/11/2023 4:00:00 AM 4.32 39.776 0.085 6.2 1.76 12.21
1/11/2023 4:15:00 AM 4.28 39.704 0.085 6.2 1.73 12.22
1/11/2023 4:30:00 AM 4.25 39.65 0.085 6.2 1.64 12.24
1/11/2023 4:45:00 AM 4.22 39.596 0.085 6.2 1.69 12.25
1/11/2023 5:00:00 AM 4.19 39.542 0.085 6.19 1.68 12.25
1/11/2023 5:15:00 AM 4.16 39.488 0.085 6.19 1.61 12.27
1/11/2023 5:30:00 AM 4.13 39.434 0.085 6.19 1.64 12.29
1/11/2023 5:45:00 AM 4.1 39.38 0.085 6.19 1.62 12.3
1/11/2023 6:00:00 AM 4.07 39.326 0.085 6.19 1.66 12.31
1/11/2023 6:15:00 AM 4.04 39.272 0.085 6.19 1.62 12.32
1/11/2023 6:30:00 AM 4.02 39.236 0.085 6.19 1.69 12.33
1/11/2023 6:45:00 AM 3.99 39.182 0.085 6.19 1.7 12.34
1/11/2023 7:00:00 AM 3.97 39.146 0.085 6.19 1.68 12.35
1/11/2023 7:15:00 AM 3.95 39.11 0.085 6.19 1.66 12.36
1/11/2023 7:30:00 AM 3.93 39.074 0.085 6.19 1.65 12.37
1/11/2023 7:45:00 AM 3.91 39.038 0.085 6.19 1.66 12.37
1/11/2023 8:00:00 AM 3.9 39.02 0.085 6.19 1.63 12.37
1/11/2023 8:15:00 AM 3.9 39.02 0.085 6.2 1.73 12.37
1/11/2023 8:30:00 AM 3.91 39.038 0.085 6.2 1.57 12.38
1/11/2023 8:45:00 AM 3.92 39.056 0.085 6.21 1.6 12.37
1/11/2023 9:00:00 AM 3.95 39.11 0.085 6.2 1.95 12.37
1/11/2023 9:15:00 AM 4 39.2 0.085 6.21 1.6 12.36
1/11/2023 9:30:00 AM 4.05 39.29 0.085 6.21 1.6 12.33
1/11/2023 9:45:00 AM 4.1 39.38 0.085 6.21 1.59 12.32
1/11/2023 10:00:00 AM 4.16 39.488 0.085 6.22 1.57 12.3
1/11/2023 10:15:00 AM 4.21 39.578 0.085 6.22 1.58 12.28
1/11/2023 10:30:00 AM 4.26 39.668 0.085 6.22 1.62 12.26
1/11/2023 10:45:00 AM 4.32 39.776 0.085 6.23 1.61 12.24
1/11/2023 11:00:00 AM 4.37 39.866 0.085 6.23 1.6 12.22
1/11/2023 11:15:00 AM 4.43 39.974 0.085 6.23 1.65 12.21
1/11/2023 11:30:00 AM 4.49 40.082 0.085 6.23 1.59 12.19
1/11/2023 11:45:00 AM 4.55 40.19 0.085 6.23 1.64 12.17
1/11/2023 12:00:00 PM 4.6 40.28 0.085 6.24 1.6 12.14
1/11/2023 12:15:00 PM 4.65 40.37 0.085 6.24 1.57 12.13
1/11/2023 12:30:00 PM 4.7 40.46 0.085 6.23 1.57 12.11
1/11/2023 12:45:00 PM 4.73 40.514 0.085 6.24 1.58 12.09
1/11/2023 1:00:00 PM 4.76 40.568 0.085 6.24 1.57 12.08
1/11/2023 1:15:00 PM 4.78 40.604 0.085 6.24 1.57 12.07
1/11/2023 1:30:00 PM 4.81 40.658 0.085 6.24 1.6 12.06
1/11/2023 1:45:00 PM 4.84 40.712 0.085 6.24 1.57 12.05
1/11/2023 2:00:00 PM 4.86 40.748 0.085 6.25 1.63 12.04
1/11/2023 2:15:00 PM 4.87 40.766 0.085 6.24 1.64 12.03
1/11/2023 2:30:00 PM 4.88 40.784 0.085 6.24 1.59 12.03
1/11/2023 2:45:00 PM 4.89 40.802 0.085 6.24 1.58 12.03
1/11/2023 3:00:00 PM 4.91 40.838 0.085 6.24 1.59 12.02
1/11/2023 3:15:00 PM 4.91 40.838 0.085 6.24 1.58 12.02
1/11/2023 3:30:00 PM 4.9 40.82 0.085 6.24 1.6 12.02
1/11/2023 3:45:00 PM 4.9 40.82 0.085 6.24 1.66 12.02
1/11/2023 4:00:00 PM 4.88 40.784 0.085 6.24 1.52 12.03
1/11/2023 4:15:00 PM 4.87 40.766 0.085 6.24 1.58 12.03
1/11/2023 4:30:00 PM 4.86 40.748 0.085 6.24 1.61 12.03
1/11/2023 4:45:00 PM 4.83 40.694 0.085 6.24 1.6 12.04
1/11/2023 5:00:00 PM 4.8 40.64 0.085 6.24 1.59 12.05
1/11/2023 5:15:00 PM 4.77 40.586 0.085 6.24 1.59 12.06
1/11/2023 5:30:00 PM 4.74 40.532 0.085 6.25 1.59 12.06
1/11/2023 5:45:00 PM 4.71 40.478 0.085 6.23 1.63 12.07
1/11/2023 6:00:00 PM 4.69 40.442 0.085 6.25 1.64 12.07
1/11/2023 6:15:00 PM 4.69 40.442 0.085 6.22 1.67 12.08
1/11/2023 6:30:00 PM 4.69 40.442 0.085 6.25 1.69 12.08
1/11/2023 6:45:00 PM 4.68 40.424 0.085 6.23 1.65 12.08
1/11/2023 7:00:00 PM 4.68 40.424 0.086 6.24 1.68 12.09
1/11/2023 7:15:00 PM 4.65 40.37 0.086 6.23 1.67 12.09
1/11/2023 7:30:00 PM 4.63 40.334 0.086 6.24 1.6 12.11
1/11/2023 7:45:00 PM 4.6 40.28 0.086 6.23 1.6 12.11
1/11/2023 8:00:00 PM 4.58 40.244 0.086 6.23 1.57 12.12
1/11/2023 8:15:00 PM 4.58 40.244 0.086 6.23 1.61 12.12
1/11/2023 8:30:00 PM 4.57 40.226 0.086 6.23 1.56 12.12
1/11/2023 8:45:00 PM 4.56 40.208 0.086 6.23 1.61 12.13
1/11/2023 9:00:00 PM 4.54 40.172 0.086 6.23 1.59 12.13
1/11/2023 9:15:00 PM 4.53 40.154 0.086 6.22 1.56 12.13
1/11/2023 9:30:00 PM 4.51 40.118 0.086 6.23 1.55 12.14
1/11/2023 9:45:00 PM 4.49 40.082 0.086 6.23 1.58 12.15
1/11/2023 10:00:00 PM 4.47 40.046 0.086 6.22 1.59 12.15
1/11/2023 10:15:00 PM 4.47 40.046 0.086 6.22 1.62 12.15
1/11/2023 10:30:00 PM 4.47 40.046 0.086 6.22 1.6 12.15
1/11/2023 10:45:00 PM 4.48 40.064 0.086 6.22 1.64 12.15
1/11/2023 11:00:00 PM 4.49 40.082 0.085 6.23 1.59 12.14
1/11/2023 11:15:00 PM 4.5 40.1 0.085 6.22 1.62 12.14
1/11/2023 11:30:00 PM 4.51 40.118 0.085 6.22 1.62 12.14
1/11/2023 11:45:00 PM 4.52 40.136 0.085 6.22 1.58 12.14
1/12/2023 12:00:00 AM 4.52 40.136 0.085 6.22 1.6 12.13
1/12/2023 12:15:00 AM 4.53 40.154 0.085 6.22 1.57 12.13
1/12/2023 12:30:00 AM 4.53 40.154 0.085 6.22 1.58 12.12
1/12/2023 12:45:00 AM 4.54 40.172 0.085 6.22 1.6 12.12
1/12/2023 1:00:00 AM 4.55 40.19 0.085 6.21 1.61 12.11
1/12/2023 1:15:00 AM 4.55 40.19 0.086 6.22 1.58 12.11
1/12/2023 1:30:00 AM 4.56 40.208 0.086 6.22 1.68 12.11
1/12/2023 1:45:00 AM 4.56 40.208 0.086 6.23 1.6 12.11
1/12/2023 2:00:00 AM 4.56 40.208 0.086 6.22 1.74 12.11
1/12/2023 2:15:00 AM 4.56 40.208 0.086 6.23 1.73 12.11
1/12/2023 2:30:00 AM 4.57 40.226 0.086 6.23 1.79 12.11
1/12/2023 2:45:00 AM 4.57 40.226 0.086 6.23 1.66 12.1
1/12/2023 3:00:00 AM 4.58 40.244 0.086 6.23 1.74 12.1
1/12/2023 3:15:00 AM 4.59 40.262 0.086 6.23 1.69 12.09
1/12/2023 3:30:00 AM 4.6 40.28 0.086 6.23 1.64 12.09
1/12/2023 3:45:00 AM 4.61 40.298 0.086 6.23 1.67 12.09
1/12/2023 4:00:00 AM 4.62 40.316 0.086 6.24 1.63 12.08
1/12/2023 4:15:00 AM 4.63 40.334 0.086 6.24 1.61 12.08
1/12/2023 4:30:00 AM 4.64 40.352 0.086 6.23 1.62 12.07
1/12/2023 4:45:00 AM 4.65 40.37 0.087 6.23 1.64 12.07
1/12/2023 5:00:00 AM 4.66 40.388 0.087 6.25 1.62 12.07
1/12/2023 5:15:00 AM 4.67 40.406 0.088 6.24 1.66 12.06
1/12/2023 5:30:00 AM 4.68 40.424 0.09 6.24 1.62 12.06
1/12/2023 5:45:00 AM 4.69 40.442 0.09 6.25 1.64 12.06
1/12/2023 6:00:00 AM 4.69 40.442 0.09 6.24 1.6 12.06
1/12/2023 6:15:00 AM 4.7 40.46 0.09 6.25 1.58 12.05
1/12/2023 6:30:00 AM 4.71 40.478 0.09 6.25 1.61 12.05
1/12/2023 6:45:00 AM 4.72 40.496 0.09 6.26 1.6 12.05
1/12/2023 7:00:00 AM 4.72 40.496 0.09 6.25 1.61 12.04
1/12/2023 7:15:00 AM 4.73 40.514 0.09 6.26 1.63 12.04
1/12/2023 7:30:00 AM 4.74 40.532 0.09 6.26 1.65 12.04
1/12/2023 7:45:00 AM 4.75 40.55 0.09 6.26 1.63 12.04
1/12/2023 8:00:00 AM 4.76 40.568 0.09 6.26 1.6 12.03
1/12/2023 8:15:00 AM 4.76 40.568 0.09 6.26 1.59 12.04
1/12/2023 8:30:00 AM 4.77 40.586 0.09 6.26 1.6 12.03
1/12/2023 8:45:00 AM 4.78 40.604 0.09 6.26 1.55 12.03
1/12/2023 9:00:00 AM 4.8 40.64 0.09 6.26 1.61 12.03
1/12/2023 9:15:00 AM 4.81 40.658 0.09 6.26 1.56 12.02
1/12/2023 9:30:00 AM 4.83 40.694 0.09 6.26 1.77 12.01
1/12/2023 9:45:00 AM 4.84 40.712 0.09 6.27 1.59 12
1/12/2023 10:00:00 AM 4.86 40.748 0.089 6.27 1.6 11.99
1/12/2023 10:15:00 AM 4.88 40.784 0.089 6.27 1.66 11.99
1/12/2023 10:30:00 AM 4.89 40.802 0.09 6.27 1.62 11.98
1/12/2023 10:45:00 AM 4.91 40.838 0.09 6.27 1.69 11.98
1/12/2023 11:00:00 AM 4.93 40.874 0.09 6.27 1.6 11.97
1/12/2023 11:15:00 AM 4.95 40.91 0.09 6.26 1.6 11.96
1/12/2023 11:30:00 AM 4.96 40.928 0.09 6.27 1.58 11.95
1/12/2023 11:45:00 AM 4.98 40.964 0.09 6.27 1.62 11.94
1/12/2023 12:00:00 PM 5 41 0.09 6.26 1.61 11.93
1/12/2023 12:15:00 PM 5.01 41.018 0.09 6.27 1.61 11.91
1/12/2023 12:30:00 PM 5.02 41.036 0.09 6.27 1.62 11.91
1/12/2023 12:45:00 PM 5.02 41.036 0.09 6.27 1.61 11.9
1/12/2023 1:00:00 PM 5.02 41.036 0.09 6.26 1.64 11.9
1/12/2023 1:15:00 PM 5.02 41.036 0.09 6.27 1.59 11.9
1/12/2023 1:30:00 PM 5 41 0.09 6.26 1.73 11.91
1/12/2023 1:45:00 PM 4.98 40.964 0.089 6.26 1.86 11.91
1/12/2023 2:00:00 PM 4.97 40.946 0.089 6.26 2.02 11.91
1/12/2023 2:15:00 PM 4.96 40.928 0.09 6.27 2.23 11.9
1/12/2023 2:30:00 PM 4.96 40.928 0.092 6.3 2.68 11.9
1/12/2023 2:45:00 PM 4.95 40.91 0.093 6.31 3.51 11.9
1/12/2023 3:00:00 PM 4.96 40.928 0.095 6.35 4.99 11.9
1/12/2023 3:15:00 PM 4.97 40.946 0.102 6.38 6.19 11.9
1/12/2023 3:30:00 PM 4.98 40.964 0.115 6.41 6.55 11.9
1/12/2023 3:45:00 PM 4.97 40.946 0.12 6.45 7.06 11.9
1/12/2023 4:00:00 PM 4.97 40.946 0.123 6.49 6.28 11.89
1/12/2023 4:15:00 PM 4.97 40.946 0.125 6.5 5.89 11.9
1/12/2023 4:30:00 PM 4.96 40.928 0.127 6.52 6.15 11.89
1/12/2023 4:45:00 PM 4.97 40.946 0.128 6.54 5.63 11.89
1/12/2023 5:00:00 PM 4.98 40.964 0.129 6.53 5.46 11.88
1/12/2023 5:15:00 PM 4.98 40.964 0.13 6.55 5.55 11.88
1/12/2023 5:30:00 PM 4.98 40.964 0.132 6.56 5.28 11.88
1/12/2023 5:45:00 PM 4.99 40.982 0.133 6.56 4.99 11.88
1/12/2023 6:00:00 PM 4.99 40.982 0.133 6.57 4.9 11.88
1/12/2023 6:15:00 PM 5 41 0.131 6.56 4.75 11.88
1/12/2023 6:30:00 PM 5 41 0.13 6.55 4.65 11.88
1/12/2023 6:45:00 PM 5 41 0.129 6.54 4.39 11.87
1/12/2023 7:00:00 PM 4.99 40.982 0.129 6.54 4.44 11.87
1/12/2023 7:15:00 PM 4.99 40.982 0.128 6.54 4.44 11.87
1/12/2023 7:30:00 PM 4.98 40.964 0.128 6.54 4.58 11.87
1/12/2023 7:45:00 PM 4.98 40.964 0.128 6.53 4.76 11.87
1/12/2023 8:00:00 PM 4.98 40.964 0.129 6.54 5.13 11.87
1/12/2023 8:15:00 PM 4.98 40.964 0.132 6.54 5.58 11.87
1/12/2023 8:30:00 PM 4.98 40.964 0.135 6.55 5.6 11.87
1/12/2023 8:45:00 PM 4.98 40.964 0.137 6.55 6.24 11.86
1/12/2023 9:00:00 PM 4.98 40.964 0.138 6.56 5.98 11.86
1/12/2023 9:15:00 PM 4.99 40.982 0.139 6.58 5.73 11.86
1/12/2023 9:30:00 PM 4.99 40.982 0.138 6.57 5.58 11.85
1/12/2023 9:45:00 PM 5 41 0.138 6.57 5.61 11.85
1/12/2023 10:00:00 PM 5.01 41.018 0.137 6.57 5.36 11.84
1/12/2023 10:15:00 PM 5.01 41.018 0.136 6.56 5.43 11.83
1/12/2023 10:30:00 PM 5.01 41.018 0.135 6.56 5.22 11.84
1/12/2023 10:45:00 PM 5.02 41.036 0.135 6.55 4.96 11.83
1/12/2023 11:00:00 PM 5.02 41.036 0.134 6.53 4.84 11.83
1/12/2023 11:15:00 PM 5.03 41.054 0.134 6.54 4.79 11.83
1/12/2023 11:30:00 PM 5.03 41.054 0.133 6.53 4.54 11.83
1/12/2023 11:45:00 PM 5.03 41.054 0.133 6.53 4.57 11.82
1/13/2023 12:00:00 AM 5.03 41.054 0.134 6.52 4.39 11.81
1/13/2023 12:15:00 AM 5.03 41.054 0.134 6.52 4.37 11.81
1/13/2023 12:30:00 AM 5.04 41.072 0.135 6.52 4.36 11.8
1/13/2023 12:45:00 AM 5.04 41.072 0.135 6.52 4.05 11.81
1/13/2023 1:00:00 AM 5.04 41.072 0.136 6.51 4.09 11.8
1/13/2023 1:15:00 AM 5.04 41.072 0.136 6.5 3.85 11.8
1/13/2023 1:30:00 AM 5.04 41.072 0.136 6.51 3.78 11.8
1/13/2023 1:45:00 AM 5.05 41.09 0.137 6.51 3.7 11.8
1/13/2023 2:00:00 AM 5.05 41.09 0.137 6.51 3.72 11.8
1/13/2023 2:15:00 AM 5.05 41.09 0.137 6.5 3.55 11.8
1/13/2023 2:30:00 AM 5.06 41.108 0.138 6.5 3.51 11.8
1/13/2023 2:45:00 AM 5.07 41.126 0.138 6.5 3.45 11.79
1/13/2023 3:00:00 AM 5.08 41.144 0.139 6.5 3.43 11.79
1/13/2023 3:15:00 AM 5.1 41.18 0.139 6.51 3.36 11.79
1/13/2023 3:30:00 AM 5.09 41.162 0.139 6.51 3.3 11.79
1/13/2023 3:45:00 AM 5.09 41.162 0.14 6.51 3.23 11.8
1/13/2023 4:00:00 AM 5.07 41.126 0.141 6.51 3.19 11.8
1/13/2023 4:15:00 AM 5.05 41.09 0.141 6.52 3.15 11.81
1/13/2023 4:30:00 AM 5.01 41.018 0.142 6.51 3.19 11.83
1/13/2023 4:45:00 AM 4.95 40.91 0.143 6.51 3.11 11.85
1/13/2023 5:00:00 AM 4.89 40.802 0.143 6.51 3.07 11.88
1/13/2023 5:15:00 AM 4.84 40.712 0.144 6.51 2.99 11.9
1/13/2023 5:30:00 AM 4.81 40.658 0.144 6.52 2.92 11.91
1/13/2023 5:45:00 AM 4.78 40.604 0.144 6.51 2.95 11.93
1/13/2023 6:00:00 AM 4.76 40.568 0.145 6.52 2.92 11.94
1/13/2023 6:15:00 AM 4.74 40.532 0.145 6.51 2.87 11.95
1/13/2023 6:30:00 AM 4.7 40.46 0.146 6.51 2.81 11.96
1/13/2023 6:45:00 AM 4.67 40.406 0.146 6.52 2.76 11.98
1/13/2023 7:00:00 AM 4.66 40.388 0.147 6.51 2.8 11.99
1/13/2023 7:15:00 AM 4.65 40.37 0.147 6.51 2.72 11.99
1/13/2023 7:30:00 AM 4.64 40.352 0.147 6.51 2.62 12
1/13/2023 7:45:00 AM 4.62 40.316 0.147 6.5 2.61 12.01
1/13/2023 8:00:00 AM 4.61 40.298 0.147 6.5 2.58 12.01
1/13/2023 8:15:00 AM 4.6 40.28 0.147 6.5 2.61 12.02
1/13/2023 8:30:00 AM 4.59 40.262 0.147 6.49 2.58 12.03
1/13/2023 8:45:00 AM 4.58 40.244 0.147 6.49 2.59 12.04
1/13/2023 9:00:00 AM 4.57 40.226 0.147 6.49 2.52 12.04
1/13/2023 9:15:00 AM 4.57 40.226 0.147 6.5 2.53 12.04
1/13/2023 9:30:00 AM 4.57 40.226 0.147 6.5 2.47 12.05
1/13/2023 9:45:00 AM 4.56 40.208 0.147 6.5 2.48 12.05
1/13/2023 10:00:00 AM 4.55 40.19 0.147 6.5 2.42 12.06
1/13/2023 10:15:00 AM 4.55 40.19 0.147 6.49 2.5 12.06
1/13/2023 10:30:00 AM 4.54 40.172 0.146 6.5 2.47 12.07
1/13/2023 10:45:00 AM 4.53 40.154 0.146 6.49 2.4 12.07
1/13/2023 11:00:00 AM 4.52 40.136 0.146 6.5 2.4 12.08
1/13/2023 11:15:00 AM 4.51 40.118 0.146 6.5 2.38 12.08
1/13/2023 11:30:00 AM 4.5 40.1 0.146 6.49 2.32 12.08
1/13/2023 11:45:00 AM 4.48 40.064 0.146 6.5 2.3 12.08
1/13/2023 12:00:00 PM 4.48 40.064 0.146 6.5 2.38 12.09
1/13/2023 12:15:00 PM 4.47 40.046 0.146 6.5 2.33 12.09
1/13/2023 12:30:00 PM 4.46 40.028 0.146 6.49 2.38 12.09
1/13/2023 12:45:00 PM 4.45 40.01 0.146 6.5 2.31 12.09
1/13/2023 1:00:00 PM 4.44 39.992 0.146 6.5 2.31 12.09
1/13/2023 1:15:00 PM 4.42 39.956 0.146 6.5 2.32 12.1
1/13/2023 1:30:00 PM 4.43 39.974 0.146 6.5 2.33 12.09
1/13/2023 1:45:00 PM 4.42 39.956 0.146 6.5 2.32 12.09
1/13/2023 2:00:00 PM 4.41 39.938 0.146 6.5 2.2 12.09
1/13/2023 2:15:00 PM 4.39 39.902 0.145 6.5 2.22 12.1
1/13/2023 2:30:00 PM 4.39 39.902 0.145 6.5 2.24 12.1
1/13/2023 2:45:00 PM 4.38 39.884 0.145 6.5 2.26 12.1
1/13/2023 3:00:00 PM 4.37 39.866 0.145 6.5 2.15 12.1
1/13/2023 3:15:00 PM 4.38 39.884 0.145 6.5 2.2 12.1
1/13/2023 3:30:00 PM 4.35 39.83 0.145 6.5 2.18 12.11
1/13/2023 3:45:00 PM 4.34 39.812 0.145 6.5 2.21 12.11
1/13/2023 4:00:00 PM 4.32 39.776 0.144 6.5 2.18 12.12
1/13/2023 4:15:00 PM 4.29 39.722 0.144 6.51 2.17 12.13
1/13/2023 4:30:00 PM 4.26 39.668 0.144 6.5 2.1 12.14
1/13/2023 4:45:00 PM 4.25 39.65 0.144 6.49 2.18 12.15
1/13/2023 5:00:00 PM 4.23 39.614 0.144 6.5 2.12 12.16
1/13/2023 5:15:00 PM 4.22 39.596 0.144 6.49 2.21 12.17
1/13/2023 5:30:00 PM 4.2 39.56 0.143 6.49 2.16 12.17
1/13/2023 5:45:00 PM 4.18 39.524 0.143 6.49 2.12 12.18
1/13/2023 6:00:00 PM 4.16 39.488 0.143 6.49 2.06 12.19
1/13/2023 6:15:00 PM 4.14 39.452 0.143 6.49 2.09 12.2
1/13/2023 6:30:00 PM 4.13 39.434 0.143 6.5 2.17 12.21
1/13/2023 6:45:00 PM 4.12 39.416 0.142 6.49 2.15 12.21
1/13/2023 7:00:00 PM 4.11 39.398 0.142 6.49 2.07 12.22
1/13/2023 7:15:00 PM 4.09 39.362 0.142 6.49 2.05 12.22
1/13/2023 7:30:00 PM 4.07 39.326 0.141 6.49 2.03 12.23
1/13/2023 7:45:00 PM 4.05 39.29 0.141 6.49 1.99 12.24
1/13/2023 8:00:00 PM 4.03 39.254 0.141 6.49 1.95 12.24
1/13/2023 8:15:00 PM 4.01 39.218 0.141 6.49 2.03 12.25
1/13/2023 8:30:00 PM 4 39.2 0.14 6.49 2.01 12.26
1/13/2023 8:45:00 PM 3.99 39.182 0.14 6.49 1.99 12.27
1/13/2023 9:00:00 PM 3.98 39.164 0.14 6.49 2 12.27
1/13/2023 9:15:00 PM 3.96 39.128 0.14 6.49 1.91 12.28
1/13/2023 9:30:00 PM 3.95 39.11 0.139 6.49 1.97 12.28
1/13/2023 9:45:00 PM 3.94 39.092 0.139 6.49 1.98 12.28
1/13/2023 10:00:00 PM 3.92 39.056 0.139 6.48 1.93 12.29
1/13/2023 10:15:00 PM 3.9 39.02 0.138 6.48 1.92 12.29
1/13/2023 10:30:00 PM 3.88 38.984 0.138 6.49 2.03 12.31
1/13/2023 10:45:00 PM 3.87 38.966 0.138 6.48 1.94 12.31
1/13/2023 11:00:00 PM 3.85 38.93 0.138 6.48 1.96 12.31
1/13/2023 11:15:00 PM 3.83 38.894 0.137 6.48 1.91 12.31
1/13/2023 11:30:00 PM 3.81 38.858 0.137 6.49 1.92 12.32
1/13/2023 11:45:00 PM 3.79 38.822 0.137 6.48 1.91 12.32
1/14/2023 12:00:00 AM 3.78 38.804 0.137 6.48 1.97 12.32
1/14/2023 12:15:00 AM 3.76 38.768 0.136 6.48 1.89 12.32
1/14/2023 12:30:00 AM 3.75 38.75 0.136 6.48 1.91 12.33
1/14/2023 12:45:00 AM 3.74 38.732 0.136 6.48 1.94 12.34
1/14/2023 1:00:00 AM 3.73 38.714 0.136 6.48 2.09 12.34
1/14/2023 1:15:00 AM 3.72 38.696 0.135 6.48 2 12.34
1/14/2023 1:30:00 AM 3.7 38.66 0.135 6.47 1.91 12.35
1/14/2023 1:45:00 AM 3.69 38.642 0.135 6.48 1.91 12.35
1/14/2023 2:00:00 AM 3.68 38.624 0.134 6.48 2.03 12.36
1/14/2023 2:15:00 AM 3.67 38.606 0.134 6.47 1.99 12.37
1/14/2023 2:30:00 AM 3.65 38.57 0.134 6.47 1.91 12.38
1/14/2023 2:45:00 AM 3.64 38.552 0.133 6.47 1.94 12.38
1/14/2023 3:00:00 AM 3.62 38.516 0.133 6.47 1.95 12.39
1/14/2023 3:15:00 AM 3.61 38.498 0.133 6.47 1.91 12.4
1/14/2023 3:30:00 AM 3.6 38.48 0.133 6.47 1.96 12.4
1/14/2023 3:45:00 AM 3.59 38.462 0.132 6.47 1.98 12.4
1/14/2023 4:00:00 AM 3.57 38.426 0.132 6.47 1.89 12.41
1/14/2023 4:15:00 AM 3.55 38.39 0.132 6.47 1.86 12.42
1/14/2023 4:30:00 AM 3.53 38.354 0.131 6.47 1.9 12.43
1/14/2023 4:45:00 AM 3.52 38.336 0.131 6.47 1.91 12.44
1/14/2023 5:00:00 AM 3.51 38.318 0.131 6.47 1.89 12.44
1/14/2023 5:15:00 AM 3.49 38.282 0.131 6.47 1.89 12.45
1/14/2023 5:30:00 AM 3.48 38.264 0.13 6.46 1.9 12.46
1/14/2023 5:45:00 AM 3.48 38.264 0.13 6.46 1.94 12.46
1/14/2023 6:00:00 AM 3.47 38.246 0.13 6.46 1.97 12.46
1/14/2023 6:15:00 AM 3.47 38.246 0.129 6.46 1.86 12.47
1/14/2023 6:30:00 AM 3.45 38.21 0.129 6.46 1.81 12.47
1/14/2023 6:45:00 AM 3.44 38.192 0.129 6.45 1.82 12.48
1/14/2023 7:00:00 AM 3.41 38.138 0.128 6.46 1.87 12.49
1/14/2023 7:15:00 AM 3.39 38.102 0.128 6.46 1.8 12.5
1/14/2023 7:30:00 AM 3.37 38.066 0.128 6.45 1.78 12.51
1/14/2023 7:45:00 AM 3.34 38.012 0.128 6.46 1.83 12.52
1/14/2023 8:00:00 AM 3.33 37.994 0.127 6.45 1.78 12.53
1/14/2023 8:15:00 AM 3.31 37.958 0.127 6.44 1.75 12.53
1/14/2023 8:30:00 AM 3.29 37.922 0.127 6.44 1.77 12.54
1/14/2023 8:45:00 AM 3.28 37.904 0.126 6.44 1.8 12.55
1/14/2023 9:00:00 AM 3.27 37.886 0.126 6.44 1.75 12.56
1/14/2023 9:15:00 AM 3.26 37.868 0.126 6.44 1.76 12.56
1/14/2023 9:30:00 AM 3.26 37.868 0.126 6.44 1.73 12.57
1/14/2023 9:45:00 AM 3.26 37.868 0.125 6.44 1.78 12.57
1/14/2023 10:00:00 AM 3.25 37.85 0.125 6.44 1.76 12.57
1/14/2023 10:15:00 AM 3.25 37.85 0.125 6.44 1.76 12.57
1/14/2023 10:30:00 AM 3.27 37.886 0.124 6.44 1.69 12.57
1/14/2023 10:45:00 AM 3.3 37.94 0.124 6.44 1.7 12.57
1/14/2023 11:00:00 AM 3.33 37.994 0.124 6.44 1.69 12.56
1/14/2023 11:15:00 AM 3.34 38.012 0.124 6.44 1.73 12.56
1/14/2023 11:30:00 AM 3.36 38.048 0.123 6.44 1.74 12.55
1/14/2023 11:45:00 AM 3.38 38.084 0.123 6.45 1.75 12.55
1/14/2023 12:00:00 PM 3.4 38.12 0.123 6.44 1.68 12.53
1/14/2023 12:15:00 PM 3.42 38.156 0.123 6.44 1.75 12.53
1/14/2023 12:30:00 PM 3.45 38.21 0.122 6.44 1.71 12.52
1/14/2023 12:45:00 PM 3.45 38.21 0.122 6.44 1.69 12.51
1/14/2023 1:00:00 PM 3.47 38.246 0.122 6.44 1.74 12.5
1/14/2023 1:15:00 PM 3.48 38.264 0.122 6.44 1.68 12.5
1/14/2023 1:30:00 PM 3.48 38.264 0.121 6.44 1.75 12.5
1/14/2023 1:45:00 PM 3.49 38.282 0.121 6.43 1.7 12.5
1/14/2023 2:00:00 PM 3.5 38.3 0.121 6.43 1.69 12.49
1/14/2023 2:15:00 PM 3.5 38.3 0.121 6.43 1.73 12.5
1/14/2023 2:30:00 PM 3.5 38.3 0.12 6.43 1.72 12.5
1/14/2023 2:45:00 PM 3.49 38.282 0.12 6.43 1.68 12.5
1/14/2023 3:00:00 PM 3.47 38.246 0.12 6.42 1.74 12.51
1/14/2023 3:15:00 PM 3.46 38.228 0.12 6.43 1.7 12.51
1/14/2023 3:30:00 PM 3.44 38.192 0.119 6.43 1.71 12.52
1/14/2023 3:45:00 PM 3.41 38.138 0.119 6.42 1.69 12.53
1/14/2023 4:00:00 PM 3.38 38.084 0.119 6.42 1.69 12.54
1/14/2023 4:15:00 PM 3.35 38.03 0.119 6.41 1.69 12.56
1/14/2023 4:30:00 PM 3.32 37.976 0.118 6.41 1.66 12.56
1/14/2023 4:45:00 PM 3.29 37.922 0.118 6.41 1.7 12.58
1/14/2023 5:00:00 PM 3.25 37.85 0.118 6.4 1.65 12.59
1/14/2023 5:15:00 PM 3.21 37.778 0.118 6.41 1.66 12.61
1/14/2023 5:30:00 PM 3.18 37.724 0.118 6.4 1.72 12.62
1/14/2023 5:45:00 PM 3.15 37.67 0.117 6.4 1.68 12.62
1/14/2023 6:00:00 PM 3.12 37.616 0.117 6.4 1.7 12.64
1/14/2023 6:15:00 PM 3.08 37.544 0.117 6.4 1.67 12.64
1/14/2023 6:30:00 PM 3.06 37.508 0.117 6.4 1.67 12.65
1/14/2023 6:45:00 PM 3.04 37.472 0.116 6.39 1.7 12.66
1/14/2023 7:00:00 PM 3.02 37.436 0.116 6.39 1.69 12.67
1/14/2023 7:15:00 PM 3 37.4 0.116 6.39 1.67 12.68
1/14/2023 7:30:00 PM 2.98 37.364 0.116 6.39 1.64 12.69
1/14/2023 7:45:00 PM 2.95 37.31 0.115 6.38 1.65 12.69
1/14/2023 8:00:00 PM 2.94 37.292 0.115 6.39 1.67 12.7
1/14/2023 8:15:00 PM 2.92 37.256 0.115 6.39 1.66 12.71
1/14/2023 8:30:00 PM 2.9 37.22 0.115 6.38 1.63 12.72
1/14/2023 8:45:00 PM 2.89 37.202 0.114 6.38 1.64 12.73
1/14/2023 9:00:00 PM 2.89 37.202 0.114 6.38 1.68 12.73
1/14/2023 9:15:00 PM 2.89 37.202 0.114 6.38 1.7 12.72
1/14/2023 9:30:00 PM 2.88 37.184 0.114 6.38 1.67 12.73
1/14/2023 9:45:00 PM 2.87 37.166 0.113 6.38 1.64 12.73
1/14/2023 10:00:00 PM 2.87 37.166 0.113 6.38 1.68 12.73
1/14/2023 10:15:00 PM 2.87 37.166 0.113 6.38 1.66 12.73
1/14/2023 10:30:00 PM 2.87 37.166 0.113 6.38 1.62 12.74
1/14/2023 10:45:00 PM 2.88 37.184 0.113 6.38 1.69 12.73
1/14/2023 11:00:00 PM 2.88 37.184 0.112 6.38 1.73 12.73
1/14/2023 11:15:00 PM 2.88 37.184 0.112 6.38 1.67 12.72
1/14/2023 11:30:00 PM 2.88 37.184 0.112 6.38 1.68 12.72
1/14/2023 11:45:00 PM 2.88 37.184 0.112 6.38 1.7 12.72
1/15/2023 12:00:00 AM 2.87 37.166 0.111 6.38 1.66 12.73
1/15/2023 12:15:00 AM 2.87 37.166 0.111 6.38 1.64 12.73
1/15/2023 12:30:00 AM 2.87 37.166 0.111 6.37 1.62 12.73
1/15/2023 12:45:00 AM 2.87 37.166 0.111 6.37 1.65 12.72
1/15/2023 1:00:00 AM 2.88 37.184 0.11 6.38 1.66 12.72
1/15/2023 1:15:00 AM 2.89 37.202 0.11 6.37 1.62 12.73
1/15/2023 1:30:00 AM 2.89 37.202 0.11 6.37 1.61 12.73
1/15/2023 1:45:00 AM 2.91 37.238 0.11 6.37 1.63 12.73
1/15/2023 2:00:00 AM 2.92 37.256 0.109 6.38 1.63 12.73
1/15/2023 2:15:00 AM 2.93 37.274 0.109 6.37 1.64 12.73
1/15/2023 2:30:00 AM 2.93 37.274 0.109 6.38 1.6 12.73
1/15/2023 2:45:00 AM 2.94 37.292 0.109 6.38 1.62 12.73
1/15/2023 3:00:00 AM 2.94 37.292 0.109 6.37 1.62 12.73
1/15/2023 3:15:00 AM 2.94 37.292 0.108 6.37 1.67 12.73
1/15/2023 3:30:00 AM 2.94 37.292 0.108 6.37 1.6 12.73
1/15/2023 3:45:00 AM 2.95 37.31 0.108 6.37 1.62 12.73
1/15/2023 4:00:00 AM 2.96 37.328 0.108 6.37 1.62 12.72
1/15/2023 4:15:00 AM 2.96 37.328 0.108 6.36 1.59 12.72
1/15/2023 4:30:00 AM 2.96 37.328 0.107 6.36 1.62 12.72
1/15/2023 4:45:00 AM 2.97 37.346 0.107 6.36 1.66 12.72
1/15/2023 5:00:00 AM 2.98 37.364 0.107 6.36 1.61 12.71
1/15/2023 5:15:00 AM 2.98 37.364 0.107 6.36 1.63 12.71
1/15/2023 5:30:00 AM 2.97 37.346 0.107 6.36 1.63 12.72
1/15/2023 5:45:00 AM 2.95 37.31 0.106 6.36 1.61 12.72
1/15/2023 6:00:00 AM 2.94 37.292 0.106 6.35 1.58 12.73
1/15/2023 6:15:00 AM 2.92 37.256 0.106 6.35 1.66 12.74
1/15/2023 6:30:00 AM 2.9 37.22 0.106 6.36 1.66 12.75
1/15/2023 6:45:00 AM 2.89 37.202 0.106 6.35 1.61 12.76
1/15/2023 7:00:00 AM 2.87 37.166 0.105 6.35 1.63 12.76
1/15/2023 7:15:00 AM 2.85 37.13 0.105 6.35 1.61 12.77
1/15/2023 7:30:00 AM 2.83 37.094 0.105 6.34 1.63 12.78
1/15/2023 7:45:00 AM 2.82 37.076 0.105 6.35 1.63 12.79
1/15/2023 8:00:00 AM 2.83 37.094 0.105 6.35 1.63 12.79
1/15/2023 8:15:00 AM 2.83 37.094 0.104 6.35 1.61 12.79
1/15/2023 8:30:00 AM 2.83 37.094 0.104 6.35 1.61 12.79
1/15/2023 8:45:00 AM 2.84 37.112 0.104 6.34 1.6 12.79
1/15/2023 9:00:00 AM 2.85 37.13 0.104 6.34 1.62 12.8
1/15/2023 9:15:00 AM 2.88 37.184 0.104 6.34 1.64 12.79
1/15/2023 9:30:00 AM 2.9 37.22 0.103 6.34 1.66 12.78
1/15/2023 9:45:00 AM 2.93 37.274 0.103 6.34 1.66 12.78
1/15/2023 10:00:00 AM 2.95 37.31 0.103 6.34 1.7 12.77
1/15/2023 10:15:00 AM 2.97 37.346 0.103 6.34 1.66 12.76
1/15/2023 10:30:00 AM 2.98 37.364 0.103 6.34 1.61 12.76
1/15/2023 10:45:00 AM 3.02 37.436 0.103 6.34 1.58 12.74
1/15/2023 11:00:00 AM 3.07 37.526 0.102 6.34 1.62 12.72
1/15/2023 11:15:00 AM 3.14 37.652 0.102 6.34 1.62 12.71
1/15/2023 11:30:00 AM 3.19 37.742 0.102 6.34 1.61 12.69
1/15/2023 11:45:00 AM 3.25 37.85 0.102 6.34 1.66 12.67
1/15/2023 12:00:00 PM 3.3 37.94 0.102 6.34 1.59 12.66
1/15/2023 12:15:00 PM 3.35 38.03 0.102 6.35 1.61 12.63
1/15/2023 12:30:00 PM 3.41 38.138 0.101 6.34 1.59 12.61
1/15/2023 12:45:00 PM 3.46 38.228 0.101 6.35 1.61 12.59
1/15/2023 1:00:00 PM 3.5 38.3 0.101 6.35 1.58 12.57
1/15/2023 1:15:00 PM 3.55 38.39 0.101 6.35 1.57 12.55
1/15/2023 1:30:00 PM 3.58 38.444 0.101 6.35 1.63 12.53
1/15/2023 1:45:00 PM 3.59 38.462 0.101 6.35 1.6 12.52
1/15/2023 2:00:00 PM 3.6 38.48 0.1 6.35 1.62 12.52
1/15/2023 2:15:00 PM 3.6 38.48 0.1 6.35 1.63 12.52
1/15/2023 2:30:00 PM 3.6 38.48 0.1 6.35 1.62 12.51
1/15/2023 2:45:00 PM 3.58 38.444 0.1 6.35 1.62 12.52
1/15/2023 3:00:00 PM 3.58 38.444 0.1 6.34 1.64 12.52
1/15/2023 3:15:00 PM 3.57 38.426 0.1 6.34 1.61 12.52
1/15/2023 3:30:00 PM 3.56 38.408 0.1 6.34 1.63 12.52
1/15/2023 3:45:00 PM 3.57 38.426 0.1 6.34 1.68 12.52
1/15/2023 4:00:00 PM 3.57 38.426 0.099 6.34 1.61 12.51
1/15/2023 4:15:00 PM 3.57 38.426 0.099 6.34 1.62 12.51
1/15/2023 4:30:00 PM 3.57 38.426 0.099 6.33 1.62 12.51
1/15/2023 4:45:00 PM 3.57 38.426 0.099 6.34 1.62 12.51
1/15/2023 5:00:00 PM 3.57 38.426 0.099 6.33 1.61 12.51
1/15/2023 5:15:00 PM 3.56 38.408 0.099 6.33 1.6 12.52
1/15/2023 5:30:00 PM 3.55 38.39 0.099 6.33 1.58 12.52
1/15/2023 5:45:00 PM 3.53 38.354 0.099 6.34 1.65 12.52
1/15/2023 6:00:00 PM 3.52 38.336 0.098 6.31 1.62 12.53
1/15/2023 6:15:00 PM 3.51 38.318 0.098 6.32 1.62 12.54
1/15/2023 6:30:00 PM 3.49 38.282 0.098 6.32 1.64 12.54
1/15/2023 6:45:00 PM 3.48 38.264 0.098 6.33 1.62 12.55
1/15/2023 7:00:00 PM 3.46 38.228 0.098 6.32 1.66 12.55
1/15/2023 7:15:00 PM 3.45 38.21 0.098 6.32 1.66 12.56
1/15/2023 7:30:00 PM 3.43 38.174 0.098 6.32 1.61 12.57
1/15/2023 7:45:00 PM 3.4 38.12 0.098 6.31 1.64 12.58
1/15/2023 8:00:00 PM 3.38 38.084 0.097 6.31 1.59 12.59
1/15/2023 8:15:00 PM 3.36 38.048 0.097 6.31 1.65 12.59
1/15/2023 8:30:00 PM 3.33 37.994 0.097 6.31 1.62 12.61
1/15/2023 8:45:00 PM 3.31 37.958 0.097 6.3 1.62 12.61
1/15/2023 9:00:00 PM 3.29 37.922 0.097 6.31 1.59 12.62
1/15/2023 9:15:00 PM 3.26 37.868 0.097 6.3 1.54 12.63
1/15/2023 9:30:00 PM 3.24 37.832 0.097 6.31 1.65 12.64
1/15/2023 9:45:00 PM 3.22 37.796 0.096 6.3 1.59 12.64
1/15/2023 10:00:00 PM 3.2 37.76 0.096 6.29 1.57 12.65
1/15/2023 10:15:00 PM 3.19 37.742 0.096 6.29 1.59 12.65
1/15/2023 10:30:00 PM 3.17 37.706 0.096 6.29 1.59 12.65
1/15/2023 10:45:00 PM 3.15 37.67 0.096 6.29 1.59 12.66
1/15/2023 11:00:00 PM 3.13 37.634 0.096 6.29 1.57 12.66
1/15/2023 11:15:00 PM 3.11 37.598 0.096 6.29 1.59 12.67
1/15/2023 11:30:00 PM 3.09 37.562 0.096 6.28 1.61 12.67
1/15/2023 11:45:00 PM 3.08 37.544 0.096 6.29 1.61 12.67
1/16/2023 12:00:00 AM 3.06 37.508 0.096 6.29 1.59 12.67
1/16/2023 12:15:00 AM 3.05 37.49 0.096 6.3 1.54 12.68
1/16/2023 12:30:00 AM 3.04 37.472 0.095 6.29 1.6 12.68
1/16/2023 12:45:00 AM 3.02 37.436 0.095 6.27 1.64 12.68
1/16/2023 1:00:00 AM 3.01 37.418 0.095 6.28 1.62 12.68
1/16/2023 1:15:00 AM 2.99 37.382 0.095 6.28 1.59 12.69
1/16/2023 1:30:00 AM 2.98 37.364 0.095 6.3 1.53 12.69
1/16/2023 1:45:00 AM 2.96 37.328 0.095 6.28 1.62 12.7
1/16/2023 2:00:00 AM 2.95 37.31 0.095 6.29 1.59 12.7
1/16/2023 2:15:00 AM 2.93 37.274 0.095 6.28 1.61 12.71
1/16/2023 2:30:00 AM 2.92 37.256 0.094 6.28 1.55 12.71
1/16/2023 2:45:00 AM 2.91 37.238 0.094 6.28 1.58 12.71
1/16/2023 3:00:00 AM 2.9 37.22 0.094 6.28 1.6 12.72
1/16/2023 3:15:00 AM 2.89 37.202 0.094 6.28 1.58 12.72
1/16/2023 3:30:00 AM 2.88 37.184 0.094 6.28 1.57 12.72
1/16/2023 3:45:00 AM 2.87 37.166 0.094 6.29 1.62 12.73
1/16/2023 4:00:00 AM 2.86 37.148 0.094 6.28 1.63 12.73
1/16/2023 4:15:00 AM 2.85 37.13 0.094 6.28 1.6 12.73
1/16/2023 4:30:00 AM 2.85 37.13 0.094 6.29 1.63 12.73
1/16/2023 4:45:00 AM 2.85 37.13 0.094 6.28 1.6 12.74
1/16/2023 5:00:00 AM 2.85 37.13 0.093 6.28 1.55 12.74
1/16/2023 5:15:00 AM 2.85 37.13 0.093 6.28 1.59 12.74
1/16/2023 5:30:00 AM 2.85 37.13 0.093 6.28 1.6 12.74
1/16/2023 5:45:00 AM 2.85 37.13 0.093 6.29 1.53 12.74
1/16/2023 6:00:00 AM 2.84 37.112 0.093 6.28 1.56 12.74
1/16/2023 6:15:00 AM 2.83 37.094 0.093 6.29 1.54 12.75
1/16/2023 6:30:00 AM 2.82 37.076 0.093 6.28 1.53 12.75
1/16/2023 6:45:00 AM 2.82 37.076 0.093 6.28 1.55 12.75
1/16/2023 7:00:00 AM 2.8 37.04 0.093 6.29 1.52 12.76
1/16/2023 7:15:00 AM 2.8 37.04 0.093 6.28 1.56 12.75
1/16/2023 7:30:00 AM 2.79 37.022 0.092 6.28 1.53 12.75
1/16/2023 7:45:00 AM 2.78 37.004 0.092 6.28 1.57 12.76
1/16/2023 8:00:00 AM 2.77 36.986 0.092 6.28 1.55 12.76
1/16/2023 8:15:00 AM 2.77 36.986 0.092 6.28 1.61 12.77
1/16/2023 8:30:00 AM 2.77 36.986 0.092 6.27 1.54 12.76
1/16/2023 8:45:00 AM 2.78 37.004 0.092 6.27 1.57 12.76
1/16/2023 9:00:00 AM 2.8 37.04 0.092 6.28 1.58 12.75
1/16/2023 9:15:00 AM 2.84 37.112 0.092 6.28 1.56